PWSweather.com
Personal Weather Stations
Station Observations
KMNHANSK2
Andys Live Weather Stations, Hanska, MN 56041

Andys Live Weather StationsHanska, MN 56041

Lat: 44.170119, Lon: -94.381619

Elevation: 1004

Station Type: Davis Instruments Vantage Pro2 Plus

http://www.madeliasliveweather.com/thompsonfarms/

Latest ConditionsUpdated 5:22:01 PM CDT Sunday, Aug 2, 2015
Currently Today's Max Today's Min Today's Average
Temperature 80.2°F26.8°C 83.9°F28.8°C 67.3°F19.6°C 75.6°F24.2°C
Dew Point 65.1°F18.4°C 72.1°F22.3°C 63.5°F17.5°C 67.3°F19.6°C
Winds 15.0 mph NW24.1 kmh NW 22.0 mph NW35.4 kmh NW - 7.7 mph 12.4 kmh
Wind Gusts 21.0 mph33.8 kmh 26.0 mph41.8 kmh - -
Humidity 60% 92% 55% 77%
Pressure 29.71 in1006.1 mb 29.74 in1007.1 mb 29.62 in1003.0 mb -
Hour Temp Dew Point Humidity Winds Wind Gusts Pressure Precip Precip Rate Daily Precip Total
05:22 PM 80.2°F26.8°C 65.1°F18.4°C 60% 15.0 mph NW24.1 kmh NW 21.0 mph33.8 kmh 29.71 in1006.1 mb 0.00 in0.0 mm 0.00 in0.0 mm 0.23 in5.8 mm
05:21 PM 80.2°F26.8°C 64.6°F18.1°C 59% 13.0 mph NW20.9 kmh NW 21.0 mph33.8 kmh 29.71 in1006.1 mb 0.00 in0.0 mm 0.00 in0.0 mm 0.23 in5.8 mm
05:20 PM 80.2°F26.8°C 64.6°F18.1°C 59% 17.0 mph NNW27.4 kmh NNW 21.0 mph33.8 kmh 29.71 in1006.1 mb 0.00 in0.0 mm 0.00 in0.0 mm 0.23 in5.8 mm
05:19 PM 80.2°F26.8°C 65.1°F18.4°C 60% 12.0 mph NNW19.3 kmh NNW 21.0 mph33.8 kmh 29.71 in1006.1 mb 0.00 in0.0 mm 0.00 in0.0 mm 0.23 in5.8 mm
05:18 PM 80.2°F26.8°C 65.1°F18.4°C 60% 10.0 mph NW16.1 kmh NW 21.0 mph33.8 kmh 29.71 in1006.1 mb 0.00 in0.0 mm 0.00 in0.0 mm 0.23 in5.8 mm
05:17 PM 80.2°F26.8°C 64.6°F18.1°C 59% 12.0 mph NW19.3 kmh NW 21.0 mph33.8 kmh 29.72 in1006.4 mb 0.00 in0.0 mm 0.00 in0.0 mm 0.23 in5.8 mm
05:16 PM 80.3°F26.8°C 64.7°F18.2°C 59% 16.0 mph NW25.7 kmh NW 21.0 mph33.8 kmh 29.72 in1006.4 mb 0.00 in0.0 mm 0.00 in0.0 mm 0.23 in5.8 mm
05:15 PM 80.3°F26.8°C 64.7°F18.2°C 59% 15.0 mph NW24.1 kmh NW 21.0 mph33.8 kmh 29.71 in1006.1 mb 0.00 in0.0 mm 0.00 in0.0 mm 0.23 in5.8 mm
05:14 PM 80.3°F26.8°C 64.7°F18.2°C 59% 14.0 mph NW22.5 kmh NW 21.0 mph33.8 kmh 29.71 in1006.1 mb 0.00 in0.0 mm 0.00 in0.0 mm 0.23 in5.8 mm
05:13 PM 80.3°F26.8°C 65.2°F18.4°C 60% 14.0 mph NW22.5 kmh NW 21.0 mph33.8 kmh 29.71 in1006.1 mb 0.00 in0.0 mm 0.00 in0.0 mm 0.23 in5.8 mm
05:12 PM 80.3°F26.8°C 65.2°F18.4°C 60% 15.0 mph NW24.1 kmh NW 21.0 mph33.8 kmh 29.72 in1006.4 mb 0.00 in0.0 mm 0.00 in0.0 mm 0.23 in5.8 mm
05:11 PM 80.4°F26.9°C 64.8°F18.2°C 59% 17.0 mph NW27.4 kmh NW 21.0 mph33.8 kmh 29.72 in1006.4 mb 0.00 in0.0 mm 0.00 in0.0 mm 0.23 in5.8 mm
05:10 PM 80.4°F26.9°C 64.3°F17.9°C 58% 12.0 mph NW19.3 kmh NW 21.0 mph33.8 kmh 29.71 in1006.1 mb 0.00 in0.0 mm 0.00 in0.0 mm 0.23 in5.8 mm
05:09 PM 80.4°F26.9°C 63.8°F17.7°C 57% 16.0 mph NW25.7 kmh NW 21.0 mph33.8 kmh 29.71 in1006.1 mb 0.00 in0.0 mm 0.00 in0.0 mm 0.23 in5.8 mm
05:08 PM 80.4°F26.9°C 63.8°F17.7°C 57% 16.0 mph NW25.7 kmh NW 21.0 mph33.8 kmh 29.71 in1006.1 mb 0.00 in0.0 mm 0.00 in0.0 mm 0.23 in5.8 mm
05:07 PM 80.5°F26.9°C 63.9°F17.7°C 57% 16.0 mph NW25.7 kmh NW 20.0 mph32.2 kmh 29.71 in1006.1 mb 0.00 in0.0 mm 0.00 in0.0 mm 0.23 in5.8 mm
05:06 PM 80.5°F26.9°C 63.9°F17.7°C 57% 11.0 mph NW17.7 kmh NW 18.0 mph29.0 kmh 29.71 in1006.1 mb 0.00 in0.0 mm 0.00 in0.0 mm 0.23 in5.8 mm
05:05 PM 80.6°F27.0°C 63.5°F17.5°C 56% 15.0 mph NW24.1 kmh NW 18.0 mph29.0 kmh 29.71 in1006.1 mb 0.00 in0.0 mm 0.00 in0.0 mm 0.23 in5.8 mm
05:04 PM 80.6°F27.0°C 63.5°F17.5°C 56% 13.0 mph NW20.9 kmh NW 18.0 mph29.0 kmh 29.71 in1006.1 mb 0.00 in0.0 mm 0.00 in0.0 mm 0.23 in5.8 mm
05:03 PM 80.7°F27.1°C 64.1°F17.8°C 57% 13.0 mph NW20.9 kmh NW 17.0 mph27.4 kmh 29.71 in1006.1 mb 0.00 in0.0 mm 0.00 in0.0 mm 0.23 in5.8 mm
05:02 PM 80.7°F27.1°C 63.6°F17.6°C 56% 13.0 mph WNW20.9 kmh WNW 25.0 mph40.2 kmh 29.71 in1006.1 mb 0.00 in0.0 mm 0.00 in0.0 mm 0.23 in5.8 mm
05:01 PM 80.7°F27.1°C 64.6°F18.1°C 58% 16.0 mph NW25.7 kmh NW 25.0 mph40.2 kmh 29.71 in1006.1 mb 0.00 in0.0 mm 0.00 in0.0 mm 0.23 in5.8 mm
05:00 PM 80.8°F27.1°C 64.7°F18.2°C 58% 10.0 mph NW16.1 kmh NW 25.0 mph40.2 kmh 29.71 in1006.1 mb 0.00 in0.0 mm 0.00 in0.0 mm 0.23 in5.8 mm
04:59 PM 80.8°F27.1°C 64.7°F18.2°C 58% 15.0 mph NW24.1 kmh NW 25.0 mph40.2 kmh 29.71 in1006.1 mb 0.00 in0.0 mm 0.00 in0.0 mm 0.23 in5.8 mm
04:58 PM 80.9°F27.2°C 64.8°F18.2°C 58% 17.0 mph NW27.4 kmh NW 25.0 mph40.2 kmh 29.71 in1006.1 mb 0.00 in0.0 mm 0.00 in0.0 mm 0.23 in5.8 mm
04:57 PM 80.9°F27.2°C 64.8°F18.2°C 58% 13.0 mph NW20.9 kmh NW 25.0 mph40.2 kmh 29.71 in1006.1 mb 0.00 in0.0 mm 0.00 in0.0 mm 0.23 in5.8 mm
04:56 PM 81.0°F27.2°C 64.4°F18.0°C 57% 15.0 mph WNW24.1 kmh WNW 25.0 mph40.2 kmh 29.71 in1006.1 mb 0.00 in0.0 mm 0.00 in0.0 mm 0.23 in5.8 mm
04:55 PM 81.1°F27.3°C 64.9°F18.3°C 58% 17.0 mph NW27.4 kmh NW 25.0 mph40.2 kmh 29.70 in1005.8 mb 0.00 in0.0 mm 0.00 in0.0 mm 0.23 in5.8 mm
04:54 PM 81.1°F27.3°C 64.9°F18.3°C 58% 21.0 mph NW33.8 kmh NW 25.0 mph40.2 kmh 29.71 in1006.1 mb 0.00 in0.0 mm 0.00 in0.0 mm 0.23 in5.8 mm
04:53 PM 81.1°F27.3°C 66.4°F19.1°C 61% 13.0 mph NW20.9 kmh NW 25.0 mph40.2 kmh 29.71 in1006.1 mb 0.00 in0.0 mm 0.00 in0.0 mm 0.23 in5.8 mm
04:52 PM 81.1°F27.3°C 66.9°F19.4°C 62% 18.0 mph NW29.0 kmh NW 25.0 mph40.2 kmh 29.71 in1006.1 mb 0.00 in0.0 mm 0.00 in0.0 mm 0.23 in5.8 mm
04:51 PM 81.2°F27.3°C 66.0°F18.9°C 60% 17.0 mph WNW27.4 kmh WNW 25.0 mph40.2 kmh 29.70 in1005.8 mb 0.00 in0.0 mm 0.00 in0.0 mm 0.23 in5.8 mm
04:50 PM 81.2°F27.3°C 66.0°F18.9°C 60% 16.0 mph NW25.7 kmh NW 25.0 mph40.2 kmh 29.71 in1006.1 mb 0.00 in0.0 mm 0.00 in0.0 mm 0.23 in5.8 mm
04:49 PM 81.2°F27.3°C 66.0°F18.9°C 60% 11.0 mph NW17.7 kmh NW 25.0 mph40.2 kmh 29.70 in1005.8 mb 0.00 in0.0 mm 0.00 in0.0 mm 0.23 in5.8 mm
04:48 PM 81.3°F27.4°C 65.6°F18.7°C 59% 14.0 mph NW22.5 kmh NW 25.0 mph40.2 kmh 29.70 in1005.8 mb 0.00 in0.0 mm 0.00 in0.0 mm 0.23 in5.8 mm
04:47 PM 81.4°F27.4°C 65.7°F18.7°C 59% 17.0 mph NW27.4 kmh NW 25.0 mph40.2 kmh 29.70 in1005.8 mb 0.00 in0.0 mm 0.00 in0.0 mm 0.23 in5.8 mm
04:46 PM 81.4°F27.4°C 65.2°F18.4°C 58% 16.0 mph NW25.7 kmh NW 25.0 mph40.2 kmh 29.70 in1005.8 mb 0.00 in0.0 mm 0.00 in0.0 mm 0.23 in5.8 mm
04:45 PM 81.5°F27.5°C 66.3°F19.1°C 60% 19.0 mph NW30.6 kmh NW 25.0 mph40.2 kmh 29.70 in1005.8 mb 0.00 in0.0 mm 0.00 in0.0 mm 0.23 in5.8 mm
04:44 PM 81.5°F27.5°C 66.3°F19.1°C 60% 15.0 mph WNW24.1 kmh WNW 25.0 mph40.2 kmh 29.70 in1005.8 mb 0.00 in0.0 mm 0.00 in0.0 mm 0.23 in5.8 mm
04:43 PM 81.6°F27.6°C 65.4°F18.6°C 58% 13.0 mph NNW20.9 kmh NNW 25.0 mph40.2 kmh 29.70 in1005.8 mb 0.00 in0.0 mm 0.00 in0.0 mm 0.23 in5.8 mm
04:42 PM 81.6°F27.6°C 66.4°F19.1°C 60% 21.0 mph NW33.8 kmh NW 25.0 mph40.2 kmh 29.70 in1005.8 mb 0.00 in0.0 mm 0.00 in0.0 mm 0.23 in5.8 mm
04:41 PM 81.6°F27.6°C 65.9°F18.8°C 59% 11.0 mph NW17.7 kmh NW 25.0 mph40.2 kmh 29.70 in1005.8 mb 0.00 in0.0 mm 0.00 in0.0 mm 0.23 in5.8 mm
04:40 PM 81.6°F27.6°C 65.9°F18.8°C 59% 15.0 mph NW24.1 kmh NW 25.0 mph40.2 kmh 29.70 in1005.8 mb 0.00 in0.0 mm 0.00 in0.0 mm 0.23 in5.8 mm
04:39 PM 81.6°F27.6°C 65.9°F18.8°C 59% 11.0 mph NW17.7 kmh NW 25.0 mph40.2 kmh 29.70 in1005.8 mb 0.00 in0.0 mm 0.00 in0.0 mm 0.23 in5.8 mm
04:38 PM 81.7°F27.6°C 66.0°F18.9°C 59% 15.0 mph NW24.1 kmh NW 25.0 mph40.2 kmh 29.70 in1005.8 mb 0.00 in0.0 mm 0.00 in0.0 mm 0.23 in5.8 mm
04:37 PM 81.7°F27.6°C 66.0°F18.9°C 59% 17.0 mph NW27.4 kmh NW 22.0 mph35.4 kmh 29.70 in1005.8 mb 0.00 in0.0 mm 0.00 in0.0 mm 0.23 in5.8 mm
04:36 PM 81.8°F27.7°C 66.6°F19.2°C 60% 16.0 mph NW25.7 kmh NW 18.0 mph29.0 kmh 29.70 in1005.8 mb 0.00 in0.0 mm 0.00 in0.0 mm 0.23 in5.8 mm
04:35 PM 81.8°F27.7°C 66.6°F19.2°C 60% 13.0 mph NNW20.9 kmh NNW 17.0 mph27.4 kmh 29.70 in1005.8 mb 0.00 in0.0 mm 0.00 in0.0 mm 0.23 in5.8 mm
04:34 PM 81.8°F27.7°C 66.6°F19.2°C 60% 13.0 mph NW20.9 kmh NW 16.0 mph25.7 kmh 29.70 in1005.8 mb 0.00 in0.0 mm 0.00 in0.0 mm 0.23 in5.8 mm
04:33 PM 81.8°F27.7°C 66.6°F19.2°C 60% 12.0 mph NW19.3 kmh NW 14.0 mph22.5 kmh 29.71 in1006.1 mb 0.00 in0.0 mm 0.00 in0.0 mm 0.23 in5.8 mm
04:32 PM 81.9°F27.7°C 66.2°F19.0°C 59% 14.0 mph NW22.5 kmh NW 22.0 mph35.4 kmh 29.70 in1005.8 mb 0.00 in0.0 mm 0.00 in0.0 mm 0.23 in5.8 mm
04:31 PM 81.9°F27.7°C 66.2°F19.0°C 59% 11.0 mph NW17.7 kmh NW 22.0 mph35.4 kmh 29.70 in1005.8 mb 0.00 in0.0 mm 0.00 in0.0 mm 0.23 in5.8 mm
04:30 PM 81.9°F27.7°C 65.7°F18.7°C 58% 15.0 mph NW24.1 kmh NW 22.0 mph35.4 kmh 29.71 in1006.1 mb 0.00 in0.0 mm 0.00 in0.0 mm 0.23 in5.8 mm
04:29 PM 82.0°F27.8°C 65.3°F18.5°C 57% 19.0 mph NW30.6 kmh NW 22.0 mph35.4 kmh 29.70 in1005.8 mb 0.00 in0.0 mm 0.00 in0.0 mm 0.23 in5.8 mm
04:28 PM 82.0°F27.8°C 65.8°F18.8°C 58% 16.0 mph NW25.7 kmh NW 22.0 mph35.4 kmh 29.70 in1005.8 mb 0.00 in0.0 mm 0.00 in0.0 mm 0.23 in5.8 mm
04:27 PM 82.0°F27.8°C 65.3°F18.5°C 57% 17.0 mph NW27.4 kmh NW 22.0 mph35.4 kmh 29.70 in1005.8 mb 0.00 in0.0 mm 0.00 in0.0 mm 0.23 in5.8 mm
04:26 PM 82.1°F27.8°C 65.9°F18.8°C 58% 14.0 mph WNW22.5 kmh WNW 22.0 mph35.4 kmh 29.70 in1005.8 mb 0.00 in0.0 mm 0.00 in0.0 mm 0.23 in5.8 mm
04:25 PM 82.1°F27.8°C 65.4°F18.6°C 57% 14.0 mph NW22.5 kmh NW 22.0 mph35.4 kmh 29.70 in1005.8 mb 0.00 in0.0 mm 0.00 in0.0 mm 0.23 in5.8 mm
04:24 PM 82.1°F27.8°C 66.4°F19.1°C 59% 15.0 mph NW24.1 kmh NW 22.0 mph35.4 kmh 29.70 in1005.8 mb 0.00 in0.0 mm 0.00 in0.0 mm 0.23 in5.8 mm
04:23 PM 82.1°F27.8°C 65.9°F18.8°C 58% 15.0 mph NW24.1 kmh NW 22.0 mph35.4 kmh 29.70 in1005.8 mb 0.00 in0.0 mm 0.00 in0.0 mm 0.23 in5.8 mm
04:22 PM 82.2°F27.9°C 66.5°F19.2°C 59% 16.0 mph NW25.7 kmh NW 22.0 mph35.4 kmh 29.70 in1005.8 mb 0.00 in0.0 mm 0.00 in0.0 mm 0.23 in5.8 mm
04:21 PM 82.2°F27.9°C 65.5°F18.6°C 57% 11.0 mph NW17.7 kmh NW 22.0 mph35.4 kmh 29.70 in1005.8 mb 0.00 in0.0 mm 0.00 in0.0 mm 0.23 in5.8 mm
04:20 PM 82.2°F27.9°C 66.5°F19.2°C 59% 13.0 mph NW20.9 kmh NW 22.0 mph35.4 kmh 29.70 in1005.8 mb 0.00 in0.0 mm 0.00 in0.0 mm 0.23 in5.8 mm
04:19 PM 82.1°F27.8°C 65.9°F18.8°C 58% 13.0 mph NW20.9 kmh NW 22.0 mph35.4 kmh 29.70 in1005.8 mb 0.00 in0.0 mm 0.00 in0.0 mm 0.23 in5.8 mm
04:18 PM 82.1°F27.8°C 65.4°F18.6°C 57% 12.0 mph WNW19.3 kmh WNW 22.0 mph35.4 kmh 29.70 in1005.8 mb 0.00 in0.0 mm 0.00 in0.0 mm 0.23 in5.8 mm
04:17 PM 82.2°F27.9°C 65.0°F18.3°C 56% 15.0 mph NW24.1 kmh NW 22.0 mph35.4 kmh 29.70 in1005.8 mb 0.00 in0.0 mm 0.00 in0.0 mm 0.23 in5.8 mm
04:16 PM 82.2°F27.9°C 66.0°F18.9°C 58% 21.0 mph NW33.8 kmh NW 22.0 mph35.4 kmh 29.70 in1005.8 mb 0.00 in0.0 mm 0.00 in0.0 mm 0.23 in5.8 mm
04:15 PM 82.3°F27.9°C 66.1°F18.9°C 58% 15.0 mph WNW24.1 kmh WNW 22.0 mph35.4 kmh 29.70 in1005.8 mb 0.00 in0.0 mm 0.00 in0.0 mm 0.23 in5.8 mm
04:14 PM 82.3°F27.9°C 65.6°F18.7°C 57% 14.0 mph NW22.5 kmh NW 22.0 mph35.4 kmh 29.70 in1005.8 mb 0.00 in0.0 mm 0.00 in0.0 mm 0.23 in5.8 mm
04:13 PM 82.3°F27.9°C 65.1°F18.4°C 56% 16.0 mph WNW25.7 kmh WNW 22.0 mph35.4 kmh 29.70 in1005.8 mb 0.00 in0.0 mm 0.00 in0.0 mm 0.23 in5.8 mm
04:12 PM 82.4°F28.0°C 67.1°F19.5°C 60% 16.0 mph NW25.7 kmh NW 21.0 mph33.8 kmh 29.70 in1005.8 mb 0.00 in0.0 mm 0.00 in0.0 mm 0.23 in5.8 mm
04:11 PM 82.4°F28.0°C 67.6°F19.8°C 61% 14.0 mph NW22.5 kmh NW 21.0 mph33.8 kmh 29.70 in1005.8 mb 0.00 in0.0 mm 0.00 in0.0 mm 0.23 in5.8 mm
04:10 PM 82.4°F28.0°C 67.1°F19.5°C 60% 12.0 mph NW19.3 kmh NW 21.0 mph33.8 kmh 29.70 in1005.8 mb 0.00 in0.0 mm 0.00 in0.0 mm 0.23 in5.8 mm
04:09 PM 82.5°F28.1°C 66.7°F19.3°C 59% 13.0 mph NW20.9 kmh NW 21.0 mph33.8 kmh 29.70 in1005.8 mb 0.00 in0.0 mm 0.00 in0.0 mm 0.23 in5.8 mm
04:08 PM 82.5°F28.1°C 66.7°F19.3°C 59% 17.0 mph NW27.4 kmh NW 21.0 mph33.8 kmh 29.70 in1005.8 mb 0.00 in0.0 mm 0.00 in0.0 mm 0.23 in5.8 mm
04:07 PM 82.6°F28.1°C 66.8°F19.3°C 59% 14.0 mph WNW22.5 kmh WNW 21.0 mph33.8 kmh 29.70 in1005.8 mb 0.00 in0.0 mm 0.00 in0.0 mm 0.23 in5.8 mm
04:06 PM 82.6°F28.1°C 67.3°F19.6°C 60% 16.0 mph NW25.7 kmh NW 21.0 mph33.8 kmh 29.70 in1005.8 mb 0.00 in0.0 mm 0.00 in0.0 mm 0.23 in5.8 mm
04:05 PM 82.6°F28.1°C 67.3°F19.6°C 60% 13.0 mph NW20.9 kmh NW 16.0 mph25.7 kmh 29.70 in1005.8 mb 0.00 in0.0 mm 0.00 in0.0 mm 0.23 in5.8 mm
04:04 PM 82.6°F28.1°C 66.8°F19.3°C 59% 12.0 mph NW19.3 kmh NW 15.0 mph24.1 kmh 29.70 in1005.8 mb 0.00 in0.0 mm 0.00 in0.0 mm 0.23 in5.8 mm
04:03 PM 82.7°F28.2°C 66.4°F19.1°C 58% 11.0 mph W17.7 kmh W 15.0 mph24.1 kmh 29.69 in1005.4 mb 0.00 in0.0 mm 0.00 in0.0 mm 0.23 in5.8 mm
04:02 PM 82.7°F28.2°C 65.9°F18.8°C 57% 5.0 mph WNW8.0 kmh WNW 21.0 mph33.8 kmh 29.69 in1005.4 mb 0.00 in0.0 mm 0.00 in0.0 mm 0.23 in5.8 mm
04:01 PM 82.8°F28.2°C 65.5°F18.6°C 56% 14.0 mph NW22.5 kmh NW 21.0 mph33.8 kmh 29.69 in1005.4 mb 0.00 in0.0 mm 0.00 in0.0 mm 0.23 in5.8 mm
04:00 PM 82.9°F28.3°C 66.1°F18.9°C 57% 12.0 mph NW19.3 kmh NW 21.0 mph33.8 kmh 29.69 in1005.4 mb 0.00 in0.0 mm 0.00 in0.0 mm 0.23 in5.8 mm
03:59 PM 82.9°F28.3°C 66.6°F19.2°C 58% 9.0 mph WNW14.5 kmh WNW 21.0 mph33.8 kmh 29.69 in1005.4 mb 0.00 in0.0 mm 0.00 in0.0 mm 0.23 in5.8 mm
03:58 PM 82.9°F28.3°C 66.1°F18.9°C 57% 13.0 mph NW20.9 kmh NW 21.0 mph33.8 kmh 29.69 in1005.4 mb 0.00 in0.0 mm 0.00 in0.0 mm 0.23 in5.8 mm
03:57 PM 83.0°F28.3°C 67.7°F19.8°C 60% 16.0 mph NW25.7 kmh NW 21.0 mph33.8 kmh 29.69 in1005.4 mb 0.00 in0.0 mm 0.00 in0.0 mm 0.23 in5.8 mm
03:56 PM 83.0°F28.3°C 66.7°F19.3°C 58% 7.0 mph NW11.3 kmh NW 21.0 mph33.8 kmh 29.69 in1005.4 mb 0.00 in0.0 mm 0.00 in0.0 mm 0.23 in5.8 mm
03:55 PM 83.0°F28.3°C 66.2°F19.0°C 57% 7.0 mph NW11.3 kmh NW 21.0 mph33.8 kmh 29.69 in1005.4 mb 0.00 in0.0 mm 0.00 in0.0 mm 0.23 in5.8 mm
03:54 PM 83.0°F28.3°C 66.7°F19.3°C 58% 14.0 mph WNW22.5 kmh WNW 21.0 mph33.8 kmh 29.69 in1005.4 mb 0.00 in0.0 mm 0.00 in0.0 mm 0.23 in5.8 mm
03:53 PM 83.0°F28.3°C 66.7°F19.3°C 58% 11.0 mph NW17.7 kmh NW 21.0 mph33.8 kmh 29.69 in1005.4 mb 0.00 in0.0 mm 0.00 in0.0 mm 0.23 in5.8 mm
03:52 PM 83.0°F28.3°C 66.2°F19.0°C 57% 16.0 mph NW25.7 kmh NW 21.0 mph33.8 kmh 29.69 in1005.4 mb 0.00 in0.0 mm 0.00 in0.0 mm 0.23 in5.8 mm
03:51 PM 83.1°F28.4°C 66.3°F19.1°C 57% 15.0 mph NW24.1 kmh NW 21.0 mph33.8 kmh 29.69 in1005.4 mb 0.00 in0.0 mm 0.00 in0.0 mm 0.23 in5.8 mm
03:50 PM 83.1°F28.4°C 65.8°F18.8°C 56% 13.0 mph NW20.9 kmh NW 21.0 mph33.8 kmh 29.69 in1005.4 mb 0.00 in0.0 mm 0.00 in0.0 mm 0.23 in5.8 mm
03:49 PM 83.2°F28.4°C 66.9°F19.4°C 58% 16.0 mph NW25.7 kmh NW 21.0 mph33.8 kmh 29.69 in1005.4 mb 0.00 in0.0 mm 0.00 in0.0 mm 0.23 in5.8 mm
03:48 PM 83.2°F28.4°C 66.4°F19.1°C 57% 13.0 mph NW20.9 kmh NW 21.0 mph33.8 kmh 29.69 in1005.4 mb 0.00 in0.0 mm 0.00 in0.0 mm 0.23 in5.8 mm
03:47 PM 83.1°F28.4°C 67.3°F19.6°C 59% 10.0 mph NW16.1 kmh NW 21.0 mph33.8 kmh 29.69 in1005.4 mb 0.00 in0.0 mm 0.00 in0.0 mm 0.23 in5.8 mm
03:46 PM 83.2°F28.4°C 66.9°F19.4°C 58% 13.0 mph NW20.9 kmh NW 21.0 mph33.8 kmh 29.69 in1005.4 mb 0.00 in0.0 mm 0.00 in0.0 mm 0.23 in5.8 mm
03:45 PM 83.2°F28.4°C 67.4°F19.7°C 59% 12.0 mph NW19.3 kmh NW 21.0 mph33.8 kmh 29.69 in1005.4 mb 0.00 in0.0 mm 0.00 in0.0 mm 0.23 in5.8 mm
03:44 PM 83.2°F28.4°C 67.9°F19.9°C 60% 17.0 mph NW27.4 kmh NW 21.0 mph33.8 kmh 29.69 in1005.4 mb 0.00 in0.0 mm 0.00 in0.0 mm 0.23 in5.8 mm
03:43 PM 83.2°F28.4°C 67.4°F19.7°C 59% 11.0 mph NW17.7 kmh NW 21.0 mph33.8 kmh 29.69 in1005.4 mb 0.00 in0.0 mm 0.00 in0.0 mm 0.23 in5.8 mm
03:42 PM 83.2°F28.4°C 67.4°F19.7°C 59% 11.0 mph NW17.7 kmh NW 21.0 mph33.8 kmh 29.69 in1005.4 mb 0.00 in0.0 mm 0.00 in0.0 mm 0.23 in5.8 mm
03:41 PM 83.2°F28.4°C 67.4°F19.7°C 59% 15.0 mph NW24.1 kmh NW 21.0 mph33.8 kmh 29.69 in1005.4 mb 0.00 in0.0 mm 0.00 in0.0 mm 0.23 in5.8 mm
03:40 PM 83.3°F28.5°C 66.5°F19.2°C 57% 14.0 mph NW22.5 kmh NW 21.0 mph33.8 kmh 29.69 in1005.4 mb 0.00 in0.0 mm 0.00 in0.0 mm 0.23 in5.8 mm
03:39 PM 83.3°F28.5°C 67.0°F19.4°C 58% 16.0 mph NW25.7 kmh NW 21.0 mph33.8 kmh 29.69 in1005.4 mb 0.00 in0.0 mm 0.00 in0.0 mm 0.23 in5.8 mm
03:38 PM 83.4°F28.6°C 66.6°F19.2°C 57% 14.0 mph NW22.5 kmh NW 21.0 mph33.8 kmh 29.69 in1005.4 mb 0.00 in0.0 mm 0.00 in0.0 mm 0.23 in5.8 mm
03:37 PM 83.5°F28.6°C 67.7°F19.8°C 59% 15.0 mph NW24.1 kmh NW 21.0 mph33.8 kmh 29.69 in1005.4 mb 0.00 in0.0 mm 0.00 in0.0 mm 0.23 in5.8 mm
03:36 PM 83.5°F28.6°C 67.2°F19.6°C 58% 12.0 mph NW19.3 kmh NW 21.0 mph33.8 kmh 29.69 in1005.4 mb 0.00 in0.0 mm 0.00 in0.0 mm 0.23 in5.8 mm
03:35 PM 83.5°F28.6°C 67.2°F19.6°C 58% 12.0 mph NW19.3 kmh NW 19.0 mph30.6 kmh 29.69 in1005.4 mb 0.00 in0.0 mm 0.00 in0.0 mm 0.23 in5.8 mm
03:34 PM 83.6°F28.7°C 67.8°F19.9°C 59% 18.0 mph NNW29.0 kmh NNW 19.0 mph30.6 kmh 29.69 in1005.4 mb 0.00 in0.0 mm 0.00 in0.0 mm 0.23 in5.8 mm
03:33 PM 83.5°F28.6°C 67.7°F19.8°C 59% 13.0 mph NW20.9 kmh NW 18.0 mph29.0 kmh 29.69 in1005.4 mb 0.00 in0.0 mm 0.00 in0.0 mm 0.23 in5.8 mm
03:32 PM 83.6°F28.7°C 68.3°F20.2°C 60% 14.0 mph NW22.5 kmh NW 23.0 mph37.0 kmh 29.69 in1005.4 mb 0.00 in0.0 mm 0.00 in0.0 mm 0.23 in5.8 mm
03:31 PM 83.6°F28.7°C 67.8°F19.9°C 59% 10.0 mph NW16.1 kmh NW 23.0 mph37.0 kmh 29.69 in1005.4 mb 0.00 in0.0 mm 0.00 in0.0 mm 0.23 in5.8 mm
03:30 PM 83.6°F28.7°C 68.3°F20.2°C 60% 15.0 mph NW24.1 kmh NW 23.0 mph37.0 kmh 29.69 in1005.4 mb 0.00 in0.0 mm 0.00 in0.0 mm 0.23 in5.8 mm
03:29 PM 83.6°F28.7°C 68.3°F20.2°C 60% 15.0 mph NW24.1 kmh NW 23.0 mph37.0 kmh 29.69 in1005.4 mb 0.00 in0.0 mm 0.00 in0.0 mm 0.23 in5.8 mm
03:28 PM 83.6°F28.7°C 68.3°F20.2°C 60% 14.0 mph NW22.5 kmh NW 23.0 mph37.0 kmh 29.69 in1005.4 mb 0.00 in0.0 mm 0.00 in0.0 mm 0.23 in5.8 mm
03:27 PM 83.6°F28.7°C 68.3°F20.2°C 60% 14.0 mph NW22.5 kmh NW 23.0 mph37.0 kmh 29.69 in1005.4 mb 0.00 in0.0 mm 0.00 in0.0 mm 0.23 in5.8 mm
03:26 PM 83.6°F28.7°C 67.8°F19.9°C 59% 13.0 mph NW20.9 kmh NW 23.0 mph37.0 kmh 29.69 in1005.4 mb 0.00 in0.0 mm 0.00 in0.0 mm 0.23 in5.8 mm
03:25 PM 83.6°F28.7°C 68.3°F20.2°C 60% 10.0 mph WNW16.1 kmh WNW 23.0 mph37.0 kmh 29.69 in1005.4 mb 0.00 in0.0 mm 0.00 in0.0 mm 0.23 in5.8 mm
03:24 PM 83.6°F28.7°C 68.3°F20.2°C 60% 6.0 mph WNW9.7 kmh WNW 23.0 mph37.0 kmh 29.69 in1005.4 mb 0.00 in0.0 mm 0.00 in0.0 mm 0.23 in5.8 mm
03:23 PM 83.6°F28.7°C 66.8°F19.3°C 57% 13.0 mph NW20.9 kmh NW 23.0 mph37.0 kmh 29.69 in1005.4 mb 0.00 in0.0 mm 0.00 in0.0 mm 0.23 in5.8 mm
03:22 PM 83.5°F28.6°C 67.7°F19.8°C 59% 11.0 mph NW17.7 kmh NW 23.0 mph37.0 kmh 29.69 in1005.4 mb 0.00 in0.0 mm 0.00 in0.0 mm 0.23 in5.8 mm
03:21 PM 83.6°F28.7°C 66.8°F19.3°C 57% 12.0 mph NW19.3 kmh NW 23.0 mph37.0 kmh 29.69 in1005.4 mb 0.00 in0.0 mm 0.00 in0.0 mm 0.23 in5.8 mm
03:20 PM 83.5°F28.6°C 67.7°F19.8°C 59% 17.0 mph NW27.4 kmh NW 23.0 mph37.0 kmh 29.69 in1005.4 mb 0.00 in0.0 mm 0.00 in0.0 mm 0.23 in5.8 mm
03:19 PM 83.5°F28.6°C 67.2°F19.6°C 58% 13.0 mph NW20.9 kmh NW 23.0 mph37.0 kmh 29.69 in1005.4 mb 0.00 in0.0 mm 0.00 in0.0 mm 0.23 in5.8 mm
03:18 PM 83.5°F28.6°C 67.2°F19.6°C 58% 13.0 mph NW20.9 kmh NW 23.0 mph37.0 kmh 29.69 in1005.4 mb 0.00 in0.0 mm 0.00 in0.0 mm 0.23 in5.8 mm
03:17 PM 83.6°F28.7°C 67.3°F19.6°C 58% 13.0 mph NW20.9 kmh NW 23.0 mph37.0 kmh 29.69 in1005.4 mb 0.00 in0.0 mm 0.00 in0.0 mm 0.23 in5.8 mm
03:16 PM 83.6°F28.7°C 66.3°F19.1°C 56% 15.0 mph NW24.1 kmh NW 23.0 mph37.0 kmh 29.69 in1005.4 mb 0.00 in0.0 mm 0.00 in0.0 mm 0.23 in5.8 mm
03:15 PM 83.6°F28.7°C 66.3°F19.1°C 56% 21.0 mph NW33.8 kmh NW 23.0 mph37.0 kmh 29.69 in1005.4 mb 0.00 in0.0 mm 0.00 in0.0 mm 0.23 in5.8 mm
03:14 PM 83.7°F28.7°C 65.8°F18.8°C 55% 17.0 mph NW27.4 kmh NW 23.0 mph37.0 kmh 29.69 in1005.4 mb 0.00 in0.0 mm 0.00 in0.0 mm 0.23 in5.8 mm
03:13 PM 83.7°F28.7°C 66.4°F19.1°C 56% 21.0 mph NW33.8 kmh NW 23.0 mph37.0 kmh 29.69 in1005.4 mb 0.00 in0.0 mm 0.00 in0.0 mm 0.23 in5.8 mm
03:12 PM 83.8°F28.8°C 66.5°F19.2°C 56% 14.0 mph NW22.5 kmh NW 23.0 mph37.0 kmh 29.69 in1005.4 mb 0.00 in0.0 mm 0.00 in0.0 mm 0.23 in5.8 mm
03:11 PM 83.8°F28.8°C 67.0°F19.4°C 57% 15.0 mph NW24.1 kmh NW 23.0 mph37.0 kmh 29.69 in1005.4 mb 0.00 in0.0 mm 0.00 in0.0 mm 0.23 in5.8 mm
03:10 PM 83.9°F28.8°C 66.5°F19.2°C 56% 10.0 mph NW16.1 kmh NW 20.0 mph32.2 kmh 29.69 in1005.4 mb 0.00 in0.0 mm 0.00 in0.0 mm 0.23 in5.8 mm
03:09 PM 83.9°F28.8°C 66.5°F19.2°C 56% 16.0 mph NW25.7 kmh NW 20.0 mph32.2 kmh 29.69 in1005.4 mb 0.00 in0.0 mm 0.00 in0.0 mm 0.23 in5.8 mm
03:08 PM 83.9°F28.8°C 67.1°F19.5°C 57% 10.0 mph NW16.1 kmh NW 20.0 mph32.2 kmh 29.69 in1005.4 mb 0.00 in0.0 mm 0.00 in0.0 mm 0.23 in5.8 mm
03:07 PM 83.9°F28.8°C 67.1°F19.5°C 57% 12.0 mph NW19.3 kmh NW 20.0 mph32.2 kmh 29.69 in1005.4 mb 0.00 in0.0 mm 0.00 in0.0 mm 0.23 in5.8 mm
03:06 PM 83.9°F28.8°C 69.5°F20.8°C 62% 14.0 mph NW22.5 kmh NW 16.0 mph25.7 kmh 29.69 in1005.4 mb 0.00 in0.0 mm 0.00 in0.0 mm 0.23 in5.8 mm
03:05 PM 83.9°F28.8°C 69.0°F20.6°C 61% 15.0 mph NW24.1 kmh NW 16.0 mph25.7 kmh 29.69 in1005.4 mb 0.00 in0.0 mm 0.00 in0.0 mm 0.23 in5.8 mm
03:04 PM 83.8°F28.8°C 68.5°F20.3°C 60% 11.0 mph WNW17.7 kmh WNW 16.0 mph25.7 kmh 29.69 in1005.4 mb 0.00 in0.0 mm 0.00 in0.0 mm 0.23 in5.8 mm
03:03 PM 83.8°F28.8°C 67.0°F19.4°C 57% 10.0 mph NW16.1 kmh NW 16.0 mph25.7 kmh 29.69 in1005.4 mb 0.00 in0.0 mm 0.00 in0.0 mm 0.23 in5.8 mm
03:02 PM 83.9°F28.8°C 66.5°F19.2°C 56% 14.0 mph NW22.5 kmh NW 22.0 mph35.4 kmh 29.69 in1005.4 mb 0.00 in0.0 mm 0.00 in0.0 mm 0.23 in5.8 mm
03:01 PM 83.8°F28.8°C 68.0°F20.0°C 59% 13.0 mph NW20.9 kmh NW 22.0 mph35.4 kmh 29.69 in1005.4 mb 0.00 in0.0 mm 0.00 in0.0 mm 0.23 in5.8 mm
03:00 PM 83.9°F28.8°C 68.1°F20.1°C 59% 8.0 mph NNW12.9 kmh NNW 22.0 mph35.4 kmh 29.69 in1005.4 mb 0.00 in0.0 mm 0.00 in0.0 mm 0.23 in5.8 mm
02:59 PM 83.9°F28.8°C 67.1°F19.5°C 57% 14.0 mph WNW22.5 kmh WNW 22.0 mph35.4 kmh 29.69 in1005.4 mb 0.00 in0.0 mm 0.00 in0.0 mm 0.23 in5.8 mm
02:58 PM 83.9°F28.8°C 66.5°F19.2°C 56% 13.0 mph NW20.9 kmh NW 22.0 mph35.4 kmh 29.69 in1005.4 mb 0.00 in0.0 mm 0.00 in0.0 mm 0.23 in5.8 mm
02:57 PM 83.9°F28.8°C 68.1°F20.1°C 59% 19.0 mph WNW30.6 kmh WNW 22.0 mph35.4 kmh 29.69 in1005.4 mb 0.00 in0.0 mm 0.00 in0.0 mm 0.23 in5.8 mm
02:56 PM 83.9°F28.8°C 67.6°F19.8°C 58% 13.0 mph NW20.9 kmh NW 22.0 mph35.4 kmh 29.69 in1005.4 mb 0.00 in0.0 mm 0.00 in0.0 mm 0.23 in5.8 mm
02:55 PM 83.9°F28.8°C 68.1°F20.1°C 59% 13.0 mph NW20.9 kmh NW 22.0 mph35.4 kmh 29.69 in1005.4 mb 0.00 in0.0 mm 0.00 in0.0 mm 0.23 in5.8 mm
02:54 PM 83.9°F28.8°C 67.1°F19.5°C 57% 12.0 mph NW19.3 kmh NW 22.0 mph35.4 kmh 29.69 in1005.4 mb 0.00 in0.0 mm 0.00 in0.0 mm 0.23 in5.8 mm
02:53 PM 83.9°F28.8°C 67.6°F19.8°C 58% 17.0 mph NW27.4 kmh NW 22.0 mph35.4 kmh 29.69 in1005.4 mb 0.00 in0.0 mm 0.00 in0.0 mm 0.23 in5.8 mm
02:52 PM 83.9°F28.8°C 68.5°F20.3°C 60% 17.0 mph NW27.4 kmh NW 22.0 mph35.4 kmh 29.69 in1005.4 mb 0.00 in0.0 mm 0.00 in0.0 mm 0.23 in5.8 mm
02:51 PM 83.8°F28.8°C 68.9°F20.5°C 61% 14.0 mph NW22.5 kmh NW 22.0 mph35.4 kmh 29.69 in1005.4 mb 0.00 in0.0 mm 0.00 in0.0 mm 0.23 in5.8 mm
02:50 PM 83.8°F28.8°C 68.5°F20.3°C 60% 12.0 mph NW19.3 kmh NW 22.0 mph35.4 kmh 29.69 in1005.4 mb 0.00 in0.0 mm 0.00 in0.0 mm 0.23 in5.8 mm
02:49 PM 83.8°F28.8°C 67.5°F19.7°C 58% 13.0 mph WNW20.9 kmh WNW 22.0 mph35.4 kmh 29.69 in1005.4 mb 0.00 in0.0 mm 0.00 in0.0 mm 0.23 in5.8 mm
02:48 PM 83.8°F28.8°C 68.5°F20.3°C 60% 14.0 mph NW22.5 kmh NW 22.0 mph35.4 kmh 29.69 in1005.4 mb 0.00 in0.0 mm 0.00 in0.0 mm 0.23 in5.8 mm
02:47 PM 83.8°F28.8°C 68.9°F20.5°C 61% 18.0 mph NW29.0 kmh NW 22.0 mph35.4 kmh 29.69 in1005.4 mb 0.00 in0.0 mm 0.00 in0.0 mm 0.23 in5.8 mm
02:46 PM 83.8°F28.8°C 68.9°F20.5°C 61% 17.0 mph NW27.4 kmh NW 22.0 mph35.4 kmh 29.69 in1005.4 mb 0.00 in0.0 mm 0.00 in0.0 mm 0.23 in5.8 mm
02:45 PM 83.8°F28.8°C 68.5°F20.3°C 60% 14.0 mph NW22.5 kmh NW 22.0 mph35.4 kmh 29.69 in1005.4 mb 0.00 in0.0 mm 0.00 in0.0 mm 0.23 in5.8 mm
02:44 PM 83.8°F28.8°C 68.5°F20.3°C 60% 13.0 mph NW20.9 kmh NW 22.0 mph35.4 kmh 29.69 in1005.4 mb 0.00 in0.0 mm 0.00 in0.0 mm 0.23 in5.8 mm
02:43 PM 83.8°F28.8°C 69.4°F20.8°C 62% 13.0 mph NW20.9 kmh NW 22.0 mph35.4 kmh 29.69 in1005.4 mb 0.00 in0.0 mm 0.00 in0.0 mm 0.23 in5.8 mm
02:42 PM 83.8°F28.8°C 68.5°F20.3°C 60% 11.0 mph NW17.7 kmh NW 22.0 mph35.4 kmh 29.69 in1005.4 mb 0.00 in0.0 mm 0.00 in0.0 mm 0.23 in5.8 mm
02:41 PM 83.8°F28.8°C 68.5°F20.3°C 60% 15.0 mph NNW24.1 kmh NNW 22.0 mph35.4 kmh 29.68 in1005.1 mb 0.00 in0.0 mm 0.00 in0.0 mm 0.23 in5.8 mm
02:40 PM 83.7°F28.7°C 67.9°F19.9°C 59% 17.0 mph WNW27.4 kmh WNW 22.0 mph35.4 kmh 29.69 in1005.4 mb 0.00 in0.0 mm 0.00 in0.0 mm 0.23 in5.8 mm
02:39 PM 83.7°F28.7°C 68.4°F20.2°C 60% 17.0 mph NW27.4 kmh NW 22.0 mph35.4 kmh 29.68 in1005.1 mb 0.00 in0.0 mm 0.00 in0.0 mm 0.23 in5.8 mm
02:38 PM 83.7°F28.7°C 67.4°F19.7°C 58% 14.0 mph NW22.5 kmh NW 22.0 mph35.4 kmh 29.68 in1005.1 mb 0.00 in0.0 mm 0.00 in0.0 mm 0.23 in5.8 mm
02:37 PM 83.7°F28.7°C 66.9°F19.4°C 57% 13.0 mph WNW20.9 kmh WNW 22.0 mph35.4 kmh 29.68 in1005.1 mb 0.00 in0.0 mm 0.00 in0.0 mm 0.23 in5.8 mm
02:36 PM 83.7°F28.7°C 67.4°F19.7°C 58% 18.0 mph NW29.0 kmh NW 22.0 mph35.4 kmh 29.68 in1005.1 mb 0.00 in0.0 mm 0.00 in0.0 mm 0.23 in5.8 mm
02:35 PM 83.7°F28.7°C 67.9°F19.9°C 59% 13.0 mph NW20.9 kmh NW 22.0 mph35.4 kmh 29.68 in1005.1 mb 0.00 in0.0 mm 0.00 in0.0 mm 0.23 in5.8 mm
02:34 PM 83.7°F28.7°C 67.9°F19.9°C 59% 19.0 mph NW30.6 kmh NW 22.0 mph35.4 kmh 29.68 in1005.1 mb 0.00 in0.0 mm 0.00 in0.0 mm 0.23 in5.8 mm
02:33 PM 83.7°F28.7°C 67.9°F19.9°C 59% 13.0 mph NW20.9 kmh NW 19.0 mph30.6 kmh 29.68 in1005.1 mb 0.00 in0.0 mm 0.00 in0.0 mm 0.23 in5.8 mm
02:32 PM 83.6°F28.7°C 69.2°F20.7°C 62% 13.0 mph WNW20.9 kmh WNW 22.0 mph35.4 kmh 29.68 in1005.1 mb 0.00 in0.0 mm 0.00 in0.0 mm 0.23 in5.8 mm
02:31 PM 83.6°F28.7°C 69.7°F20.9°C 63% 11.0 mph NW17.7 kmh NW 22.0 mph35.4 kmh 29.69 in1005.4 mb 0.00 in0.0 mm 0.00 in0.0 mm 0.23 in5.8 mm
02:30 PM 83.5°F28.6°C 69.1°F20.6°C 62% 11.0 mph NW17.7 kmh NW 22.0 mph35.4 kmh 29.69 in1005.4 mb 0.00 in0.0 mm 0.00 in0.0 mm 0.23 in5.8 mm
02:29 PM 83.5°F28.6°C 68.2°F20.1°C 60% 12.0 mph WNW19.3 kmh WNW 22.0 mph35.4 kmh 29.68 in1005.1 mb 0.00 in0.0 mm 0.00 in0.0 mm 0.23 in5.8 mm
02:28 PM 83.5°F28.6°C 68.7°F20.4°C 61% 19.0 mph NW30.6 kmh NW 22.0 mph35.4 kmh 29.68 in1005.1 mb 0.00 in0.0 mm 0.00 in0.0 mm 0.23 in5.8 mm
02:27 PM 83.5°F28.6°C 68.2°F20.1°C 60% 16.0 mph NW25.7 kmh NW 22.0 mph35.4 kmh 29.68 in1005.1 mb 0.00 in0.0 mm 0.00 in0.0 mm 0.23 in5.8 mm
02:26 PM 83.5°F28.6°C 67.7°F19.8°C 59% 16.0 mph WNW25.7 kmh WNW 22.0 mph35.4 kmh 29.69 in1005.4 mb 0.00 in0.0 mm 0.00 in0.0 mm 0.23 in5.8 mm
02:25 PM 83.5°F28.6°C 67.7°F19.8°C 59% 19.0 mph NW30.6 kmh NW 22.0 mph35.4 kmh 29.68 in1005.1 mb 0.00 in0.0 mm 0.00 in0.0 mm 0.23 in5.8 mm
02:24 PM 83.6°F28.7°C 68.3°F20.2°C 60% 16.0 mph NW25.7 kmh NW 22.0 mph35.4 kmh 29.68 in1005.1 mb 0.00 in0.0 mm 0.00 in0.0 mm 0.23 in5.8 mm
02:23 PM 83.6°F28.7°C 68.7°F20.4°C 61% 12.0 mph NW19.3 kmh NW 22.0 mph35.4 kmh 29.68 in1005.1 mb 0.00 in0.0 mm 0.00 in0.0 mm 0.23 in5.8 mm
02:22 PM 83.6°F28.7°C 69.2°F20.7°C 62% 15.0 mph NW24.1 kmh NW 22.0 mph35.4 kmh 29.68 in1005.1 mb 0.00 in0.0 mm 0.00 in0.0 mm 0.23 in5.8 mm
02:21 PM 83.6°F28.7°C 69.2°F20.7°C 62% 16.0 mph WNW25.7 kmh WNW 22.0 mph35.4 kmh 29.68 in1005.1 mb 0.00 in0.0 mm 0.00 in0.0 mm 0.23 in5.8 mm
02:20 PM 83.5°F28.6°C 69.1°F20.6°C 62% 15.0 mph NW24.1 kmh NW 22.0 mph35.4 kmh 29.68 in1005.1 mb 0.00 in0.0 mm 0.00 in0.0 mm 0.23 in5.8 mm
02:19 PM 83.5°F28.6°C 68.7°F20.4°C 61% 14.0 mph NW22.5 kmh NW 21.0 mph33.8 kmh 29.68 in1005.1 mb 0.00 in0.0 mm 0.00 in0.0 mm 0.23 in5.8 mm
02:18 PM 83.5°F28.6°C 68.7°F20.4°C 61% 17.0 mph NW27.4 kmh NW 21.0 mph33.8 kmh 29.68 in1005.1 mb 0.00 in0.0 mm 0.00 in0.0 mm 0.23 in5.8 mm
02:17 PM 83.5°F28.6°C 69.1°F20.6°C 62% 15.0 mph NW24.1 kmh NW 21.0 mph33.8 kmh 29.68 in1005.1 mb 0.00 in0.0 mm 0.00 in0.0 mm 0.23 in5.8 mm
02:16 PM 83.5°F28.6°C 68.7°F20.4°C 61% 17.0 mph NW27.4 kmh NW 21.0 mph33.8 kmh 29.68 in1005.1 mb 0.00 in0.0 mm 0.00 in0.0 mm 0.23 in5.8 mm
02:15 PM 83.5°F28.6°C 69.1°F20.6°C 62% 17.0 mph NW27.4 kmh NW 21.0 mph33.8 kmh 29.68 in1005.1 mb 0.00 in0.0 mm 0.00 in0.0 mm 0.23 in5.8 mm
02:14 PM 83.5°F28.6°C 69.1°F20.6°C 62% 13.0 mph WNW20.9 kmh WNW 21.0 mph33.8 kmh 29.68 in1005.1 mb 0.00 in0.0 mm 0.00 in0.0 mm 0.23 in5.8 mm
02:13 PM 83.5°F28.6°C 69.6°F20.9°C 63% 17.0 mph NW27.4 kmh NW 21.0 mph33.8 kmh 29.68 in1005.1 mb 0.00 in0.0 mm 0.00 in0.0 mm 0.23 in5.8 mm
02:12 PM 83.5°F28.6°C 69.6°F20.9°C 63% 14.0 mph NW22.5 kmh NW 20.0 mph32.2 kmh 29.68 in1005.1 mb 0.00 in0.0 mm 0.00 in0.0 mm 0.23 in5.8 mm
02:11 PM 83.6°F28.7°C 69.7°F20.9°C 63% 12.0 mph NW19.3 kmh NW 20.0 mph32.2 kmh 29.68 in1005.1 mb 0.00 in0.0 mm 0.00 in0.0 mm 0.23 in5.8 mm
02:10 PM 83.6°F28.7°C 69.2°F20.7°C 62% 13.0 mph WNW20.9 kmh WNW 20.0 mph32.2 kmh 29.68 in1005.1 mb 0.00 in0.0 mm 0.00 in0.0 mm 0.23 in5.8 mm
02:09 PM 83.6°F28.7°C 69.2°F20.7°C 62% 19.0 mph NW30.6 kmh NW 20.0 mph32.2 kmh 29.68 in1005.1 mb 0.00 in0.0 mm 0.00 in0.0 mm 0.23 in5.8 mm
02:08 PM 83.6°F28.7°C 69.7°F20.9°C 63% 14.0 mph WNW22.5 kmh WNW 20.0 mph32.2 kmh 29.68 in1005.1 mb 0.00 in0.0 mm 0.00 in0.0 mm 0.23 in5.8 mm
02:07 PM 83.6°F28.7°C 69.7°F20.9°C 63% 17.0 mph NW27.4 kmh NW 20.0 mph32.2 kmh 29.68 in1005.1 mb 0.00 in0.0 mm 0.00 in0.0 mm 0.23 in5.8 mm
02:06 PM 83.6°F28.7°C 70.1°F21.2°C 64% 16.0 mph WNW25.7 kmh WNW 20.0 mph32.2 kmh 29.68 in1005.1 mb 0.00 in0.0 mm 0.00 in0.0 mm 0.23 in5.8 mm
02:05 PM 83.6°F28.7°C 70.6°F21.4°C 65% 17.0 mph NW27.4 kmh NW 20.0 mph32.2 kmh 29.68 in1005.1 mb 0.00 in0.0 mm 0.00 in0.0 mm 0.23 in5.8 mm
02:04 PM 83.6°F28.7°C 69.7°F20.9°C 63% 14.0 mph WNW22.5 kmh WNW 19.0 mph30.6 kmh 29.68 in1005.1 mb 0.00 in0.0 mm 0.00 in0.0 mm 0.23 in5.8 mm
02:03 PM 83.7°F28.7°C 69.8°F21.0°C 63% 14.0 mph NW22.5 kmh NW 19.0 mph30.6 kmh 29.68 in1005.1 mb 0.00 in0.0 mm 0.00 in0.0 mm 0.23 in5.8 mm
02:02 PM 83.7°F28.7°C 69.3°F20.7°C 62% 18.0 mph NW29.0 kmh NW 26.0 mph41.8 kmh 29.68 in1005.1 mb 0.00 in0.0 mm 0.00 in0.0 mm 0.23 in5.8 mm
02:01 PM 83.7°F28.7°C 70.2°F21.2°C 64% 12.0 mph NW19.3 kmh NW 26.0 mph41.8 kmh 29.68 in1005.1 mb 0.00 in0.0 mm 0.00 in0.0 mm 0.23 in5.8 mm
02:00 PM 83.7°F28.7°C 69.8°F21.0°C 63% 16.0 mph NW25.7 kmh NW 26.0 mph41.8 kmh 29.68 in1005.1 mb 0.00 in0.0 mm 0.00 in0.0 mm 0.23 in5.8 mm
01:59 PM 83.7°F28.7°C 69.8°F21.0°C 63% 14.0 mph NW22.5 kmh NW 26.0 mph41.8 kmh 29.68 in1005.1 mb 0.00 in0.0 mm 0.00 in0.0 mm 0.23 in5.8 mm
01:58 PM 83.7°F28.7°C 69.8°F21.0°C 63% 15.0 mph NW24.1 kmh NW 26.0 mph41.8 kmh 29.68 in1005.1 mb 0.00 in0.0 mm 0.00 in0.0 mm 0.23 in5.8 mm
01:57 PM 83.7°F28.7°C 69.8°F21.0°C 63% 8.0 mph WNW12.9 kmh WNW 26.0 mph41.8 kmh 29.68 in1005.1 mb 0.00 in0.0 mm 0.00 in0.0 mm 0.23 in5.8 mm
01:56 PM 83.7°F28.7°C 69.8°F21.0°C 63% 16.0 mph NW25.7 kmh NW 26.0 mph41.8 kmh 29.68 in1005.1 mb 0.00 in0.0 mm 0.00 in0.0 mm 0.23 in5.8 mm
01:55 PM 83.7°F28.7°C 70.7°F21.5°C 65% 20.0 mph NW32.2 kmh NW 26.0 mph41.8 kmh 29.68 in1005.1 mb 0.00 in0.0 mm 0.00 in0.0 mm 0.23 in5.8 mm
01:54 PM 83.6°F28.7°C 71.9°F22.2°C 68% 19.0 mph NW30.6 kmh NW 23.0 mph37.0 kmh 29.68 in1005.1 mb 0.00 in0.0 mm 0.00 in0.0 mm 0.23 in5.8 mm
01:53 PM 83.6°F28.7°C 71.9°F22.2°C 68% 12.0 mph NW19.3 kmh NW 23.0 mph37.0 kmh 29.68 in1005.1 mb 0.00 in0.0 mm 0.00 in0.0 mm 0.23 in5.8 mm
01:52 PM 83.5°F28.6°C 71.0°F21.7°C 66% 12.0 mph NW19.3 kmh NW 23.0 mph37.0 kmh 29.67 in1004.7 mb 0.00 in0.0 mm 0.00 in0.0 mm 0.23 in5.8 mm
01:51 PM 83.4°F28.6°C 70.4°F21.3°C 65% 7.0 mph NW11.3 kmh NW 23.0 mph37.0 kmh 29.68 in1005.1 mb 0.00 in0.0 mm 0.00 in0.0 mm 0.23 in5.8 mm
01:50 PM 83.4°F28.6°C 70.0°F21.1°C 64% 16.0 mph WNW25.7 kmh WNW 23.0 mph37.0 kmh 29.68 in1005.1 mb 0.00 in0.0 mm 0.00 in0.0 mm 0.23 in5.8 mm
01:49 PM 83.4°F28.6°C 69.0°F20.6°C 62% 13.0 mph NW20.9 kmh NW 23.0 mph37.0 kmh 29.67 in1004.7 mb 0.00 in0.0 mm 0.00 in0.0 mm 0.23 in5.8 mm
01:48 PM 83.4°F28.6°C 69.5°F20.8°C 63% 22.0 mph NW35.4 kmh NW 23.0 mph37.0 kmh 29.67 in1004.7 mb 0.00 in0.0 mm 0.00 in0.0 mm 0.23 in5.8 mm
01:47 PM 83.4°F28.6°C 70.0°F21.1°C 64% 16.0 mph NW25.7 kmh NW 23.0 mph37.0 kmh 29.67 in1004.7 mb 0.00 in0.0 mm 0.00 in0.0 mm 0.23 in5.8 mm
01:46 PM 83.4°F28.6°C 70.0°F21.1°C 64% 16.0 mph NW25.7 kmh NW 23.0 mph37.0 kmh 29.67 in1004.7 mb 0.00 in0.0 mm 0.00 in0.0 mm 0.23 in5.8 mm
01:45 PM 83.3°F28.5°C 70.8°F21.6°C 66% 9.0 mph NNW14.5 kmh NNW 23.0 mph37.0 kmh 29.67 in1004.7 mb 0.00 in0.0 mm 0.00 in0.0 mm 0.23 in5.8 mm
01:44 PM 83.3°F28.5°C 69.4°F20.8°C 63% 8.0 mph WNW12.9 kmh WNW 23.0 mph37.0 kmh 29.67 in1004.7 mb 0.00 in0.0 mm 0.00 in0.0 mm 0.23 in5.8 mm
01:43 PM 83.3°F28.5°C 70.8°F21.6°C 66% 16.0 mph WNW25.7 kmh WNW 23.0 mph37.0 kmh 29.67 in1004.7 mb 0.00 in0.0 mm 0.00 in0.0 mm 0.23 in5.8 mm
01:42 PM 83.3°F28.5°C 70.8°F21.6°C 66% 10.0 mph NW16.1 kmh NW 23.0 mph37.0 kmh 29.67 in1004.7 mb 0.00 in0.0 mm 0.00 in0.0 mm 0.23 in5.8 mm
01:41 PM 83.3°F28.5°C 70.3°F21.3°C 65% 12.0 mph WNW19.3 kmh WNW 23.0 mph37.0 kmh 29.67 in1004.7 mb 0.00 in0.0 mm 0.00 in0.0 mm 0.23 in5.8 mm
01:40 PM 83.3°F28.5°C 70.3°F21.3°C 65% 13.0 mph W20.9 kmh W 23.0 mph37.0 kmh 29.67 in1004.7 mb 0.00 in0.0 mm 0.00 in0.0 mm 0.23 in5.8 mm
01:39 PM 83.3°F28.5°C 69.4°F20.8°C 63% 14.0 mph WNW22.5 kmh WNW 23.0 mph37.0 kmh 29.67 in1004.7 mb 0.00 in0.0 mm 0.00 in0.0 mm 0.23 in5.8 mm
01:38 PM 83.3°F28.5°C 69.9°F21.1°C 64% 16.0 mph W25.7 kmh W 20.0 mph32.2 kmh 29.67 in1004.7 mb 0.00 in0.0 mm 0.00 in0.0 mm 0.23 in5.8 mm
01:37 PM 83.3°F28.5°C 70.3°F21.3°C 65% 14.0 mph WNW22.5 kmh WNW 20.0 mph32.2 kmh 29.67 in1004.7 mb 0.00 in0.0 mm 0.00 in0.0 mm 0.23 in5.8 mm
01:36 PM 83.3°F28.5°C 70.3°F21.3°C 65% 15.0 mph WNW24.1 kmh WNW 20.0 mph32.2 kmh 29.67 in1004.7 mb 0.00 in0.0 mm 0.00 in0.0 mm 0.23 in5.8 mm
01:35 PM 83.2°F28.4°C 71.6°F22.0°C 68% 10.0 mph WNW16.1 kmh WNW 20.0 mph32.2 kmh 29.67 in1004.7 mb 0.00 in0.0 mm 0.00 in0.0 mm 0.23 in5.8 mm
01:34 PM 83.2°F28.4°C 72.0°F22.2°C 69% 10.0 mph NW16.1 kmh NW 20.0 mph32.2 kmh 29.67 in1004.7 mb 0.00 in0.0 mm 0.00 in0.0 mm 0.23 in5.8 mm
01:33 PM 83.1°F28.4°C 71.5°F21.9°C 68% 16.0 mph NW25.7 kmh NW 20.0 mph32.2 kmh 29.67 in1004.7 mb 0.00 in0.0 mm 0.00 in0.0 mm 0.23 in5.8 mm
01:32 PM 83.0°F28.3°C 70.0°F21.1°C 65% 12.0 mph NW19.3 kmh NW 20.0 mph32.2 kmh 29.67 in1004.7 mb 0.00 in0.0 mm 0.00 in0.0 mm 0.23 in5.8 mm
01:31 PM 83.0°F28.3°C 70.9°F21.6°C 67% 20.0 mph NW32.2 kmh NW 20.0 mph32.2 kmh 29.67 in1004.7 mb 0.00 in0.0 mm 0.00 in0.0 mm 0.23 in5.8 mm
01:30 PM 83.0°F28.3°C 70.9°F21.6°C 67% 14.0 mph NW22.5 kmh NW 19.0 mph30.6 kmh 29.67 in1004.7 mb 0.00 in0.0 mm 0.00 in0.0 mm 0.23 in5.8 mm
01:29 PM 83.0°F28.3°C 70.0°F21.1°C 65% 10.0 mph NW16.1 kmh NW 19.0 mph30.6 kmh 29.67 in1004.7 mb 0.00 in0.0 mm 0.00 in0.0 mm 0.23 in5.8 mm
01:28 PM 83.1°F28.4°C 70.6°F21.4°C 66% 16.0 mph NNW25.7 kmh NNW 19.0 mph30.6 kmh 29.67 in1004.7 mb 0.00 in0.0 mm 0.00 in0.0 mm 0.23 in5.8 mm
01:27 PM 83.1°F28.4°C 70.1°F21.2°C 65% 7.0 mph NW11.3 kmh NW 19.0 mph30.6 kmh 29.67 in1004.7 mb 0.00 in0.0 mm 0.00 in0.0 mm 0.23 in5.8 mm
01:26 PM 83.1°F28.4°C 71.0°F21.7°C 67% 18.0 mph WSW29.0 kmh WSW 19.0 mph30.6 kmh 29.67 in1004.7 mb 0.00 in0.0 mm 0.00 in0.0 mm 0.23 in5.8 mm
01:25 PM 83.1°F28.4°C 71.5°F21.9°C 68% 19.0 mph NW30.6 kmh NW 19.0 mph30.6 kmh 29.67 in1004.7 mb 0.00 in0.0 mm 0.00 in0.0 mm 0.23 in5.8 mm
01:24 PM 83.1°F28.4°C 71.5°F21.9°C 68% 11.0 mph NW17.7 kmh NW 19.0 mph30.6 kmh 29.67 in1004.7 mb 0.00 in0.0 mm 0.00 in0.0 mm 0.23 in5.8 mm
01:23 PM 83.0°F28.3°C 70.9°F21.6°C 67% 11.0 mph NW17.7 kmh NW 19.0 mph30.6 kmh 29.67 in1004.7 mb 0.00 in0.0 mm 0.00 in0.0 mm 0.23 in5.8 mm
01:22 PM 83.0°F28.3°C 70.9°F21.6°C 67% 14.0 mph WNW22.5 kmh WNW 19.0 mph30.6 kmh 29.67 in1004.7 mb 0.00 in0.0 mm 0.00 in0.0 mm 0.23 in5.8 mm
01:21 PM 83.0°F28.3°C 70.9°F21.6°C 67% 11.0 mph NW17.7 kmh NW 19.0 mph30.6 kmh 29.67 in1004.7 mb 0.00 in0.0 mm 0.00 in0.0 mm 0.23 in5.8 mm
01:20 PM 82.9°F28.3°C 71.7°F22.1°C 69% 6.0 mph NW9.7 kmh NW 19.0 mph30.6 kmh 29.66 in1004.4 mb 0.00 in0.0 mm 0.00 in0.0 mm 0.23 in5.8 mm
01:19 PM 82.9°F28.3°C 70.4°F21.3°C 66% 7.0 mph NW11.3 kmh NW 19.0 mph30.6 kmh 29.67 in1004.7 mb 0.00 in0.0 mm 0.00 in0.0 mm 0.23 in5.8 mm
01:18 PM 82.9°F28.3°C 70.4°F21.3°C 66% 13.0 mph NW20.9 kmh NW 19.0 mph30.6 kmh 29.66 in1004.4 mb 0.00 in0.0 mm 0.00 in0.0 mm 0.23 in5.8 mm
01:17 PM 83.0°F28.3°C 70.0°F21.1°C 65% 15.0 mph NW24.1 kmh NW 19.0 mph30.6 kmh 29.66 in1004.4 mb 0.00 in0.0 mm 0.00 in0.0 mm 0.23 in5.8 mm
01:16 PM 83.0°F28.3°C 70.9°F21.6°C 67% 16.0 mph WNW25.7 kmh WNW 19.0 mph30.6 kmh 29.66 in1004.4 mb 0.00 in0.0 mm 0.00 in0.0 mm 0.23 in5.8 mm
01:15 PM 83.0°F28.3°C 70.9°F21.6°C 67% 12.0 mph NW19.3 kmh NW 17.0 mph27.4 kmh 29.66 in1004.4 mb 0.00 in0.0 mm 0.00 in0.0 mm 0.23 in5.8 mm
01:14 PM 83.0°F28.3°C 71.4°F21.9°C 68% 10.0 mph NNW16.1 kmh NNW 17.0 mph27.4 kmh 29.66 in1004.4 mb 0.00 in0.0 mm 0.00 in0.0 mm 0.23 in5.8 mm
01:13 PM 82.9°F28.3°C 71.3°F21.8°C 68% 9.0 mph WNW14.5 kmh WNW 17.0 mph27.4 kmh 29.66 in1004.4 mb 0.00 in0.0 mm 0.00 in0.0 mm 0.23 in5.8 mm
01:12 PM 82.9°F28.3°C 70.8°F21.6°C 67% 7.0 mph WSW11.3 kmh WSW 17.0 mph27.4 kmh 29.66 in1004.4 mb 0.00 in0.0 mm 0.00 in0.0 mm 0.23 in5.8 mm
01:11 PM 82.9°F28.3°C 71.7°F22.1°C 69% 10.0 mph W16.1 kmh W 17.0 mph27.4 kmh 29.66 in1004.4 mb 0.00 in0.0 mm 0.00 in0.0 mm 0.23 in5.8 mm
01:10 PM 82.9°F28.3°C 72.1°F22.3°C 70% 6.0 mph WNW9.7 kmh WNW 17.0 mph27.4 kmh 29.66 in1004.4 mb 0.00 in0.0 mm 0.00 in0.0 mm 0.23 in5.8 mm
01:09 PM 82.9°F28.3°C 71.3°F21.8°C 68% 10.0 mph W16.1 kmh W 17.0 mph27.4 kmh 29.66 in1004.4 mb 0.00 in0.0 mm 0.00 in0.0 mm 0.23 in5.8 mm
01:08 PM 82.9°F28.3°C 70.8°F21.6°C 67% 12.0 mph NW19.3 kmh NW 17.0 mph27.4 kmh 29.66 in1004.4 mb 0.00 in0.0 mm 0.00 in0.0 mm 0.23 in5.8 mm
01:07 PM 82.9°F28.3°C 71.7°F22.1°C 69% 13.0 mph NW20.9 kmh NW 16.0 mph25.7 kmh 29.66 in1004.4 mb 0.00 in0.0 mm 0.00 in0.0 mm 0.23 in5.8 mm
01:06 PM 82.8°F28.2°C 70.7°F21.5°C 67% 10.0 mph NW16.1 kmh NW 16.0 mph25.7 kmh 29.66 in1004.4 mb 0.00 in0.0 mm 0.00 in0.0 mm 0.23 in5.8 mm
01:05 PM 82.8°F28.2°C 70.7°F21.5°C 67% 11.0 mph WNW17.7 kmh WNW 16.0 mph25.7 kmh 29.66 in1004.4 mb 0.00 in0.0 mm 0.00 in0.0 mm 0.23 in5.8 mm
01:04 PM 82.8°F28.2°C 71.2°F21.8°C 68% 8.0 mph NW12.9 kmh NW 16.0 mph25.7 kmh 29.66 in1004.4 mb 0.00 in0.0 mm 0.00 in0.0 mm 0.23 in5.8 mm
01:03 PM 82.7°F28.2°C 71.1°F21.7°C 68% 10.0 mph WNW16.1 kmh WNW 12.0 mph19.3 kmh 29.66 in1004.4 mb 0.00 in0.0 mm 0.00 in0.0 mm 0.23 in5.8 mm
01:02 PM 82.7°F28.2°C 71.1°F21.7°C 68% 9.0 mph NW14.5 kmh NW 21.0 mph33.8 kmh 29.66 in1004.4 mb 0.00 in0.0 mm 0.00 in0.0 mm 0.23 in5.8 mm
01:01 PM 82.7°F28.2°C 71.1°F21.7°C 68% 4.0 mph WNW6.4 kmh WNW 21.0 mph33.8 kmh 29.66 in1004.4 mb 0.00 in0.0 mm 0.00 in0.0 mm 0.23 in5.8 mm
01:00 PM 82.7°F28.2°C 70.2°F21.2°C 66% 8.0 mph NW12.9 kmh NW 21.0 mph33.8 kmh 29.66 in1004.4 mb 0.00 in0.0 mm 0.00 in0.0 mm 0.23 in5.8 mm
12:59 PM 82.7°F28.2°C 70.2°F21.2°C 66% 6.0 mph W9.7 kmh W 21.0 mph33.8 kmh 29.66 in1004.4 mb 0.00 in0.0 mm 0.00 in0.0 mm 0.23 in5.8 mm
12:58 PM 82.7°F28.2°C 71.1°F21.7°C 68% 12.0 mph NW19.3 kmh NW 21.0 mph33.8 kmh 29.66 in1004.4 mb 0.00 in0.0 mm 0.00 in0.0 mm 0.23 in5.8 mm
12:57 PM 82.6°F28.1°C 70.5°F21.4°C 67% 3.0 mph NW4.8 kmh NW 21.0 mph33.8 kmh 29.66 in1004.4 mb 0.00 in0.0 mm 0.00 in0.0 mm 0.23 in5.8 mm
12:56 PM 82.6°F28.1°C 70.5°F21.4°C 67% 10.0 mph NW16.1 kmh NW 21.0 mph33.8 kmh 29.66 in1004.4 mb 0.00 in0.0 mm 0.00 in0.0 mm 0.23 in5.8 mm
12:55 PM 82.6°F28.1°C 70.5°F21.4°C 67% 10.0 mph WNW16.1 kmh WNW 21.0 mph33.8 kmh 29.66 in1004.4 mb 0.00 in0.0 mm 0.00 in0.0 mm 0.23 in5.8 mm
12:54 PM 82.6°F28.1°C 70.5°F21.4°C 67% 5.0 mph SW8.0 kmh SW 21.0 mph33.8 kmh 29.66 in1004.4 mb 0.00 in0.0 mm 0.00 in0.0 mm 0.23 in5.8 mm
12:53 PM 82.6°F28.1°C 70.5°F21.4°C 67% 15.0 mph NW24.1 kmh NW 21.0 mph33.8 kmh 29.66 in1004.4 mb 0.00 in0.0 mm 0.00 in0.0 mm 0.23 in5.8 mm
12:52 PM 82.5°F28.1°C 70.5°F21.4°C 67% 10.0 mph WSW16.1 kmh WSW 21.0 mph33.8 kmh 29.66 in1004.4 mb 0.00 in0.0 mm 0.00 in0.0 mm 0.23 in5.8 mm
12:51 PM 82.5°F28.1°C 70.9°F21.6°C 68% 5.0 mph W8.0 kmh W 21.0 mph33.8 kmh 29.66 in1004.4 mb 0.00 in0.0 mm 0.00 in0.0 mm 0.23 in5.8 mm
12:50 PM 82.4°F28.0°C 70.4°F21.3°C 67% 7.0 mph NW11.3 kmh NW 21.0 mph33.8 kmh 29.66 in1004.4 mb 0.00 in0.0 mm 0.00 in0.0 mm 0.23 in5.8 mm
12:49 PM 82.4°F28.0°C 70.4°F21.3°C 67% 9.0 mph WNW14.5 kmh WNW 21.0 mph33.8 kmh 29.66 in1004.4 mb 0.00 in0.0 mm 0.00 in0.0 mm 0.23 in5.8 mm
12:48 PM 82.4°F28.0°C 69.9°F21.1°C 66% 5.0 mph NW8.0 kmh NW 21.0 mph33.8 kmh 29.66 in1004.4 mb 0.00 in0.0 mm 0.00 in0.0 mm 0.23 in5.8 mm
12:47 PM 82.4°F28.0°C 69.9°F21.1°C 66% 6.0 mph WSW9.7 kmh WSW 21.0 mph33.8 kmh 29.66 in1004.4 mb 0.00 in0.0 mm 0.00 in0.0 mm 0.23 in5.8 mm
12:46 PM 82.4°F28.0°C 69.5°F20.8°C 65% 8.0 mph NW12.9 kmh NW 21.0 mph33.8 kmh 29.66 in1004.4 mb 0.00 in0.0 mm 0.00 in0.0 mm 0.23 in5.8 mm
12:45 PM 82.3°F27.9°C 71.1°F21.7°C 69% 7.0 mph W11.3 kmh W 21.0 mph33.8 kmh 29.66 in1004.4 mb 0.00 in0.0 mm 0.00 in0.0 mm 0.23 in5.8 mm
12:44 PM 82.3°F27.9°C 71.1°F21.7°C 69% 9.0 mph NW14.5 kmh NW 21.0 mph33.8 kmh 29.66 in1004.4 mb 0.00 in0.0 mm 0.00 in0.0 mm 0.23 in5.8 mm
12:43 PM 82.3°F27.9°C 70.7°F21.5°C 68% 4.0 mph WSW6.4 kmh WSW 21.0 mph33.8 kmh 29.66 in1004.4 mb 0.00 in0.0 mm 0.00 in0.0 mm 0.23 in5.8 mm
12:42 PM 82.3°F27.9°C 69.8°F21.0°C 66% 6.0 mph W9.7 kmh W 21.0 mph33.8 kmh 29.66 in1004.4 mb 0.00 in0.0 mm 0.00 in0.0 mm 0.23 in5.8 mm
12:41 PM 82.3°F27.9°C 69.8°F21.0°C 66% 9.0 mph NW14.5 kmh NW 21.0 mph33.8 kmh 29.66 in1004.4 mb 0.00 in0.0 mm 0.00 in0.0 mm 0.23 in5.8 mm
12:40 PM 82.3°F27.9°C 69.8°F21.0°C 66% 5.0 mph WSW8.0 kmh WSW 21.0 mph33.8 kmh 29.66 in1004.4 mb 0.00 in0.0 mm 0.00 in0.0 mm 0.23 in5.8 mm
12:39 PM 82.3°F27.9°C 69.8°F21.0°C 66% 9.0 mph NW14.5 kmh NW 21.0 mph33.8 kmh 29.66 in1004.4 mb 0.00 in0.0 mm 0.00 in0.0 mm 0.23 in5.8 mm
12:38 PM 82.4°F28.0°C 69.5°F20.8°C 65% 6.0 mph W9.7 kmh W 21.0 mph33.8 kmh 29.66 in1004.4 mb 0.00 in0.0 mm 0.00 in0.0 mm 0.23 in5.8 mm
12:37 PM 82.3°F27.9°C 69.8°F21.0°C 66% 7.0 mph W11.3 kmh W 21.0 mph33.8 kmh 29.65 in1004.1 mb 0.00 in0.0 mm 0.00 in0.0 mm 0.23 in5.8 mm
12:36 PM 82.3°F27.9°C 69.4°F20.8°C 65% 8.0 mph NW12.9 kmh NW 21.0 mph33.8 kmh 29.65 in1004.1 mb 0.00 in0.0 mm 0.00 in0.0 mm 0.23 in5.8 mm
12:35 PM 82.3°F27.9°C 70.7°F21.5°C 68% 14.0 mph SW22.5 kmh SW 21.0 mph33.8 kmh 29.65 in1004.1 mb 0.00 in0.0 mm 0.00 in0.0 mm 0.23 in5.8 mm
12:34 PM 82.3°F27.9°C 70.3°F21.3°C 67% 9.0 mph W14.5 kmh W 14.0 mph22.5 kmh 29.65 in1004.1 mb 0.00 in0.0 mm 0.00 in0.0 mm 0.23 in5.8 mm
12:33 PM 82.3°F27.9°C 69.8°F21.0°C 66% 10.0 mph WNW16.1 kmh WNW 14.0 mph22.5 kmh 29.65 in1004.1 mb 0.00 in0.0 mm 0.00 in0.0 mm 0.23 in5.8 mm
12:32 PM 82.3°F27.9°C 69.4°F20.8°C 65% 9.0 mph WNW14.5 kmh WNW 16.0 mph25.7 kmh 29.65 in1004.1 mb 0.00 in0.0 mm 0.00 in0.0 mm 0.23 in5.8 mm
12:31 PM 82.4°F28.0°C 69.9°F21.1°C 66% 6.0 mph WSW9.7 kmh WSW 16.0 mph25.7 kmh 29.65 in1004.1 mb 0.00 in0.0 mm 0.00 in0.0 mm 0.23 in5.8 mm
12:30 PM 82.4°F28.0°C 70.4°F21.3°C 67% 4.0 mph WSW6.4 kmh WSW 16.0 mph25.7 kmh 29.65 in1004.1 mb 0.00 in0.0 mm 0.00 in0.0 mm 0.23 in5.8 mm
12:29 PM 82.4°F28.0°C 69.5°F20.8°C 65% 7.0 mph WSW11.3 kmh WSW 16.0 mph25.7 kmh 29.65 in1004.1 mb 0.00 in0.0 mm 0.00 in0.0 mm 0.23 in5.8 mm
12:28 PM 82.4°F28.0°C 69.9°F21.1°C 66% 6.0 mph NW9.7 kmh NW 16.0 mph25.7 kmh 29.65 in1004.1 mb 0.00 in0.0 mm 0.00 in0.0 mm 0.23 in5.8 mm
12:27 PM 82.4°F28.0°C 69.9°F21.1°C 66% 5.0 mph WNW8.0 kmh WNW 16.0 mph25.7 kmh 29.65 in1004.1 mb 0.00 in0.0 mm 0.00 in0.0 mm 0.23 in5.8 mm
12:26 PM 82.4°F28.0°C 69.9°F21.1°C 66% 6.0 mph N9.7 kmh N 16.0 mph25.7 kmh 29.65 in1004.1 mb 0.00 in0.0 mm 0.00 in0.0 mm 0.23 in5.8 mm
12:25 PM 82.4°F28.0°C 69.9°F21.1°C 66% 6.0 mph W9.7 kmh W 16.0 mph25.7 kmh 29.65 in1004.1 mb 0.00 in0.0 mm 0.00 in0.0 mm 0.23 in5.8 mm
12:24 PM 82.3°F27.9°C 70.3°F21.3°C 67% 4.0 mph W6.4 kmh W 16.0 mph25.7 kmh 29.65 in1004.1 mb 0.00 in0.0 mm 0.00 in0.0 mm 0.23 in5.8 mm
12:23 PM 82.3°F27.9°C 70.3°F21.3°C 67% 11.0 mph NW17.7 kmh NW 16.0 mph25.7 kmh 29.65 in1004.1 mb 0.00 in0.0 mm 0.00 in0.0 mm 0.23 in5.8 mm
12:22 PM 82.3°F27.9°C 69.8°F21.0°C 66% 15.0 mph NW24.1 kmh NW 16.0 mph25.7 kmh 29.65 in1004.1 mb 0.00 in0.0 mm 0.00 in0.0 mm 0.23 in5.8 mm
12:21 PM 82.3°F27.9°C 69.8°F21.0°C 66% 3.0 mph WNW4.8 kmh WNW 16.0 mph25.7 kmh 29.65 in1004.1 mb 0.00 in0.0 mm 0.00 in0.0 mm 0.23 in5.8 mm
12:20 PM 82.2°F27.9°C 70.2°F21.2°C 67% 5.0 mph NW8.0 kmh NW 16.0 mph25.7 kmh 29.65 in1004.1 mb 0.00 in0.0 mm 0.00 in0.0 mm 0.23 in5.8 mm
12:19 PM 82.2°F27.9°C 71.0°F21.7°C 69% 15.0 mph NW24.1 kmh NW 16.0 mph25.7 kmh 29.65 in1004.1 mb 0.00 in0.0 mm 0.00 in0.0 mm 0.23 in5.8 mm
12:18 PM 82.1°F27.8°C 70.5°F21.4°C 68% 7.0 mph WSW11.3 kmh WSW 16.0 mph25.7 kmh 29.65 in1004.1 mb 0.00 in0.0 mm 0.00 in0.0 mm 0.23 in5.8 mm
12:17 PM 82.1°F27.8°C 70.5°F21.4°C 68% 5.0 mph NW8.0 kmh NW 16.0 mph25.7 kmh 29.65 in1004.1 mb 0.00 in0.0 mm 0.00 in0.0 mm 0.23 in5.8 mm
12:16 PM 82.1°F27.8°C 69.6°F20.9°C 66% 5.0 mph NW8.0 kmh NW 16.0 mph25.7 kmh 29.65 in1004.1 mb 0.00 in0.0 mm 0.00 in0.0 mm 0.23 in5.8 mm
12:15 PM 82.1°F27.8°C 69.6°F20.9°C 66% 6.0 mph NW9.7 kmh NW 16.0 mph25.7 kmh 29.65 in1004.1 mb 0.00 in0.0 mm 0.00 in0.0 mm 0.23 in5.8 mm
12:14 PM 82.1°F27.8°C 70.1°F21.2°C 67% 11.0 mph NW17.7 kmh NW 16.0 mph25.7 kmh 29.65 in1004.1 mb 0.00 in0.0 mm 0.00 in0.0 mm 0.23 in5.8 mm
12:13 PM 82.0°F27.8°C 70.0°F21.1°C 67% 12.0 mph WSW19.3 kmh WSW 16.0 mph25.7 kmh 29.65 in1004.1 mb 0.00 in0.0 mm 0.00 in0.0 mm 0.23 in5.8 mm
12:12 PM 82.0°F27.8°C 70.0°F21.1°C 67% 5.0 mph WNW8.0 kmh WNW 16.0 mph25.7 kmh 29.65 in1004.1 mb 0.00 in0.0 mm 0.00 in0.0 mm 0.23 in5.8 mm
12:11 PM 82.0°F27.8°C 69.1°F20.6°C 65% 10.0 mph W16.1 kmh W 16.0 mph25.7 kmh 29.65 in1004.1 mb 0.00 in0.0 mm 0.00 in0.0 mm 0.23 in5.8 mm
12:10 PM 81.9°F27.7°C 69.9°F21.1°C 67% 8.0 mph SW12.9 kmh SW 14.0 mph22.5 kmh 29.65 in1004.1 mb 0.00 in0.0 mm 0.00 in0.0 mm 0.23 in5.8 mm
12:09 PM 81.8°F27.7°C 69.3°F20.7°C 66% 5.0 mph NW8.0 kmh NW 14.0 mph22.5 kmh 29.65 in1004.1 mb 0.00 in0.0 mm 0.00 in0.0 mm 0.23 in5.8 mm
12:08 PM 81.7°F27.6°C 70.1°F21.2°C 68% 12.0 mph W19.3 kmh W 14.0 mph22.5 kmh 29.65 in1004.1 mb 0.00 in0.0 mm 0.00 in0.0 mm 0.23 in5.8 mm
12:07 PM 81.7°F27.6°C 69.2°F20.7°C 66% 4.0 mph SW6.4 kmh SW 14.0 mph22.5 kmh 29.65 in1004.1 mb 0.00 in0.0 mm 0.00 in0.0 mm 0.23 in5.8 mm
12:06 PM 81.6°F27.6°C 68.3°F20.2°C 64% 7.0 mph WNW11.3 kmh WNW 14.0 mph22.5 kmh 29.65 in1004.1 mb 0.00 in0.0 mm 0.00 in0.0 mm 0.23 in5.8 mm
12:05 PM 81.6°F27.6°C 68.3°F20.2°C 64% 7.0 mph WNW11.3 kmh WNW 14.0 mph22.5 kmh 29.65 in1004.1 mb 0.00 in0.0 mm 0.00 in0.0 mm 0.23 in5.8 mm
12:04 PM 81.6°F27.6°C 68.7°F20.4°C 65% 6.0 mph NNW9.7 kmh NNW 12.0 mph19.3 kmh 29.65 in1004.1 mb 0.00 in0.0 mm 0.00 in0.0 mm 0.23 in5.8 mm
12:03 PM 81.6°F27.6°C 69.2°F20.7°C 66% 5.0 mph SW8.0 kmh SW 12.0 mph19.3 kmh 29.65 in1004.1 mb 0.00 in0.0 mm 0.00 in0.0 mm 0.23 in5.8 mm
12:02 PM 81.5°F27.5°C 69.1°F20.6°C 66% 7.0 mph SW11.3 kmh SW 17.0 mph27.4 kmh 29.65 in1004.1 mb 0.00 in0.0 mm 0.00 in0.0 mm 0.23 in5.8 mm
12:01 PM 81.5°F27.5°C 68.2°F20.1°C 64% 8.0 mph NW12.9 kmh NW 17.0 mph27.4 kmh 29.65 in1004.1 mb 0.00 in0.0 mm 0.00 in0.0 mm 0.23 in5.8 mm
12:00 PM 81.5°F27.5°C 68.6°F20.3°C 65% 12.0 mph NW19.3 kmh NW 17.0 mph27.4 kmh 29.65 in1004.1 mb 0.00 in0.0 mm 0.00 in0.0 mm 0.23 in5.8 mm
11:59 AM 81.5°F27.5°C 68.6°F20.3°C 65% 8.0 mph NW12.9 kmh NW 17.0 mph27.4 kmh 29.65 in1004.1 mb 0.00 in0.0 mm 0.00 in0.0 mm 0.23 in5.8 mm
11:58 AM 81.5°F27.5°C 69.1°F20.6°C 66% 4.0 mph NW6.4 kmh NW 17.0 mph27.4 kmh 29.65 in1004.1 mb 0.00 in0.0 mm 0.00 in0.0 mm 0.23 in5.8 mm
11:57 AM 81.5°F27.5°C 69.1°F20.6°C 66% 9.0 mph WNW14.5 kmh WNW 17.0 mph27.4 kmh 29.65 in1004.1 mb 0.00 in0.0 mm 0.00 in0.0 mm 0.23 in5.8 mm
11:56 AM 81.5°F27.5°C 68.6°F20.3°C 65% 4.0 mph WSW6.4 kmh WSW 17.0 mph27.4 kmh 29.65 in1004.1 mb 0.00 in0.0 mm 0.00 in0.0 mm 0.23 in5.8 mm
11:55 AM 81.5°F27.5°C 68.2°F20.1°C 64% 7.0 mph SSE11.3 kmh SSE 17.0 mph27.4 kmh 29.65 in1004.1 mb 0.00 in0.0 mm 0.00 in0.0 mm 0.23 in5.8 mm
11:54 AM 81.5°F27.5°C 68.6°F20.3°C 65% 15.0 mph NW24.1 kmh NW 17.0 mph27.4 kmh 29.65 in1004.1 mb 0.00 in0.0 mm 0.00 in0.0 mm 0.23 in5.8 mm
11:53 AM 81.6°F27.6°C 68.3°F20.2°C 64% 9.0 mph NW14.5 kmh NW 17.0 mph27.4 kmh 29.65 in1004.1 mb 0.00 in0.0 mm 0.00 in0.0 mm 0.23 in5.8 mm
11:52 AM 81.6°F27.6°C 68.7°F20.4°C 65% 14.0 mph NW22.5 kmh NW 17.0 mph27.4 kmh 29.65 in1004.1 mb 0.00 in0.0 mm 0.00 in0.0 mm 0.23 in5.8 mm
11:51 AM 81.6°F27.6°C 68.3°F20.2°C 64% 9.0 mph NW14.5 kmh NW 17.0 mph27.4 kmh 29.65 in1004.1 mb 0.00 in0.0 mm 0.00 in0.0 mm 0.23 in5.8 mm
11:50 AM 81.7°F27.6°C 68.8°F20.4°C 65% 6.0 mph NW9.7 kmh NW 17.0 mph27.4 kmh 29.65 in1004.1 mb 0.00 in0.0 mm 0.00 in0.0 mm 0.23 in5.8 mm
11:49 AM 81.7°F27.6°C 68.4°F20.2°C 64% 14.0 mph WNW22.5 kmh WNW 17.0 mph27.4 kmh 29.65 in1004.1 mb 0.00 in0.0 mm 0.00 in0.0 mm 0.23 in5.8 mm
11:48 AM 81.8°F27.7°C 68.0°F20.0°C 63% 10.0 mph WNW16.1 kmh WNW 17.0 mph27.4 kmh 29.65 in1004.1 mb 0.00 in0.0 mm 0.00 in0.0 mm 0.23 in5.8 mm
11:47 AM 81.8°F27.7°C 68.0°F20.0°C 63% 9.0 mph WNW14.5 kmh WNW 17.0 mph27.4 kmh 29.65 in1004.1 mb 0.00 in0.0 mm 0.00 in0.0 mm 0.23 in5.8 mm
11:46 AM 81.9°F27.7°C 68.5°F20.3°C 64% 9.0 mph WNW14.5 kmh WNW 17.0 mph27.4 kmh 29.65 in1004.1 mb 0.00 in0.0 mm 0.00 in0.0 mm 0.23 in5.8 mm
11:45 AM 82.0°F27.8°C 67.7°F19.8°C 62% 6.0 mph WSW9.7 kmh WSW 17.0 mph27.4 kmh 29.65 in1004.1 mb 0.00 in0.0 mm 0.00 in0.0 mm 0.23 in5.8 mm
11:44 AM 82.0°F27.8°C 67.7°F19.8°C 62% 12.0 mph W19.3 kmh W 17.0 mph27.4 kmh 29.65 in1004.1 mb 0.00 in0.0 mm 0.00 in0.0 mm 0.23 in5.8 mm
11:43 AM 82.1°F27.8°C 68.7°F20.4°C 64% 6.0 mph W9.7 kmh W 17.0 mph27.4 kmh 29.65 in1004.1 mb 0.00 in0.0 mm 0.00 in0.0 mm 0.23 in5.8 mm
11:42 AM 82.1°F27.8°C 68.3°F20.2°C 63% 9.0 mph W14.5 kmh W 17.0 mph27.4 kmh 29.65 in1004.1 mb 0.00 in0.0 mm 0.00 in0.0 mm 0.23 in5.8 mm
11:41 AM 82.1°F27.8°C 68.3°F20.2°C 63% 8.0 mph WSW12.9 kmh WSW 17.0 mph27.4 kmh 29.65 in1004.1 mb 0.00 in0.0 mm 0.00 in0.0 mm 0.23 in5.8 mm
11:40 AM 82.1°F27.8°C 68.3°F20.2°C 63% 6.0 mph NW9.7 kmh NW 17.0 mph27.4 kmh 29.65 in1004.1 mb 0.00 in0.0 mm 0.00 in0.0 mm 0.23 in5.8 mm
11:39 AM 82.1°F27.8°C 67.8°F19.9°C 62% 12.0 mph WNW19.3 kmh WNW 17.0 mph27.4 kmh 29.65 in1004.1 mb 0.00 in0.0 mm 0.00 in0.0 mm 0.23 in5.8 mm
11:38 AM 82.0°F27.8°C 68.2°F20.1°C 63% 6.0 mph SW9.7 kmh SW 17.0 mph27.4 kmh 29.65 in1004.1 mb 0.00 in0.0 mm 0.00 in0.0 mm 0.23 in5.8 mm
11:37 AM 82.0°F27.8°C 68.6°F20.3°C 64% 8.0 mph NW12.9 kmh NW 17.0 mph27.4 kmh 29.65 in1004.1 mb 0.00 in0.0 mm 0.00 in0.0 mm 0.23 in5.8 mm
11:36 AM 82.0°F27.8°C 69.1°F20.6°C 65% 2.0 mph NW3.2 kmh NW 17.0 mph27.4 kmh 29.65 in1004.1 mb 0.00 in0.0 mm 0.00 in0.0 mm 0.23 in5.8 mm
11:35 AM 82.0°F27.8°C 70.4°F21.3°C 68% 6.0 mph WSW9.7 kmh WSW 17.0 mph27.4 kmh 29.64 in1003.7 mb 0.00 in0.0 mm 0.00 in0.0 mm 0.23 in5.8 mm
11:34 AM 82.0°F27.8°C 69.5°F20.8°C 66% 5.0 mph NW8.0 kmh NW 11.0 mph17.7 kmh 29.65 in1004.1 mb 0.00 in0.0 mm 0.00 in0.0 mm 0.23 in5.8 mm
11:33 AM 81.9°F27.7°C 69.0°F20.6°C 65% 6.0 mph W9.7 kmh W 11.0 mph17.7 kmh 29.64 in1003.7 mb 0.00 in0.0 mm 0.00 in0.0 mm 0.23 in5.8 mm
11:32 AM 81.9°F27.7°C 69.0°F20.6°C 65% 11.0 mph WNW17.7 kmh WNW 21.0 mph33.8 kmh 29.64 in1003.7 mb 0.00 in0.0 mm 0.00 in0.0 mm 0.23 in5.8 mm
11:31 AM 82.0°F27.8°C 68.6°F20.3°C 64% 6.0 mph WSW9.7 kmh WSW 21.0 mph33.8 kmh 29.64 in1003.7 mb 0.00 in0.0 mm 0.00 in0.0 mm 0.23 in5.8 mm
11:30 AM 82.0°F27.8°C 68.2°F20.1°C 63% 11.0 mph NW17.7 kmh NW 21.0 mph33.8 kmh 29.64 in1003.7 mb 0.00 in0.0 mm 0.00 in0.0 mm 0.23 in5.8 mm
11:29 AM 82.0°F27.8°C 68.6°F20.3°C 64% 9.0 mph NW14.5 kmh NW 21.0 mph33.8 kmh 29.64 in1003.7 mb 0.00 in0.0 mm 0.00 in0.0 mm 0.23 in5.8 mm
11:28 AM 82.0°F27.8°C 68.6°F20.3°C 64% 4.0 mph W6.4 kmh W 21.0 mph33.8 kmh 29.64 in1003.7 mb 0.00 in0.0 mm 0.00 in0.0 mm 0.23 in5.8 mm
11:27 AM 82.0°F27.8°C 68.6°F20.3°C 64% 3.0 mph W4.8 kmh W 21.0 mph33.8 kmh 29.64 in1003.7 mb 0.00 in0.0 mm 0.00 in0.0 mm 0.23 in5.8 mm
11:26 AM 81.9°F27.7°C 69.0°F20.6°C 65% 11.0 mph W17.7 kmh W 21.0 mph33.8 kmh 29.64 in1003.7 mb 0.00 in0.0 mm 0.00 in0.0 mm 0.23 in5.8 mm
11:25 AM 81.9°F27.7°C 69.0°F20.6°C 65% 9.0 mph NW14.5 kmh NW 21.0 mph33.8 kmh 29.64 in1003.7 mb 0.00 in0.0 mm 0.00 in0.0 mm 0.23 in5.8 mm
11:24 AM 81.9°F27.7°C 68.5°F20.3°C 64% 8.0 mph WNW12.9 kmh WNW 21.0 mph33.8 kmh 29.64 in1003.7 mb 0.00 in0.0 mm 0.00 in0.0 mm 0.23 in5.8 mm
11:23 AM 81.9°F27.7°C 69.0°F20.6°C 65% 4.0 mph WSW6.4 kmh WSW 21.0 mph33.8 kmh 29.64 in1003.7 mb 0.00 in0.0 mm 0.00 in0.0 mm 0.23 in5.8 mm
11:22 AM 81.9°F27.7°C 69.0°F20.6°C 65% 7.0 mph W11.3 kmh W 21.0 mph33.8 kmh 29.64 in1003.7 mb 0.00 in0.0 mm 0.00 in0.0 mm 0.23 in5.8 mm
11:21 AM 81.8°F27.7°C 68.9°F20.5°C 65% 10.0 mph WSW16.1 kmh WSW 21.0 mph33.8 kmh 29.64 in1003.7 mb 0.00 in0.0 mm 0.00 in0.0 mm 0.23 in5.8 mm
11:20 AM 81.9°F27.7°C 68.5°F20.3°C 64% 2.0 mph WSW3.2 kmh WSW 21.0 mph33.8 kmh 29.64 in1003.7 mb 0.00 in0.0 mm 0.00 in0.0 mm 0.23 in5.8 mm
11:19 AM 81.8°F27.7°C 68.4°F20.2°C 64% 6.0 mph WSW9.7 kmh WSW 21.0 mph33.8 kmh 29.64 in1003.7 mb 0.00 in0.0 mm 0.00 in0.0 mm 0.23 in5.8 mm
11:18 AM 81.8°F27.7°C 68.9°F20.5°C 65% 6.0 mph NW9.7 kmh NW 21.0 mph33.8 kmh 29.64 in1003.7 mb 0.00 in0.0 mm 0.00 in0.0 mm 0.23 in5.8 mm
11:17 AM 81.8°F27.7°C 68.0°F20.0°C 63% 5.0 mph W8.0 kmh W 21.0 mph33.8 kmh 29.64 in1003.7 mb 0.00 in0.0 mm 0.00 in0.0 mm 0.23 in5.8 mm
11:16 AM 81.8°F27.7°C 68.4°F20.2°C 64% 7.0 mph NW11.3 kmh NW 21.0 mph33.8 kmh 29.64 in1003.7 mb 0.00 in0.0 mm 0.00 in0.0 mm 0.23 in5.8 mm
11:15 AM 81.8°F27.7°C 68.9°F20.5°C 65% 12.0 mph WNW19.3 kmh WNW 21.0 mph33.8 kmh 29.64 in1003.7 mb 0.00 in0.0 mm 0.00 in0.0 mm 0.23 in5.8 mm
11:14 AM 81.8°F27.7°C 68.4°F20.2°C 64% 13.0 mph NW20.9 kmh NW 21.0 mph33.8 kmh 29.64 in1003.7 mb 0.00 in0.0 mm 0.00 in0.0 mm 0.23 in5.8 mm
11:13 AM 81.8°F27.7°C 68.0°F20.0°C 63% 12.0 mph WNW19.3 kmh WNW 21.0 mph33.8 kmh 29.64 in1003.7 mb 0.00 in0.0 mm 0.00 in0.0 mm 0.23 in5.8 mm
11:12 AM 81.8°F27.7°C 68.4°F20.2°C 64% 7.0 mph W11.3 kmh W 21.0 mph33.8 kmh 29.64 in1003.7 mb 0.00 in0.0 mm 0.00 in0.0 mm 0.23 in5.8 mm
11:11 AM 81.8°F27.7°C 69.3°F20.7°C 66% 6.0 mph W9.7 kmh W 21.0 mph33.8 kmh 29.64 in1003.7 mb 0.00 in0.0 mm 0.00 in0.0 mm 0.23 in5.8 mm
11:10 AM 81.9°F27.7°C 68.5°F20.3°C 64% 8.0 mph WNW12.9 kmh WNW 21.0 mph33.8 kmh 29.64 in1003.7 mb 0.00 in0.0 mm 0.00 in0.0 mm 0.23 in5.8 mm
11:09 AM 81.8°F27.7°C 68.4°F20.2°C 64% 10.0 mph W16.1 kmh W 21.0 mph33.8 kmh 29.64 in1003.7 mb 0.00 in0.0 mm 0.00 in0.0 mm 0.23 in5.8 mm
11:08 AM 81.8°F27.7°C 68.4°F20.2°C 64% 11.0 mph W17.7 kmh W 21.0 mph33.8 kmh 29.64 in1003.7 mb 0.00 in0.0 mm 0.00 in0.0 mm 0.23 in5.8 mm
11:07 AM 81.9°F27.7°C 69.0°F20.6°C 65% 4.0 mph N6.4 kmh N 21.0 mph33.8 kmh 29.64 in1003.7 mb 0.00 in0.0 mm 0.00 in0.0 mm 0.23 in5.8 mm
11:06 AM 81.8°F27.7°C 68.4°F20.2°C 64% 6.0 mph W9.7 kmh W 21.0 mph33.8 kmh 29.64 in1003.7 mb 0.00 in0.0 mm 0.00 in0.0 mm 0.23 in5.8 mm
11:05 AM 81.8°F27.7°C 68.4°F20.2°C 64% 8.0 mph SW12.9 kmh SW 21.0 mph33.8 kmh 29.64 in1003.7 mb 0.00 in0.0 mm 0.00 in0.0 mm 0.23 in5.8 mm
11:04 AM 81.8°F27.7°C 68.0°F20.0°C 63% 8.0 mph W12.9 kmh W 21.0 mph33.8 kmh 29.64 in1003.7 mb 0.00 in0.0 mm 0.00 in0.0 mm 0.23 in5.8 mm
11:03 AM 81.8°F27.7°C 68.4°F20.2°C 64% 11.0 mph W17.7 kmh W 21.0 mph33.8 kmh 29.64 in1003.7 mb 0.00 in0.0 mm 0.00 in0.0 mm 0.23 in5.8 mm
11:02 AM 81.8°F27.7°C 68.4°F20.2°C 64% 9.0 mph WNW14.5 kmh WNW 16.0 mph25.7 kmh 29.64 in1003.7 mb 0.00 in0.0 mm 0.00 in0.0 mm 0.23 in5.8 mm
11:01 AM 81.8°F27.7°C 68.0°F20.0°C 63% 6.0 mph NW9.7 kmh NW 16.0 mph25.7 kmh 29.65 in1004.1 mb 0.00 in0.0 mm 0.00 in0.0 mm 0.23 in5.8 mm
11:00 AM 81.8°F27.7°C 68.0°F20.0°C 63% 9.0 mph W14.5 kmh W 16.0 mph25.7 kmh 29.65 in1004.1 mb 0.00 in0.0 mm 0.00 in0.0 mm 0.23 in5.8 mm
10:59 AM 81.8°F27.7°C 67.5°F19.7°C 62% 10.0 mph WNW16.1 kmh WNW 16.0 mph25.7 kmh 29.65 in1004.1 mb 0.00 in0.0 mm 0.00 in0.0 mm 0.23 in5.8 mm
10:58 AM 81.8°F27.7°C 68.0°F20.0°C 63% 12.0 mph WNW19.3 kmh WNW 16.0 mph25.7 kmh 29.65 in1004.1 mb 0.00 in0.0 mm 0.00 in0.0 mm 0.23 in5.8 mm
10:57 AM 81.8°F27.7°C 68.0°F20.0°C 63% 10.0 mph WNW16.1 kmh WNW 16.0 mph25.7 kmh 29.65 in1004.1 mb 0.00 in0.0 mm 0.00 in0.0 mm 0.23 in5.8 mm
10:56 AM 81.8°F27.7°C 68.0°F20.0°C 63% 6.0 mph WNW9.7 kmh WNW 16.0 mph25.7 kmh 29.65 in1004.1 mb 0.00 in0.0 mm 0.00 in0.0 mm 0.23 in5.8 mm
10:55 AM 81.8°F27.7°C 69.3°F20.7°C 66% 6.0 mph NW9.7 kmh NW 16.0 mph25.7 kmh 29.65 in1004.1 mb 0.00 in0.0 mm 0.00 in0.0 mm 0.23 in5.8 mm
10:54 AM 81.8°F27.7°C 68.4°F20.2°C 64% 7.0 mph NW11.3 kmh NW 16.0 mph25.7 kmh 29.65 in1004.1 mb 0.00 in0.0 mm 0.00 in0.0 mm 0.23 in5.8 mm
10:53 AM 81.8°F27.7°C 68.4°F20.2°C 64% 4.0 mph W6.4 kmh W 16.0 mph25.7 kmh 29.65 in1004.1 mb 0.00 in0.0 mm 0.00 in0.0 mm 0.23 in5.8 mm
10:52 AM 81.8°F27.7°C 68.9°F20.5°C 65% 5.0 mph W8.0 kmh W 16.0 mph25.7 kmh 29.65 in1004.1 mb 0.00 in0.0 mm 0.00 in0.0 mm 0.23 in5.8 mm
10:51 AM 81.8°F27.7°C 68.4°F20.2°C 64% 8.0 mph WNW12.9 kmh WNW 16.0 mph25.7 kmh 29.65 in1004.1 mb 0.00 in0.0 mm 0.00 in0.0 mm 0.23 in5.8 mm
10:50 AM 81.8°F27.7°C 68.0°F20.0°C 63% 4.0 mph NW6.4 kmh NW 16.0 mph25.7 kmh 29.65 in1004.1 mb 0.00 in0.0 mm 0.00 in0.0 mm 0.23 in5.8 mm
10:49 AM 81.9°F27.7°C 67.1°F19.5°C 61% 4.0 mph NW6.4 kmh NW 15.0 mph24.1 kmh 29.64 in1003.7 mb 0.00 in0.0 mm 0.00 in0.0 mm 0.23 in5.8 mm
10:48 AM 81.9°F27.7°C 67.6°F19.8°C 62% 7.0 mph SW11.3 kmh SW 15.0 mph24.1 kmh 29.64 in1003.7 mb 0.00 in0.0 mm 0.00 in0.0 mm 0.23 in5.8 mm
10:47 AM 82.0°F27.8°C 67.7°F19.8°C 62% 13.0 mph NW20.9 kmh NW 15.0 mph24.1 kmh 29.64 in1003.7 mb 0.00 in0.0 mm 0.00 in0.0 mm 0.23 in5.8 mm
10:46 AM 82.0°F27.8°C 68.2°F20.1°C 63% 11.0 mph NW17.7 kmh NW 15.0 mph24.1 kmh 29.64 in1003.7 mb 0.00 in0.0 mm 0.00 in0.0 mm 0.23 in5.8 mm
10:45 AM 82.1°F27.8°C 68.7°F20.4°C 64% 4.0 mph W6.4 kmh W 15.0 mph24.1 kmh 29.64 in1003.7 mb 0.00 in0.0 mm 0.00 in0.0 mm 0.23 in5.8 mm
10:44 AM 82.1°F27.8°C 69.6°F20.9°C 66% 4.0 mph WNW6.4 kmh WNW 15.0 mph24.1 kmh 29.64 in1003.7 mb 0.00 in0.0 mm 0.00 in0.0 mm 0.23 in5.8 mm
10:43 AM 82.2°F27.9°C 69.3°F20.7°C 65% 4.0 mph NW6.4 kmh NW 15.0 mph24.1 kmh 29.64 in1003.7 mb 0.00 in0.0 mm 0.00 in0.0 mm 0.23 in5.8 mm
10:42 AM 82.2°F27.9°C 68.4°F20.2°C 63% 5.0 mph NW8.0 kmh NW 15.0 mph24.1 kmh 29.64 in1003.7 mb 0.00 in0.0 mm 0.00 in0.0 mm 0.23 in5.8 mm
10:41 AM 82.2°F27.9°C 68.4°F20.2°C 63% 4.0 mph NNW6.4 kmh NNW 15.0 mph24.1 kmh 29.64 in1003.7 mb 0.00 in0.0 mm 0.00 in0.0 mm 0.23 in5.8 mm
10:40 AM 82.2°F27.9°C 68.4°F20.2°C 63% 8.0 mph NW12.9 kmh NW 15.0 mph24.1 kmh 29.64 in1003.7 mb 0.00 in0.0 mm 0.00 in0.0 mm 0.23 in5.8 mm
10:39 AM 82.3°F27.9°C 68.0°F20.0°C 62% 11.0 mph WNW17.7 kmh WNW 15.0 mph24.1 kmh 29.64 in1003.7 mb 0.00 in0.0 mm 0.00 in0.0 mm 0.23 in5.8 mm
10:38 AM 82.3°F27.9°C 69.4°F20.8°C 65% 6.0 mph NNW9.7 kmh NNW 15.0 mph24.1 kmh 29.64 in1003.7 mb 0.00 in0.0 mm 0.00 in0.0 mm 0.23 in5.8 mm
10:37 AM 82.3°F27.9°C 69.4°F20.8°C 65% 11.0 mph W17.7 kmh W 15.0 mph24.1 kmh 29.64 in1003.7 mb 0.00 in0.0 mm 0.00 in0.0 mm 0.23 in5.8 mm
10:36 AM 82.3°F27.9°C 69.8°F21.0°C 66% 8.0 mph NW12.9 kmh NW 11.0 mph17.7 kmh 29.64 in1003.7 mb 0.00 in0.0 mm 0.00 in0.0 mm 0.23 in5.8 mm
10:35 AM 82.2°F27.9°C 69.3°F20.7°C 65% 7.0 mph NW11.3 kmh NW 11.0 mph17.7 kmh 29.64 in1003.7 mb 0.00 in0.0 mm 0.00 in0.0 mm 0.23 in5.8 mm
10:34 AM 82.2°F27.9°C 70.2°F21.2°C 67% 5.0 mph WSW8.0 kmh WSW 11.0 mph17.7 kmh 29.64 in1003.7 mb 0.00 in0.0 mm 0.00 in0.0 mm 0.23 in5.8 mm
10:33 AM 82.1°F27.8°C 70.1°F21.2°C 67% 11.0 mph NW17.7 kmh NW 11.0 mph17.7 kmh 29.64 in1003.7 mb 0.00 in0.0 mm 0.00 in0.0 mm 0.23 in5.8 mm
10:32 AM 82.0°F27.8°C 69.5°F20.8°C 66% 6.0 mph NW9.7 kmh NW 9.0 mph14.5 kmh 29.64 in1003.7 mb 0.00 in0.0 mm 0.00 in0.0 mm 0.23 in5.8 mm
10:31 AM 82.0°F27.8°C 70.8°F21.6°C 69% 2.0 mph WNW3.2 kmh WNW 9.0 mph14.5 kmh 29.64 in1003.7 mb 0.00 in0.0 mm 0.00 in0.0 mm 0.23 in5.8 mm
10:30 AM 81.9°F27.7°C 71.2°F21.8°C 70% 3.0 mph SE4.8 kmh SE 9.0 mph14.5 kmh 29.64 in1003.7 mb 0.00 in0.0 mm 0.00 in0.0 mm 0.23 in5.8 mm
10:29 AM 81.8°F27.7°C 70.6°F21.4°C 69% 1.0 mph NNW1.6 kmh NNW 9.0 mph14.5 kmh 29.64 in1003.7 mb 0.00 in0.0 mm 0.00 in0.0 mm 0.23 in5.8 mm
10:28 AM 81.7°F27.6°C 70.6°F21.4°C 69% 2.0 mph SSW3.2 kmh SSW 9.0 mph14.5 kmh 29.64 in1003.7 mb 0.00 in0.0 mm 0.00 in0.0 mm 0.23 in5.8 mm
10:27 AM 81.7°F27.6°C 70.6°F21.4°C 69% 5.0 mph WSW8.0 kmh WSW 9.0 mph14.5 kmh 29.64 in1003.7 mb 0.00 in0.0 mm 0.00 in0.0 mm 0.23 in5.8 mm
10:26 AM 81.6°F27.6°C 71.3°F21.8°C 71% 4.0 mph W6.4 kmh W 9.0 mph14.5 kmh 29.64 in1003.7 mb 0.00 in0.0 mm 0.00 in0.0 mm 0.23 in5.8 mm
10:25 AM 81.5°F27.5°C 71.2°F21.8°C 71% 3.0 mph NW4.8 kmh NW 9.0 mph14.5 kmh 29.64 in1003.7 mb 0.00 in0.0 mm 0.00 in0.0 mm 0.23 in5.8 mm
10:24 AM 81.5°F27.5°C 71.6°F22.0°C 72% 2.0 mph NW3.2 kmh NW 9.0 mph14.5 kmh 29.64 in1003.7 mb 0.00 in0.0 mm 0.00 in0.0 mm 0.23 in5.8 mm
10:23 AM 81.4°F27.4°C 70.7°F21.5°C 70% 1.0 mph WNW1.6 kmh WNW 9.0 mph14.5 kmh 29.64 in1003.7 mb 0.00 in0.0 mm 0.00 in0.0 mm 0.23 in5.8 mm
10:22 AM 81.4°F27.4°C 70.7°F21.5°C 70% 3.0 mph WNW4.8 kmh WNW 9.0 mph14.5 kmh 29.64 in1003.7 mb 0.00 in0.0 mm 0.00 in0.0 mm 0.23 in5.8 mm
10:21 AM 81.3°F27.4°C 70.6°F21.4°C 70% 4.0 mph WSW6.4 kmh WSW 9.0 mph14.5 kmh 29.64 in1003.7 mb 0.00 in0.0 mm 0.00 in0.0 mm 0.23 in5.8 mm
10:20 AM 81.3°F27.4°C 70.2°F21.2°C 69% 3.0 mph NW4.8 kmh NW 9.0 mph14.5 kmh 29.64 in1003.7 mb 0.00 in0.0 mm 0.00 in0.0 mm 0.23 in5.8 mm
10:19 AM 81.2°F27.3°C 70.5°F21.4°C 70% 4.0 mph W6.4 kmh W 9.0 mph14.5 kmh 29.64 in1003.7 mb 0.00 in0.0 mm 0.00 in0.0 mm 0.23 in5.8 mm
10:18 AM 81.2°F27.3°C 70.5°F21.4°C 70% 6.0 mph WSW9.7 kmh WSW 9.0 mph14.5 kmh 29.64 in1003.7 mb 0.00 in0.0 mm 0.00 in0.0 mm 0.23 in5.8 mm
10:17 AM 81.1°F27.3°C 70.4°F21.3°C 70% 4.0 mph WSW6.4 kmh WSW 9.0 mph14.5 kmh 29.64 in1003.7 mb 0.00 in0.0 mm 0.00 in0.0 mm 0.23 in5.8 mm
10:16 AM 81.1°F27.3°C 70.8°F21.6°C 71% 2.0 mph SW3.2 kmh SW 9.0 mph14.5 kmh 29.63 in1003.4 mb 0.00 in0.0 mm 0.00 in0.0 mm 0.23 in5.8 mm
10:15 AM 81.0°F27.2°C 70.3°F21.3°C 70% 1.0 mph SW1.6 kmh SW 9.0 mph14.5 kmh 29.63 in1003.4 mb 0.00 in0.0 mm 0.00 in0.0 mm 0.23 in5.8 mm
10:14 AM 80.9°F27.2°C 70.2°F21.2°C 70% 4.0 mph WSW6.4 kmh WSW 9.0 mph14.5 kmh 29.64 in1003.7 mb 0.00 in0.0 mm 0.00 in0.0 mm 0.23 in5.8 mm
10:13 AM 80.9°F27.2°C 70.6°F21.4°C 71% 1.0 mph WNW1.6 kmh WNW 9.0 mph14.5 kmh 29.64 in1003.7 mb 0.00 in0.0 mm 0.00 in0.0 mm 0.23 in5.8 mm
10:12 AM 80.8°F27.1°C 70.1°F21.2°C 70% 3.0 mph NW4.8 kmh NW 9.0 mph14.5 kmh 29.63 in1003.4 mb 0.00 in0.0 mm 0.00 in0.0 mm 0.23 in5.8 mm
10:11 AM 80.8°F27.1°C 70.1°F21.2°C 70% 4.0 mph SW6.4 kmh SW 9.0 mph14.5 kmh 29.64 in1003.7 mb 0.00 in0.0 mm 0.00 in0.0 mm 0.23 in5.8 mm
10:10 AM 80.7°F27.1°C 69.6°F20.9°C 69% 2.0 mph WSW3.2 kmh WSW 9.0 mph14.5 kmh 29.64 in1003.7 mb 0.00 in0.0 mm 0.00 in0.0 mm 0.23 in5.8 mm
10:09 AM 80.7°F27.1°C 69.6°F20.9°C 69% 7.0 mph WSW11.3 kmh WSW 9.0 mph14.5 kmh 29.64 in1003.7 mb 0.00 in0.0 mm 0.00 in0.0 mm 0.23 in5.8 mm
10:08 AM 80.7°F27.1°C 70.0°F21.1°C 70% 4.0 mph SSW6.4 kmh SSW 9.0 mph14.5 kmh 29.64 in1003.7 mb 0.00 in0.0 mm 0.00 in0.0 mm 0.23 in5.8 mm
10:07 AM 80.6°F27.0°C 70.3°F21.3°C 71% 3.0 mph WSW4.8 kmh WSW 9.0 mph14.5 kmh 29.64 in1003.7 mb 0.00 in0.0 mm 0.00 in0.0 mm 0.23 in5.8 mm
10:06 AM 80.6°F27.0°C 69.9°F21.1°C 70% 3.0 mph WSW4.8 kmh WSW 5.0 mph8.0 kmh 29.64 in1003.7 mb 0.00 in0.0 mm 0.00 in0.0 mm 0.23 in5.8 mm
10:05 AM 80.5°F26.9°C 70.7°F21.5°C 72% 3.0 mph NNW4.8 kmh NNW 5.0 mph8.0 kmh 29.64 in1003.7 mb 0.00 in0.0 mm 0.00 in0.0 mm 0.23 in5.8 mm
10:04 AM 80.5°F26.9°C 70.7°F21.5°C 72% 2.0 mph WSW3.2 kmh WSW 5.0 mph8.0 kmh 29.64 in1003.7 mb 0.00 in0.0 mm 0.00 in0.0 mm 0.23 in5.8 mm
10:03 AM 80.4°F26.9°C 71.0°F21.7°C 73% 2.0 mph SW3.2 kmh SW 5.0 mph8.0 kmh 29.64 in1003.7 mb 0.00 in0.0 mm 0.00 in0.0 mm 0.23 in5.8 mm
10:02 AM 80.3°F26.8°C 70.1°F21.2°C 71% 4.0 mph SW6.4 kmh SW 8.0 mph12.9 kmh 29.64 in1003.7 mb 0.00 in0.0 mm 0.00 in0.0 mm 0.23 in5.8 mm
10:01 AM 80.3°F26.8°C 70.5°F21.4°C 72% 3.0 mph WSW4.8 kmh WSW 8.0 mph12.9 kmh 29.64 in1003.7 mb 0.00 in0.0 mm 0.00 in0.0 mm 0.23 in5.8 mm
10:00 AM 80.2°F26.8°C 70.8°F21.6°C 73% 3.0 mph SW4.8 kmh SW 8.0 mph12.9 kmh 29.64 in1003.7 mb 0.00 in0.0 mm 0.00 in0.0 mm 0.23 in5.8 mm
09:59 AM 80.1°F26.7°C 69.9°F21.1°C 71% 1.0 mph S1.6 kmh S 8.0 mph12.9 kmh 29.64 in1003.7 mb 0.00 in0.0 mm 0.00 in0.0 mm 0.23 in5.8 mm
09:58 AM 80.1°F26.7°C 69.9°F21.1°C 71% 4.0 mph SW6.4 kmh SW 8.0 mph12.9 kmh 29.64 in1003.7 mb 0.00 in0.0 mm 0.00 in0.0 mm 0.23 in5.8 mm
09:57 AM 80.1°F26.7°C 70.3°F21.3°C 72% 2.0 mph WNW3.2 kmh WNW 8.0 mph12.9 kmh 29.64 in1003.7 mb 0.00 in0.0 mm 0.00 in0.0 mm 0.23 in5.8 mm
09:56 AM 80.0°F26.7°C 70.2°F21.2°C 72% 4.0 mph S6.4 kmh S 8.0 mph12.9 kmh 29.64 in1003.7 mb 0.00 in0.0 mm 0.00 in0.0 mm 0.23 in5.8 mm
09:55 AM 80.0°F26.7°C 70.2°F21.2°C 72% 2.0 mph W3.2 kmh W 8.0 mph12.9 kmh 29.64 in1003.7 mb 0.00 in0.0 mm 0.00 in0.0 mm 0.23 in5.8 mm
09:54 AM 79.9°F26.6°C 70.5°F21.4°C 73% 3.0 mph SSW4.8 kmh SSW 8.0 mph12.9 kmh 29.64 in1003.7 mb 0.00 in0.0 mm 0.00 in0.0 mm 0.23 in5.8 mm
09:53 AM 79.8°F26.6°C 70.4°F21.3°C 73% 5.0 mph WSW8.0 kmh WSW 8.0 mph12.9 kmh 29.64 in1003.7 mb 0.00 in0.0 mm 0.00 in0.0 mm 0.23 in5.8 mm
09:52 AM 79.8°F26.6°C 70.4°F21.3°C 73% 1.0 mph SW1.6 kmh SW 8.0 mph12.9 kmh 29.64 in1003.7 mb 0.00 in0.0 mm 0.00 in0.0 mm 0.23 in5.8 mm
09:51 AM 79.7°F26.5°C 71.1°F21.7°C 75% 4.0 mph WSW6.4 kmh WSW 8.0 mph12.9 kmh 29.64 in1003.7 mb 0.00 in0.0 mm 0.00 in0.0 mm 0.23 in5.8 mm
09:50 AM 79.6°F26.4°C 71.0°F21.7°C 75% 1.0 mph WNW1.6 kmh WNW 8.0 mph12.9 kmh 29.64 in1003.7 mb 0.00 in0.0 mm 0.00 in0.0 mm 0.23 in5.8 mm
09:49 AM 79.5°F26.4°C 70.5°F21.4°C 74% 2.0 mph W3.2 kmh W 8.0 mph12.9 kmh 29.63 in1003.4 mb 0.00 in0.0 mm 0.00 in0.0 mm 0.23 in5.8 mm
09:48 AM 79.4°F26.3°C 70.4°F21.3°C 74% 5.0 mph S8.0 kmh S 8.0 mph12.9 kmh 29.63 in1003.4 mb 0.00 in0.0 mm 0.00 in0.0 mm 0.23 in5.8 mm
09:47 AM 79.3°F26.3°C 69.9°F21.1°C 73% 3.0 mph SSW4.8 kmh SSW 8.0 mph12.9 kmh 29.63 in1003.4 mb 0.00 in0.0 mm 0.00 in0.0 mm 0.23 in5.8 mm
09:46 AM 79.2°F26.2°C 69.8°F21.0°C 73% 2.0 mph WSW3.2 kmh WSW 8.0 mph12.9 kmh 29.63 in1003.4 mb 0.00 in0.0 mm 0.00 in0.0 mm 0.23 in5.8 mm
09:45 AM 79.1°F26.2°C 69.7°F20.9°C 73% 1.0 mph WNW1.6 kmh WNW 8.0 mph12.9 kmh 29.63 in1003.4 mb 0.00 in0.0 mm 0.00 in0.0 mm 0.23 in5.8 mm
09:44 AM 79.1°F26.2°C 70.5°F21.4°C 75% 6.0 mph W9.7 kmh W 8.0 mph12.9 kmh 29.63 in1003.4 mb 0.00 in0.0 mm 0.00 in0.0 mm 0.23 in5.8 mm
09:43 AM 78.9°F26.1°C 69.9°F21.1°C 74% 1.0 mph NW1.6 kmh NW 7.0 mph11.3 kmh 29.63 in1003.4 mb 0.00 in0.0 mm 0.00 in0.0 mm 0.23 in5.8 mm
09:42 AM 78.8°F26.0°C 69.8°F21.0°C 74% 2.0 mph WSW3.2 kmh WSW 7.0 mph11.3 kmh 29.64 in1003.7 mb 0.00 in0.0 mm 0.00 in0.0 mm 0.23 in5.8 mm
09:41 AM 78.8°F26.0°C 69.8°F21.0°C 74% 2.0 mph WSW3.2 kmh WSW 7.0 mph11.3 kmh 29.63 in1003.4 mb 0.00 in0.0 mm 0.00 in0.0 mm 0.23 in5.8 mm
09:40 AM 78.7°F25.9°C 69.7°F20.9°C 74% 1.0 mph W1.6 kmh W 7.0 mph11.3 kmh 29.63 in1003.4 mb 0.00 in0.0 mm 0.00 in0.0 mm 0.23 in5.8 mm
09:39 AM 78.6°F25.9°C 70.0°F21.1°C 75% 4.0 mph WSW6.4 kmh WSW 7.0 mph11.3 kmh 29.63 in1003.4 mb 0.00 in0.0 mm 0.00 in0.0 mm 0.23 in5.8 mm
09:38 AM 78.5°F25.8°C 69.9°F21.1°C 75% 2.0 mph SW3.2 kmh SW 7.0 mph11.3 kmh 29.63 in1003.4 mb 0.00 in0.0 mm 0.00 in0.0 mm 0.23 in5.8 mm
09:37 AM 78.4°F25.8°C 70.2°F21.2°C 76% 2.0 mph W3.2 kmh W 5.0 mph8.0 kmh 29.63 in1003.4 mb 0.00 in0.0 mm 0.00 in0.0 mm 0.23 in5.8 mm
09:36 AM 78.4°F25.8°C 69.8°F21.0°C 75% 2.0 mph SSW3.2 kmh SSW 5.0 mph8.0 kmh 29.63 in1003.4 mb 0.00 in0.0 mm 0.00 in0.0 mm 0.23 in5.8 mm
09:35 AM 78.3°F25.7°C 70.1°F21.2°C 76% 4.0 mph WSW6.4 kmh WSW 5.0 mph8.0 kmh 29.63 in1003.4 mb 0.00 in0.0 mm 0.00 in0.0 mm 0.23 in5.8 mm
09:34 AM 78.2°F25.7°C 70.0°F21.1°C 76% 2.0 mph W3.2 kmh W 5.0 mph8.0 kmh 29.63 in1003.4 mb 0.00 in0.0 mm 0.00 in0.0 mm 0.23 in5.8 mm
09:33 AM 78.2°F25.7°C 70.0°F21.1°C 76% 2.0 mph W3.2 kmh W 5.0 mph8.0 kmh 29.63 in1003.4 mb 0.00 in0.0 mm 0.00 in0.0 mm 0.23 in5.8 mm
09:32 AM 78.1°F25.6°C 69.9°F21.1°C 76% 3.0 mph WNW4.8 kmh WNW 11.0 mph17.7 kmh 29.63 in1003.4 mb 0.00 in0.0 mm 0.00 in0.0 mm 0.23 in5.8 mm
09:31 AM 78.0°F25.6°C 70.2°F21.2°C 77% 3.0 mph WSW4.8 kmh WSW 11.0 mph17.7 kmh 29.63 in1003.4 mb 0.00 in0.0 mm 0.00 in0.0 mm 0.23 in5.8 mm
09:30 AM 77.9°F25.5°C 70.1°F21.2°C 77% 3.0 mph S4.8 kmh S 11.0 mph17.7 kmh 29.63 in1003.4 mb 0.00 in0.0 mm 0.00 in0.0 mm 0.23 in5.8 mm
09:29 AM 77.8°F25.4°C 70.0°F21.1°C 77% 3.0 mph W4.8 kmh W 11.0 mph17.7 kmh 29.63 in1003.4 mb 0.00 in0.0 mm 0.00 in0.0 mm 0.23 in5.8 mm
09:28 AM 77.8°F25.4°C 70.4°F21.3°C 78% 2.0 mph WSW3.2 kmh WSW 7.0 mph11.3 kmh 29.63 in1003.4 mb 0.00 in0.0 mm 0.00 in0.0 mm 0.23 in5.8 mm
09:27 AM 77.7°F25.4°C 70.3°F21.3°C 78% 1.0 mph WSW1.6 kmh WSW 7.0 mph11.3 kmh 29.62 in1003.0 mb 0.00 in0.0 mm 0.00 in0.0 mm 0.23 in5.8 mm
09:26 AM 77.6°F25.3°C 69.8°F21.0°C 77% 4.0 mph SW6.4 kmh SW 7.0 mph11.3 kmh 29.62 in1003.0 mb 0.00 in0.0 mm 0.00 in0.0 mm 0.23 in5.8 mm
09:25 AM 77.4°F25.2°C 69.6°F20.9°C 77% 3.0 mph SW4.8 kmh SW 7.0 mph11.3 kmh 29.62 in1003.0 mb 0.00 in0.0 mm 0.00 in0.0 mm 0.23 in5.8 mm
09:24 AM 77.4°F25.2°C 69.6°F20.9°C 77% 5.0 mph W8.0 kmh W 7.0 mph11.3 kmh 29.62 in1003.0 mb 0.00 in0.0 mm 0.00 in0.0 mm 0.23 in5.8 mm
09:23 AM 77.3°F25.2°C 69.9°F21.1°C 78% 2.0 mph WNW3.2 kmh WNW 7.0 mph11.3 kmh 29.62 in1003.0 mb 0.00 in0.0 mm 0.00 in0.0 mm 0.23 in5.8 mm
09:22 AM 77.2°F25.1°C 70.2°F21.2°C 79% 2.0 mph NW3.2 kmh NW 7.0 mph11.3 kmh 29.62 in1003.0 mb 0.00 in0.0 mm 0.00 in0.0 mm 0.23 in5.8 mm
09:21 AM 77.1°F25.1°C 70.1°F21.2°C 79% 1.0 mph W1.6 kmh W 7.0 mph11.3 kmh 29.62 in1003.0 mb 0.00 in0.0 mm 0.00 in0.0 mm 0.23 in5.8 mm
09:20 AM 77.0°F25.0°C 69.6°F20.9°C 78% 2.0 mph W3.2 kmh W 7.0 mph11.3 kmh 29.62 in1003.0 mb 0.00 in0.0 mm 0.00 in0.0 mm 0.23 in5.8 mm
09:19 AM 76.9°F24.9°C 69.5°F20.8°C 78% 2.0 mph NNW3.2 kmh NNW 7.0 mph11.3 kmh 29.62 in1003.0 mb 0.00 in0.0 mm 0.00 in0.0 mm 0.23 in5.8 mm
09:18 AM 76.8°F24.9°C 69.4°F20.8°C 78% 6.0 mph WSW9.7 kmh WSW 7.0 mph11.3 kmh 29.62 in1003.0 mb 0.00 in0.0 mm 0.00 in0.0 mm 0.23 in5.8 mm
09:17 AM 76.7°F24.8°C 69.7°F20.9°C 79% 4.0 mph SW6.4 kmh SW 7.0 mph11.3 kmh 29.62 in1003.0 mb 0.00 in0.0 mm 0.00 in0.0 mm 0.23 in5.8 mm
09:16 AM 76.6°F24.8°C 69.6°F20.9°C 79% 6.0 mph SW9.7 kmh SW 7.0 mph11.3 kmh 29.62 in1003.0 mb 0.00 in0.0 mm 0.00 in0.0 mm 0.23 in5.8 mm
09:15 AM 76.6°F24.8°C 70.0°F21.1°C 80% 1.0 mph WSW1.6 kmh WSW 7.0 mph11.3 kmh 29.62 in1003.0 mb 0.00 in0.0 mm 0.00 in0.0 mm 0.23 in5.8 mm
09:14 AM 76.5°F24.7°C 69.5°F20.8°C 79% 2.0 mph W3.2 kmh W 7.0 mph11.3 kmh 29.62 in1003.0 mb 0.00 in0.0 mm 0.00 in0.0 mm 0.23 in5.8 mm
09:13 AM 76.4°F24.7°C 69.8°F21.0°C 80% 3.0 mph NW4.8 kmh NW 7.0 mph11.3 kmh 29.62 in1003.0 mb 0.00 in0.0 mm 0.00 in0.0 mm 0.23 in5.8 mm
09:12 AM 76.3°F24.6°C 69.7°F20.9°C 80% 4.0 mph WSW6.4 kmh WSW 7.0 mph11.3 kmh 29.62 in1003.0 mb 0.00 in0.0 mm 0.00 in0.0 mm 0.23 in5.8 mm
09:11 AM 76.2°F24.6°C 70.0°F21.1°C 81% 5.0 mph S8.0 kmh S 7.0 mph11.3 kmh 29.62 in1003.0 mb 0.00 in0.0 mm 0.00 in0.0 mm 0.23 in5.8 mm
09:10 AM 76.1°F24.5°C 69.5°F20.8°C 80% 1.0 mph SW1.6 kmh SW 7.0 mph11.3 kmh 29.62 in1003.0 mb 0.00 in0.0 mm 0.00 in0.0 mm 0.23 in5.8 mm
09:09 AM 76.0°F24.4°C 69.4°F20.8°C 80% 5.0 mph SW8.0 kmh SW 7.0 mph11.3 kmh 29.62 in1003.0 mb 0.00 in0.0 mm 0.00 in0.0 mm 0.23 in5.8 mm
09:08 AM 75.9°F24.4°C 69.3°F20.7°C 80% 1.0 mph SW1.6 kmh SW 7.0 mph11.3 kmh 29.62 in1003.0 mb 0.00 in0.0 mm 0.00 in0.0 mm 0.23 in5.8 mm
09:07 AM 75.8°F24.3°C 69.6°F20.9°C 81% 3.0 mph SW4.8 kmh SW 7.0 mph11.3 kmh 29.62 in1003.0 mb 0.00 in0.0 mm 0.00 in0.0 mm 0.23 in5.8 mm
09:06 AM 75.7°F24.3°C 69.5°F20.8°C 81% 3.0 mph WSW4.8 kmh WSW 7.0 mph11.3 kmh 29.62 in1003.0 mb 0.00 in0.0 mm 0.00 in0.0 mm 0.23 in5.8 mm
09:05 AM 75.6°F24.2°C 69.7°F20.9°C 82% 3.0 mph SW4.8 kmh SW 7.0 mph11.3 kmh 29.62 in1003.0 mb 0.00 in0.0 mm 0.00 in0.0 mm 0.23 in5.8 mm
09:04 AM 75.5°F24.2°C 69.6°F20.9°C 82% 4.0 mph SSW6.4 kmh SSW 7.0 mph11.3 kmh 29.63 in1003.4 mb 0.00 in0.0 mm 0.00 in0.0 mm 0.23 in5.8 mm
09:03 AM 75.4°F24.1°C 69.5°F20.8°C 82% 2.0 mph SW3.2 kmh SW 2.0 mph3.2 kmh 29.62 in1003.0 mb 0.00 in0.0 mm 0.00 in0.0 mm 0.23 in5.8 mm
09:02 AM 75.3°F24.1°C 69.4°F20.8°C 82% Calm Calm 17.0 mph27.4 kmh 29.62 in1003.0 mb 0.00 in0.0 mm 0.00 in0.0 mm 0.23 in5.8 mm
09:01 AM 75.2°F24.0°C 69.7°F20.9°C 83% 4.0 mph SW6.4 kmh SW 17.0 mph27.4 kmh 29.62 in1003.0 mb 0.00 in0.0 mm 0.00 in0.0 mm 0.23 in5.8 mm
09:00 AM 75.1°F23.9°C 69.2°F20.7°C 82% 4.0 mph SW6.4 kmh SW 17.0 mph27.4 kmh 29.62 in1003.0 mb 0.00 in0.0 mm 0.00 in0.0 mm 0.23 in5.8 mm
08:59 AM 75.0°F23.9°C 69.1°F20.6°C 82% 4.0 mph SW6.4 kmh SW 17.0 mph27.4 kmh 29.62 in1003.0 mb 0.00 in0.0 mm 0.00 in0.0 mm 0.23 in5.8 mm
08:58 AM 75.0°F23.9°C 69.1°F20.6°C 82% 4.0 mph SW6.4 kmh SW 17.0 mph27.4 kmh 29.62 in1003.0 mb 0.00 in0.0 mm 0.00 in0.0 mm 0.23 in5.8 mm
08:57 AM 74.9°F23.8°C 69.0°F20.6°C 82% 4.0 mph SW6.4 kmh SW 17.0 mph27.4 kmh 29.62 in1003.0 mb 0.00 in0.0 mm 0.00 in0.0 mm 0.23 in5.8 mm
08:56 AM 74.8°F23.8°C 68.9°F20.5°C 82% 5.0 mph WSW8.0 kmh WSW 17.0 mph27.4 kmh 29.62 in1003.0 mb 0.00 in0.0 mm 0.00 in0.0 mm 0.23 in5.8 mm
08:55 AM 74.8°F23.8°C 68.9°F20.5°C 82% 8.0 mph SW12.9 kmh SW 17.0 mph27.4 kmh 29.62 in1003.0 mb 0.00 in0.0 mm 0.00 in0.0 mm 0.23 in5.8 mm
08:54 AM 74.7°F23.7°C 68.8°F20.4°C 82% 4.0 mph S6.4 kmh S 17.0 mph27.4 kmh 29.62 in1003.0 mb 0.00 in0.0 mm 0.00 in0.0 mm 0.23 in5.8 mm
08:53 AM 74.6°F23.7°C 68.8°F20.4°C 82% 7.0 mph SSW11.3 kmh SSW 17.0 mph27.4 kmh 29.62 in1003.0 mb 0.00 in0.0 mm 0.00 in0.0 mm 0.23 in5.8 mm
08:52 AM 74.6°F23.7°C 68.8°F20.4°C 82% 4.0 mph SW6.4 kmh SW 15.0 mph24.1 kmh 29.62 in1003.0 mb 0.00 in0.0 mm 0.00 in0.0 mm 0.23 in5.8 mm
08:51 AM 74.5°F23.6°C 68.7°F20.4°C 82% 7.0 mph SW11.3 kmh SW 15.0 mph24.1 kmh 29.62 in1003.0 mb 0.00 in0.0 mm 0.00 in0.0 mm 0.23 in5.8 mm
08:50 AM 74.5°F23.6°C 68.7°F20.4°C 82% 5.0 mph SW8.0 kmh SW 15.0 mph24.1 kmh 29.62 in1003.0 mb 0.00 in0.0 mm 0.00 in0.0 mm 0.23 in5.8 mm
08:49 AM 74.4°F23.6°C 68.6°F20.3°C 82% 7.0 mph SW11.3 kmh SW 15.0 mph24.1 kmh 29.62 in1003.0 mb 0.00 in0.0 mm 0.00 in0.0 mm 0.23 in5.8 mm
08:48 AM 74.3°F23.5°C 68.5°F20.3°C 82% 7.0 mph SSW11.3 kmh SSW 15.0 mph24.1 kmh 29.62 in1003.0 mb 0.00 in0.0 mm 0.00 in0.0 mm 0.23 in5.8 mm
08:47 AM 74.3°F23.5°C 68.5°F20.3°C 82% 7.0 mph SSW11.3 kmh SSW 15.0 mph24.1 kmh 29.62 in1003.0 mb 0.00 in0.0 mm 0.00 in0.0 mm 0.23 in5.8 mm
08:46 AM 74.2°F23.4°C 68.7°F20.4°C 83% 8.0 mph SSW12.9 kmh SSW 15.0 mph24.1 kmh 29.62 in1003.0 mb 0.00 in0.0 mm 0.00 in0.0 mm 0.23 in5.8 mm
08:45 AM 74.2°F23.4°C 68.4°F20.2°C 82% 5.0 mph SW8.0 kmh SW 15.0 mph24.1 kmh 29.62 in1003.0 mb 0.00 in0.0 mm 0.00 in0.0 mm 0.23 in5.8 mm
08:44 AM 74.1°F23.4°C 68.6°F20.3°C 83% 8.0 mph SSW12.9 kmh SSW 15.0 mph24.1 kmh 29.62 in1003.0 mb 0.00 in0.0 mm 0.00 in0.0 mm 0.23 in5.8 mm
08:43 AM 74.0°F23.3°C 68.5°F20.3°C 83% 9.0 mph SSW14.5 kmh SSW 12.0 mph19.3 kmh 29.62 in1003.0 mb 0.00 in0.0 mm 0.00 in0.0 mm 0.23 in5.8 mm
08:42 AM 74.0°F23.3°C 68.5°F20.3°C 83% 8.0 mph SSW12.9 kmh SSW 12.0 mph19.3 kmh 29.62 in1003.0 mb 0.00 in0.0 mm 0.00 in0.0 mm 0.23 in5.8 mm
08:41 AM 73.9°F23.3°C 68.8°F20.4°C 84% 8.0 mph WSW12.9 kmh WSW 12.0 mph19.3 kmh 29.62 in1003.0 mb 0.00 in0.0 mm 0.00 in0.0 mm 0.23 in5.8 mm
08:40 AM 73.9°F23.3°C 68.8°F20.4°C 84% 2.0 mph SW3.2 kmh SW 12.0 mph19.3 kmh 29.62 in1003.0 mb 0.00 in0.0 mm 0.00 in0.0 mm 0.23 in5.8 mm
08:39 AM 73.8°F23.2°C 68.7°F20.4°C 84% 6.0 mph SW9.7 kmh SW 12.0 mph19.3 kmh 29.63 in1003.4 mb 0.00 in0.0 mm 0.00 in0.0 mm 0.23 in5.8 mm
08:38 AM 73.7°F23.2°C 68.6°F20.3°C 84% 7.0 mph SW11.3 kmh SW 12.0 mph19.3 kmh 29.63 in1003.4 mb 0.00 in0.0 mm 0.00 in0.0 mm 0.23 in5.8 mm
08:37 AM 73.7°F23.2°C 68.6°F20.3°C 84% 4.0 mph S6.4 kmh S 12.0 mph19.3 kmh 29.63 in1003.4 mb 0.00 in0.0 mm 0.00 in0.0 mm 0.23 in5.8 mm
08:36 AM 73.6°F23.1°C 68.5°F20.3°C 84% 7.0 mph SSW11.3 kmh SSW 12.0 mph19.3 kmh 29.63 in1003.4 mb 0.00 in0.0 mm 0.00 in0.0 mm 0.23 in5.8 mm
08:35 AM 73.5°F23.1°C 68.4°F20.2°C 84% 3.0 mph SW4.8 kmh SW 12.0 mph19.3 kmh 29.63 in1003.4 mb 0.00 in0.0 mm 0.00 in0.0 mm 0.23 in5.8 mm
08:34 AM 73.5°F23.1°C 68.4°F20.2°C 84% 4.0 mph SW6.4 kmh SW 12.0 mph19.3 kmh 29.63 in1003.4 mb 0.00 in0.0 mm 0.00 in0.0 mm 0.23 in5.8 mm
08:33 AM 73.4°F23.0°C 68.3°F20.2°C 84% 8.0 mph SW12.9 kmh SW 10.0 mph16.1 kmh 29.62 in1003.0 mb 0.00 in0.0 mm 0.00 in0.0 mm 0.23 in5.8 mm
08:32 AM 73.4°F23.0°C 68.3°F20.2°C 84% 8.0 mph WSW12.9 kmh WSW 15.0 mph24.1 kmh 29.62 in1003.0 mb 0.00 in0.0 mm 0.00 in0.0 mm 0.23 in5.8 mm
08:31 AM 73.3°F22.9°C 68.2°F20.1°C 84% 6.0 mph SW9.7 kmh SW 15.0 mph24.1 kmh 29.63 in1003.4 mb 0.00 in0.0 mm 0.00 in0.0 mm 0.23 in5.8 mm
08:30 AM 73.2°F22.9°C 68.1°F20.1°C 84% 8.0 mph SW12.9 kmh SW 15.0 mph24.1 kmh 29.62 in1003.0 mb 0.00 in0.0 mm 0.00 in0.0 mm 0.23 in5.8 mm
08:29 AM 73.1°F22.8°C 68.0°F20.0°C 84% 12.0 mph SSW19.3 kmh SSW 15.0 mph24.1 kmh 29.62 in1003.0 mb 0.00 in0.0 mm 0.00 in0.0 mm 0.23 in5.8 mm
08:28 AM 73.1°F22.8°C 68.0°F20.0°C 84% 7.0 mph SW11.3 kmh SW 15.0 mph24.1 kmh 29.62 in1003.0 mb 0.00 in0.0 mm 0.00 in0.0 mm 0.23 in5.8 mm
08:27 AM 73.0°F22.8°C 67.9°F19.9°C 84% 11.0 mph SSW17.7 kmh SSW 15.0 mph24.1 kmh 29.62 in1003.0 mb 0.00 in0.0 mm 0.00 in0.0 mm 0.23 in5.8 mm
08:26 AM 73.0°F22.8°C 68.2°F20.1°C 85% 12.0 mph S19.3 kmh S 15.0 mph24.1 kmh 29.63 in1003.4 mb 0.00 in0.0 mm 0.00 in0.0 mm 0.23 in5.8 mm
08:25 AM 72.9°F22.7°C 67.8°F19.9°C 84% 7.0 mph SW11.3 kmh SW 15.0 mph24.1 kmh 29.62 in1003.0 mb 0.00 in0.0 mm 0.00 in0.0 mm 0.23 in5.8 mm
08:24 AM 72.8°F22.7°C 67.7°F19.8°C 84% 9.0 mph SSW14.5 kmh SSW 15.0 mph24.1 kmh 29.62 in1003.0 mb 0.00 in0.0 mm 0.00 in0.0 mm 0.23 in5.8 mm
08:23 AM 72.8°F22.7°C 68.0°F20.0°C 85% 7.0 mph SW11.3 kmh SW 15.0 mph24.1 kmh 29.62 in1003.0 mb 0.00 in0.0 mm 0.00 in0.0 mm 0.23 in5.8 mm
08:22 AM 72.7°F22.6°C 67.9°F19.9°C 85% 4.0 mph SSW6.4 kmh SSW 15.0 mph24.1 kmh 29.63 in1003.4 mb 0.00 in0.0 mm 0.00 in0.0 mm 0.23 in5.8 mm
08:21 AM 72.6°F22.6°C 67.8°F19.9°C 85% 7.0 mph SW11.3 kmh SW 15.0 mph24.1 kmh 29.63 in1003.4 mb 0.00 in0.0 mm 0.00 in0.0 mm 0.23 in5.8 mm
08:20 AM 72.5°F22.5°C 67.7°F19.8°C 85% 7.0 mph SW11.3 kmh SW 15.0 mph24.1 kmh 29.62 in1003.0 mb 0.00 in0.0 mm 0.00 in0.0 mm 0.23 in5.8 mm
08:19 AM 72.5°F22.5°C 68.1°F20.1°C 86% 4.0 mph SW6.4 kmh SW 15.0 mph24.1 kmh 29.62 in1003.0 mb 0.00 in0.0 mm 0.00 in0.0 mm 0.23 in5.8 mm
08:18 AM 72.4°F22.4°C 68.0°F20.0°C 86% 5.0 mph SW8.0 kmh SW 15.0 mph24.1 kmh 29.62 in1003.0 mb 0.00 in0.0 mm 0.00 in0.0 mm 0.23 in5.8 mm
08:17 AM 72.3°F22.4°C 67.5°F19.7°C 85% 5.0 mph S8.0 kmh S 15.0 mph24.1 kmh 29.62 in1003.0 mb 0.00 in0.0 mm 0.00 in0.0 mm 0.23 in5.8 mm
08:16 AM 72.2°F22.3°C 67.5°F19.7°C 85% 9.0 mph SW14.5 kmh SW 15.0 mph24.1 kmh 29.62 in1003.0 mb 0.00 in0.0 mm 0.00 in0.0 mm 0.23 in5.8 mm
08:15 AM 72.2°F22.3°C 67.5°F19.7°C 85% 7.0 mph S11.3 kmh S 15.0 mph24.1 kmh 29.63 in1003.4 mb 0.00 in0.0 mm 0.00 in0.0 mm 0.23 in5.8 mm
08:14 AM 72.1°F22.3°C 67.4°F19.7°C 85% 8.0 mph SW12.9 kmh SW 15.0 mph24.1 kmh 29.63 in1003.4 mb 0.00 in0.0 mm 0.00 in0.0 mm 0.23 in5.8 mm
08:13 AM 72.1°F22.3°C 67.4°F19.7°C 85% 9.0 mph SW14.5 kmh SW 15.0 mph24.1 kmh 29.63 in1003.4 mb 0.00 in0.0 mm 0.00 in0.0 mm 0.23 in5.8 mm
08:12 AM 72.0°F22.2°C 67.3°F19.6°C 85% 6.0 mph SSW9.7 kmh SSW 15.0 mph24.1 kmh 29.63 in1003.4 mb 0.00 in0.0 mm 0.00 in0.0 mm 0.23 in5.8 mm
08:11 AM 71.9°F22.2°C 67.5°F19.7°C 86% 9.0 mph S14.5 kmh S 15.0 mph24.1 kmh 29.63 in1003.4 mb 0.00 in0.0 mm 0.00 in0.0 mm 0.23 in5.8 mm
08:10 AM 71.9°F22.2°C 67.5°F19.7°C 86% 9.0 mph SSW14.5 kmh SSW 15.0 mph24.1 kmh 29.63 in1003.4 mb 0.00 in0.0 mm 0.00 in0.0 mm 0.23 in5.8 mm
08:09 AM 71.8°F22.1°C 67.1°F19.5°C 85% 7.0 mph SSW11.3 kmh SSW 14.0 mph22.5 kmh 29.63 in1003.4 mb 0.00 in0.0 mm 0.00 in0.0 mm 0.23 in5.8 mm
08:08 AM 71.7°F22.1°C 67.3°F19.6°C 86% 8.0 mph SSW12.9 kmh SSW 14.0 mph22.5 kmh 29.63 in1003.4 mb 0.00 in0.0 mm 0.00 in0.0 mm 0.23 in5.8 mm
08:07 AM 71.7°F22.1°C 67.3°F19.6°C 86% 11.0 mph SSW17.7 kmh SSW 14.0 mph22.5 kmh 29.63 in1003.4 mb 0.00 in0.0 mm 0.00 in0.0 mm 0.23 in5.8 mm
08:06 AM 71.6°F22.0°C 67.2°F19.6°C 86% 9.0 mph SW14.5 kmh SW 14.0 mph22.5 kmh 29.63 in1003.4 mb 0.00 in0.0 mm 0.00 in0.0 mm 0.23 in5.8 mm
08:05 AM 71.6°F22.0°C 67.2°F19.6°C 86% 6.0 mph SW9.7 kmh SW 12.0 mph19.3 kmh 29.63 in1003.4 mb 0.00 in0.0 mm 0.00 in0.0 mm 0.23 in5.8 mm
08:04 AM 71.5°F21.9°C 67.1°F19.5°C 86% 8.0 mph SW12.9 kmh SW 12.0 mph19.3 kmh 29.63 in1003.4 mb 0.00 in0.0 mm 0.00 in0.0 mm 0.23 in5.8 mm
08:03 AM 71.5°F21.9°C 67.1°F19.5°C 86% 7.0 mph SW11.3 kmh SW 10.0 mph16.1 kmh 29.63 in1003.4 mb 0.00 in0.0 mm 0.00 in0.0 mm 0.23 in5.8 mm
08:02 AM 71.4°F21.9°C 67.0°F19.4°C 86% 9.0 mph SW14.5 kmh SW 15.0 mph24.1 kmh 29.63 in1003.4 mb 0.00 in0.0 mm 0.00 in0.0 mm 0.23 in5.8 mm
08:01 AM 71.3°F21.8°C 66.9°F19.4°C 86% 5.0 mph SW8.0 kmh SW 15.0 mph24.1 kmh 29.63 in1003.4 mb 0.00 in0.0 mm 0.00 in0.0 mm 0.23 in5.8 mm
08:00 AM 71.3°F21.8°C 66.9°F19.4°C 86% 5.0 mph SW8.0 kmh SW 15.0 mph24.1 kmh 29.63 in1003.4 mb 0.00 in0.0 mm 0.00 in0.0 mm 0.23 in5.8 mm
07:59 AM 71.2°F21.8°C 66.8°F19.3°C 86% 12.0 mph SW19.3 kmh SW 15.0 mph24.1 kmh 29.63 in1003.4 mb 0.00 in0.0 mm 0.00 in0.0 mm 0.23 in5.8 mm
07:58 AM 71.2°F21.8°C 66.8°F19.3°C 86% 11.0 mph SW17.7 kmh SW 15.0 mph24.1 kmh 29.63 in1003.4 mb 0.00 in0.0 mm 0.00 in0.0 mm 0.23 in5.8 mm
07:57 AM 71.1°F21.7°C 67.0°F19.4°C 87% 9.0 mph S14.5 kmh S 15.0 mph24.1 kmh 29.63 in1003.4 mb 0.00 in0.0 mm 0.00 in0.0 mm 0.23 in5.8 mm
07:56 AM 71.1°F21.7°C 67.0°F19.4°C 87% 6.0 mph SW9.7 kmh SW 15.0 mph24.1 kmh 29.63 in1003.4 mb 0.00 in0.0 mm 0.00 in0.0 mm 0.23 in5.8 mm
07:55 AM 71.0°F21.7°C 66.9°F19.4°C 87% 7.0 mph SW11.3 kmh SW 15.0 mph24.1 kmh 29.63 in1003.4 mb 0.00 in0.0 mm 0.00 in0.0 mm 0.23 in5.8 mm
07:54 AM 70.9°F21.6°C 66.8°F19.3°C 87% 13.0 mph SW20.9 kmh SW 15.0 mph24.1 kmh 29.63 in1003.4 mb 0.00 in0.0 mm 0.00 in0.0 mm 0.23 in5.8 mm
07:53 AM 70.9°F21.6°C 66.5°F19.2°C 86% 9.0 mph SSW14.5 kmh SSW 15.0 mph24.1 kmh 29.63 in1003.4 mb 0.00 in0.0 mm 0.00 in0.0 mm 0.23 in5.8 mm
07:52 AM 70.8°F21.6°C 66.7°F19.3°C 87% 11.0 mph SW17.7 kmh SW 15.0 mph24.1 kmh 29.63 in1003.4 mb 0.00 in0.0 mm 0.00 in0.0 mm 0.23 in5.8 mm
07:51 AM 70.8°F21.6°C 66.7°F19.3°C 87% 7.0 mph SSW11.3 kmh SSW 15.0 mph24.1 kmh 29.63 in1003.4 mb 0.00 in0.0 mm 0.00 in0.0 mm 0.23 in5.8 mm
07:50 AM 70.7°F21.5°C 66.7°F19.3°C 87% 5.0 mph SW8.0 kmh SW 15.0 mph24.1 kmh 29.63 in1003.4 mb 0.00 in0.0 mm 0.00 in0.0 mm 0.23 in5.8 mm
07:49 AM 70.6°F21.4°C 66.6°F19.2°C 87% 10.0 mph SSW16.1 kmh SSW 14.0 mph22.5 kmh 29.63 in1003.4 mb 0.00 in0.0 mm 0.00 in0.0 mm 0.23 in5.8 mm
07:48 AM 70.6°F21.4°C 66.6°F19.2°C 87% 10.0 mph SSW16.1 kmh SSW 14.0 mph22.5 kmh 29.63 in1003.4 mb 0.00 in0.0 mm 0.00 in0.0 mm 0.23 in5.8 mm
07:47 AM 70.5°F21.4°C 66.5°F19.2°C 87% 10.0 mph SW16.1 kmh SW 14.0 mph22.5 kmh 29.64 in1003.7 mb 0.00 in0.0 mm 0.00 in0.0 mm 0.23 in5.8 mm
07:46 AM 70.5°F21.4°C 66.5°F19.2°C 87% 8.0 mph SW12.9 kmh SW 13.0 mph20.9 kmh 29.63 in1003.4 mb 0.00 in0.0 mm 0.00 in0.0 mm 0.23 in5.8 mm
07:45 AM 70.4°F21.3°C 66.4°F19.1°C 87% 9.0 mph SW14.5 kmh SW 13.0 mph20.9 kmh 29.63 in1003.4 mb 0.00 in0.0 mm 0.00 in0.0 mm 0.23 in5.8 mm
07:44 AM 70.4°F21.3°C 66.4°F19.1°C 87% 7.0 mph S11.3 kmh S 13.0 mph20.9 kmh 29.64 in1003.7 mb 0.00 in0.0 mm 0.00 in0.0 mm 0.23 in5.8 mm
07:43 AM 70.3°F21.3°C 66.3°F19.1°C 87% 7.0 mph SSW11.3 kmh SSW 13.0 mph20.9 kmh 29.64 in1003.7 mb 0.00 in0.0 mm 0.00 in0.0 mm 0.23 in5.8 mm
07:42 AM 70.2°F21.2°C 66.2°F19.0°C 87% 2.0 mph WSW3.2 kmh WSW 13.0 mph20.9 kmh 29.64 in1003.7 mb 0.00 in0.0 mm 0.00 in0.0 mm 0.23 in5.8 mm
07:41 AM 70.2°F21.2°C 66.2°F19.0°C 87% 6.0 mph S9.7 kmh S 13.0 mph20.9 kmh 29.64 in1003.7 mb 0.00 in0.0 mm 0.00 in0.0 mm 0.23 in5.8 mm
07:40 AM 70.1°F21.2°C 66.1°F18.9°C 87% 7.0 mph SSW11.3 kmh SSW 13.0 mph20.9 kmh 29.64 in1003.7 mb 0.00 in0.0 mm 0.00 in0.0 mm 0.23 in5.8 mm
07:39 AM 70.1°F21.2°C 66.1°F18.9°C 87% 5.0 mph SW8.0 kmh SW 13.0 mph20.9 kmh 29.64 in1003.7 mb 0.00 in0.0 mm 0.00 in0.0 mm 0.23 in5.8 mm
07:38 AM 70.0°F21.1°C 66.0°F18.9°C 87% 8.0 mph SSW12.9 kmh SSW 13.0 mph20.9 kmh 29.64 in1003.7 mb 0.00 in0.0 mm 0.00 in0.0 mm 0.23 in5.8 mm
07:37 AM 70.0°F21.1°C 66.0°F18.9°C 87% 12.0 mph SSW19.3 kmh SSW 13.0 mph20.9 kmh 29.64 in1003.7 mb 0.00 in0.0 mm 0.00 in0.0 mm 0.23 in5.8 mm
07:36 AM 69.9°F21.1°C 65.9°F18.8°C 87% 7.0 mph SSW11.3 kmh SSW 13.0 mph20.9 kmh 29.64 in1003.7 mb 0.00 in0.0 mm 0.00 in0.0 mm 0.23 in5.8 mm
07:35 AM 69.9°F21.1°C 66.2°F19.0°C 88% 10.0 mph SW16.1 kmh SW 13.0 mph20.9 kmh 29.64 in1003.7 mb 0.00 in0.0 mm 0.00 in0.0 mm 0.23 in5.8 mm
07:34 AM 69.8°F21.0°C 66.1°F18.9°C 88% 7.0 mph SW11.3 kmh SW 10.0 mph16.1 kmh 29.64 in1003.7 mb 0.00 in0.0 mm 0.00 in0.0 mm 0.23 in5.8 mm
07:33 AM 69.8°F21.0°C 66.1°F18.9°C 88% 9.0 mph SSW14.5 kmh SSW 10.0 mph16.1 kmh 29.64 in1003.7 mb 0.00 in0.0 mm 0.00 in0.0 mm 0.23 in5.8 mm
07:32 AM 69.7°F20.9°C 66.0°F18.9°C 88% 7.0 mph SSW11.3 kmh SSW 15.0 mph24.1 kmh 29.64 in1003.7 mb 0.00 in0.0 mm 0.00 in0.0 mm 0.23 in5.8 mm
07:31 AM 69.7°F20.9°C 66.0°F18.9°C 88% 7.0 mph SSW11.3 kmh SSW 15.0 mph24.1 kmh 29.64 in1003.7 mb 0.00 in0.0 mm 0.00 in0.0 mm 0.23 in5.8 mm
07:30 AM 69.7°F20.9°C 66.0°F18.9°C 88% 8.0 mph SSW12.9 kmh SSW 15.0 mph24.1 kmh 29.64 in1003.7 mb 0.00 in0.0 mm 0.00 in0.0 mm 0.23 in5.8 mm
07:29 AM 69.6°F20.9°C 65.9°F18.8°C 88% 10.0 mph SSW16.1 kmh SSW 15.0 mph24.1 kmh 29.64 in1003.7 mb 0.00 in0.0 mm 0.00 in0.0 mm 0.23 in5.8 mm
07:28 AM 69.5°F20.8°C 65.8°F18.8°C 88% 6.0 mph SSW9.7 kmh SSW 15.0 mph24.1 kmh 29.64 in1003.7 mb 0.00 in0.0 mm 0.00 in0.0 mm 0.23 in5.8 mm
07:27 AM 69.5°F20.8°C 65.8°F18.8°C 88% 6.0 mph SW9.7 kmh SW 15.0 mph24.1 kmh 29.64 in1003.7 mb 0.00 in0.0 mm 0.00 in0.0 mm 0.23 in5.8 mm
07:26 AM 69.5°F20.8°C 65.8°F18.8°C 88% 7.0 mph SSW11.3 kmh SSW 15.0 mph24.1 kmh 29.64 in1003.7 mb 0.00 in0.0 mm 0.00 in0.0 mm 0.23 in5.8 mm
07:25 AM 69.4°F20.8°C 65.7°F18.7°C 88% 4.0 mph SW6.4 kmh SW 15.0 mph24.1 kmh 29.64 in1003.7 mb 0.00 in0.0 mm 0.00 in0.0 mm 0.23 in5.8 mm
07:24 AM 69.4°F20.8°C 65.7°F18.7°C 88% 9.0 mph SSW14.5 kmh SSW 15.0 mph24.1 kmh 29.64 in1003.7 mb 0.00 in0.0 mm 0.00 in0.0 mm 0.23 in5.8 mm
07:23 AM 69.3°F20.7°C 65.6°F18.7°C 88% 12.0 mph SW19.3 kmh SW 15.0 mph24.1 kmh 29.64 in1003.7 mb 0.00 in0.0 mm 0.00 in0.0 mm 0.23 in5.8 mm
07:22 AM 69.2°F20.7°C 65.5°F18.6°C 88% 7.0 mph SW11.3 kmh SW 15.0 mph24.1 kmh 29.64 in1003.7 mb 0.00 in0.0 mm 0.00 in0.0 mm 0.23 in5.8 mm
07:21 AM 69.2°F20.7°C 65.5°F18.6°C 88% 7.0 mph SSW11.3 kmh SSW 14.0 mph22.5 kmh 29.64 in1003.7 mb 0.00 in0.0 mm 0.00 in0.0 mm 0.23 in5.8 mm
07:20 AM 69.1°F20.6°C 65.4°F18.6°C 88% 7.0 mph SSW11.3 kmh SSW 14.0 mph22.5 kmh 29.64 in1003.7 mb 0.00 in0.0 mm 0.00 in0.0 mm 0.23 in5.8 mm
07:19 AM 69.1°F20.6°C 65.4°F18.6°C 88% 6.0 mph SW9.7 kmh SW 14.0 mph22.5 kmh 29.64 in1003.7 mb 0.00 in0.0 mm 0.00 in0.0 mm 0.23 in5.8 mm
07:18 AM 69.0°F20.6°C 65.3°F18.5°C 88% 10.0 mph SSW16.1 kmh SSW 14.0 mph22.5 kmh 29.64 in1003.7 mb 0.00 in0.0 mm 0.00 in0.0 mm 0.23 in5.8 mm
07:17 AM 69.0°F20.6°C 65.3°F18.5°C 88% 5.0 mph SW8.0 kmh SW 14.0 mph22.5 kmh 29.64 in1003.7 mb 0.00 in0.0 mm 0.00 in0.0 mm 0.23 in5.8 mm
07:16 AM 68.9°F20.5°C 65.5°F18.6°C 89% 6.0 mph SSW9.7 kmh SSW 14.0 mph22.5 kmh 29.64 in1003.7 mb 0.00 in0.0 mm 0.00 in0.0 mm 0.23 in5.8 mm
07:15 AM 68.9°F20.5°C 65.5°F18.6°C 89% 6.0 mph SW9.7 kmh SW 14.0 mph22.5 kmh 29.64 in1003.7 mb 0.00 in0.0 mm 0.00 in0.0 mm 0.23 in5.8 mm
07:14 AM 68.8°F20.4°C 65.4°F18.6°C 89% 6.0 mph SW9.7 kmh SW 14.0 mph22.5 kmh 29.64 in1003.7 mb 0.00 in0.0 mm 0.00 in0.0 mm 0.23 in5.8 mm
07:13 AM 68.8°F20.4°C 65.1°F18.4°C 88% 9.0 mph S14.5 kmh S 14.0 mph22.5 kmh 29.64 in1003.7 mb 0.00 in0.0 mm 0.00 in0.0 mm 0.23 in5.8 mm
07:12 AM 68.7°F20.4°C 65.0°F18.3°C 88% 8.0 mph SSW12.9 kmh SSW 14.0 mph22.5 kmh 29.64 in1003.7 mb 0.00 in0.0 mm 0.00 in0.0 mm 0.23 in5.8 mm
07:11 AM 68.7°F20.4°C 65.3°F18.5°C 89% 7.0 mph SSW11.3 kmh SSW 14.0 mph22.5 kmh 29.64 in1003.7 mb 0.00 in0.0 mm 0.00 in0.0 mm 0.23 in5.8 mm
07:10 AM 68.6°F20.3°C 65.2°F18.4°C 89% 12.0 mph SSW19.3 kmh SSW 14.0 mph22.5 kmh 29.64 in1003.7 mb 0.00 in0.0 mm 0.00 in0.0 mm 0.23 in5.8 mm
07:09 AM 68.6°F20.3°C 65.2°F18.4°C 89% 8.0 mph SSW12.9 kmh SSW 14.0 mph22.5 kmh 29.64 in1003.7 mb 0.00 in0.0 mm 0.00 in0.0 mm 0.23 in5.8 mm
07:08 AM 68.5°F20.3°C 65.1°F18.4°C 89% 8.0 mph S12.9 kmh S 14.0 mph22.5 kmh 29.64 in1003.7 mb 0.00 in0.0 mm 0.00 in0.0 mm 0.23 in5.8 mm
07:07 AM 68.5°F20.3°C 65.1°F18.4°C 89% 6.0 mph SW9.7 kmh SW 14.0 mph22.5 kmh 29.64 in1003.7 mb 0.00 in0.0 mm 0.00 in0.0 mm 0.23 in5.8 mm
07:06 AM 68.5°F20.3°C 65.1°F18.4°C 89% 10.0 mph SSW16.1 kmh SSW 11.0 mph17.7 kmh 29.64 in1003.7 mb 0.00 in0.0 mm 0.00 in0.0 mm 0.23 in5.8 mm
07:05 AM 68.4°F20.2°C 65.0°F18.3°C 89% 7.0 mph S11.3 kmh S 11.0 mph17.7 kmh 29.64 in1003.7 mb 0.00 in0.0 mm 0.00 in0.0 mm 0.23 in5.8 mm
07:04 AM 68.4°F20.2°C 65.0°F18.3°C 89% 4.0 mph SSW6.4 kmh SSW 11.0 mph17.7 kmh 29.64 in1003.7 mb 0.00 in0.0 mm 0.00 in0.0 mm 0.23 in5.8 mm
07:03 AM 68.3°F20.2°C 64.9°F18.3°C 89% 7.0 mph S11.3 kmh S 10.0 mph16.1 kmh 29.64 in1003.7 mb 0.00 in0.0 mm 0.00 in0.0 mm 0.23 in5.8 mm
07:02 AM 68.3°F20.2°C 64.9°F18.3°C 89% 9.0 mph SW14.5 kmh SW 11.0 mph17.7 kmh 29.64 in1003.7 mb 0.00 in0.0 mm 0.00 in0.0 mm 0.23 in5.8 mm
07:01 AM 68.2°F20.1°C 64.8°F18.2°C 89% 7.0 mph SSW11.3 kmh SSW 11.0 mph17.7 kmh 29.64 in1003.7 mb 0.00 in0.0 mm 0.00 in0.0 mm 0.23 in5.8 mm
07:00 AM 68.2°F20.1°C 64.8°F18.2°C 89% 8.0 mph S12.9 kmh S 11.0 mph17.7 kmh 29.64 in1003.7 mb 0.00 in0.0 mm 0.00 in0.0 mm 0.23 in5.8 mm
06:59 AM 68.1°F20.1°C 64.7°F18.2°C 89% 7.0 mph SSW11.3 kmh SSW 11.0 mph17.7 kmh 29.64 in1003.7 mb 0.00 in0.0 mm 0.00 in0.0 mm 0.23 in5.8 mm
06:58 AM 68.1°F20.1°C 65.1°F18.4°C 90% 7.0 mph SW11.3 kmh SW 11.0 mph17.7 kmh 29.64 in1003.7 mb 0.00 in0.0 mm 0.00 in0.0 mm 0.23 in5.8 mm
06:57 AM 68.1°F20.1°C 65.1°F18.4°C 90% 6.0 mph SW9.7 kmh SW 11.0 mph17.7 kmh 29.64 in1003.7 mb 0.00 in0.0 mm 0.00 in0.0 mm 0.23 in5.8 mm
06:56 AM 68.0°F20.0°C 65.0°F18.3°C 90% 6.0 mph SW9.7 kmh SW 11.0 mph17.7 kmh 29.64 in1003.7 mb 0.00 in0.0 mm 0.00 in0.0 mm 0.23 in5.8 mm
06:55 AM 68.0°F20.0°C 65.0°F18.3°C 90% 5.0 mph SW8.0 kmh SW 11.0 mph17.7 kmh 29.64 in1003.7 mb 0.00 in0.0 mm 0.00 in0.0 mm 0.23 in5.8 mm
06:54 AM 67.9°F19.9°C 64.9°F18.3°C 90% 5.0 mph SSW8.0 kmh SSW 11.0 mph17.7 kmh 29.64 in1003.7 mb 0.00 in0.0 mm 0.00 in0.0 mm 0.23 in5.8 mm
06:53 AM 67.9°F19.9°C 64.9°F18.3°C 90% 5.0 mph SSW8.0 kmh SSW 11.0 mph17.7 kmh 29.64 in1003.7 mb 0.00 in0.0 mm 0.00 in0.0 mm 0.23 in5.8 mm
06:52 AM 67.9°F19.9°C 64.9°F18.3°C 90% 6.0 mph SW9.7 kmh SW 11.0 mph17.7 kmh 29.64 in1003.7 mb 0.00 in0.0 mm 0.00 in0.0 mm 0.23 in5.8 mm
06:51 AM 67.8°F19.9°C 64.8°F18.2°C 90% 5.0 mph SW8.0 kmh SW 11.0 mph17.7 kmh 29.64 in1003.7 mb 0.00 in0.0 mm 0.00 in0.0 mm 0.23 in5.8 mm
06:50 AM 67.8°F19.9°C 64.8°F18.2°C 90% 8.0 mph SW12.9 kmh SW 11.0 mph17.7 kmh 29.64 in1003.7 mb 0.00 in0.0 mm 0.00 in0.0 mm 0.23 in5.8 mm
06:49 AM 67.7°F19.8°C 64.7°F18.2°C 90% 7.0 mph SSW11.3 kmh SSW 11.0 mph17.7 kmh 29.64 in1003.7 mb 0.00 in0.0 mm 0.00 in0.0 mm 0.23 in5.8 mm
06:48 AM 67.7°F19.8°C 64.7°F18.2°C 90% 6.0 mph SSW9.7 kmh SSW 11.0 mph17.7 kmh 29.64 in1003.7 mb 0.00 in0.0 mm 0.00 in0.0 mm 0.23 in5.8 mm
06:47 AM 67.7°F19.8°C 64.7°F18.2°C 90% 3.0 mph SW4.8 kmh SW 11.0 mph17.7 kmh 29.64 in1003.7 mb 0.00 in0.0 mm 0.00 in0.0 mm 0.23 in5.8 mm
06:46 AM 67.6°F19.8°C 64.6°F18.1°C 90% 3.0 mph SW4.8 kmh SW 11.0 mph17.7 kmh 29.64 in1003.7 mb 0.00 in0.0 mm 0.00 in0.0 mm 0.23 in5.8 mm
06:45 AM 67.6°F19.8°C 64.6°F18.1°C 90% 7.0 mph SW11.3 kmh SW 11.0 mph17.7 kmh 29.64 in1003.7 mb 0.00 in0.0 mm 0.00 in0.0 mm 0.23 in5.8 mm
06:44 AM 67.6°F19.8°C 64.6°F18.1°C 90% 9.0 mph SW14.5 kmh SW 9.0 mph14.5 kmh 29.64 in1003.7 mb 0.00 in0.0 mm 0.00 in0.0 mm 0.23 in5.8 mm
06:43 AM 67.5°F19.7°C 64.5°F18.1°C 90% 4.0 mph SW6.4 kmh SW 7.0 mph11.3 kmh 29.64 in1003.7 mb 0.00 in0.0 mm 0.00 in0.0 mm 0.23 in5.8 mm
06:42 AM 67.5°F19.7°C 64.5°F18.1°C 90% 6.0 mph SSW9.7 kmh SSW 7.0 mph11.3 kmh 29.64 in1003.7 mb 0.00 in0.0 mm 0.00 in0.0 mm 0.23 in5.8 mm
06:41 AM 67.5°F19.7°C 64.5°F18.1°C 90% 2.0 mph SSW3.2 kmh SSW 6.0 mph9.7 kmh 29.64 in1003.7 mb 0.00 in0.0 mm 0.00 in0.0 mm 0.23 in5.8 mm
06:40 AM 67.5°F19.7°C 64.5°F18.1°C 90% 3.0 mph SSW4.8 kmh SSW 6.0 mph9.7 kmh 29.64 in1003.7 mb 0.00 in0.0 mm 0.00 in0.0 mm 0.23 in5.8 mm
06:39 AM 67.5°F19.7°C 64.5°F18.1°C 90% 2.0 mph SW3.2 kmh SW 6.0 mph9.7 kmh 29.64 in1003.7 mb 0.00 in0.0 mm 0.00 in0.0 mm 0.23 in5.8 mm
06:38 AM 67.5°F19.7°C 64.5°F18.1°C 90% 3.0 mph SW4.8 kmh SW 6.0 mph9.7 kmh 29.64 in1003.7 mb 0.00 in0.0 mm 0.00 in0.0 mm 0.23 in5.8 mm
06:37 AM 67.5°F19.7°C 64.5°F18.1°C 90% 3.0 mph SW4.8 kmh SW 6.0 mph9.7 kmh 29.64 in1003.7 mb 0.00 in0.0 mm 0.00 in0.0 mm 0.23 in5.8 mm
06:36 AM 67.5°F19.7°C 64.5°F18.1°C 90% 3.0 mph SW4.8 kmh SW 6.0 mph9.7 kmh 29.64 in1003.7 mb 0.00 in0.0 mm 0.00 in0.0 mm 0.23 in5.8 mm
06:35 AM 67.5°F19.7°C 64.5°F18.1°C 90% 3.0 mph SW4.8 kmh SW 6.0 mph9.7 kmh 29.64 in1003.7 mb 0.00 in0.0 mm 0.00 in0.0 mm 0.23 in5.8 mm
06:34 AM 67.4°F19.7°C 64.4°F18.0°C 90% 4.0 mph SW6.4 kmh SW 6.0 mph9.7 kmh 29.64 in1003.7 mb 0.00 in0.0 mm 0.00 in0.0 mm 0.23 in5.8 mm
06:33 AM 67.5°F19.7°C 64.5°F18.1°C 90% 3.0 mph SW4.8 kmh SW 6.0 mph9.7 kmh 29.64 in1003.7 mb 0.00 in0.0 mm 0.00 in0.0 mm 0.23 in5.8 mm
06:32 AM 67.4°F19.7°C 64.4°F18.0°C 90% 4.0 mph SW6.4 kmh SW 7.0 mph11.3 kmh 29.64 in1003.7 mb 0.00 in0.0 mm 0.00 in0.0 mm 0.23 in5.8 mm
06:31 AM 67.4°F19.7°C 64.4°F18.0°C 90% 5.0 mph SW8.0 kmh SW 7.0 mph11.3 kmh 29.65 in1004.1 mb 0.00 in0.0 mm 0.00 in0.0 mm 0.23 in5.8 mm
06:30 AM 67.4°F19.7°C 64.4°F18.0°C 90% 4.0 mph SW6.4 kmh SW 7.0 mph11.3 kmh 29.65 in1004.1 mb 0.00 in0.0 mm 0.00 in0.0 mm 0.23 in5.8 mm
06:29 AM 67.4°F19.7°C 64.4°F18.0°C 90% 4.0 mph SW6.4 kmh SW 7.0 mph11.3 kmh 29.65 in1004.1 mb 0.00 in0.0 mm 0.00 in0.0 mm 0.23 in5.8 mm
06:28 AM 67.4°F19.7°C 64.4°F18.0°C 90% 3.0 mph SW4.8 kmh SW 7.0 mph11.3 kmh 29.65 in1004.1 mb 0.00 in0.0 mm 0.00 in0.0 mm 0.23 in5.8 mm
06:27 AM 67.4°F19.7°C 64.4°F18.0°C 90% 2.0 mph SW3.2 kmh SW 7.0 mph11.3 kmh 29.65 in1004.1 mb 0.00 in0.0 mm 0.00 in0.0 mm 0.23 in5.8 mm
06:26 AM 67.4°F19.7°C 64.4°F18.0°C 90% 1.0 mph SW1.6 kmh SW 7.0 mph11.3 kmh 29.65 in1004.1 mb 0.00 in0.0 mm 0.00 in0.0 mm 0.23 in5.8 mm
06:25 AM 67.4°F19.7°C 64.4°F18.0°C 90% 1.0 mph SW1.6 kmh SW 7.0 mph11.3 kmh 29.65 in1004.1 mb 0.00 in0.0 mm 0.00 in0.0 mm 0.23 in5.8 mm
06:24 AM 67.4°F19.7°C 64.4°F18.0°C 90% 2.0 mph SW3.2 kmh SW 7.0 mph11.3 kmh 29.65 in1004.1 mb 0.00 in0.0 mm 0.00 in0.0 mm 0.23 in5.8 mm
06:23 AM 67.4°F19.7°C 64.4°F18.0°C 90% 2.0 mph SW3.2 kmh SW 7.0 mph11.3 kmh 29.65 in1004.1 mb 0.00 in0.0 mm 0.00 in0.0 mm 0.23 in5.8 mm
06:22 AM 67.4°F19.7°C 64.4°F18.0°C 90% 1.0 mph SW1.6 kmh SW 7.0 mph11.3 kmh 29.65 in1004.1 mb 0.00 in0.0 mm 0.00 in0.0 mm 0.23 in5.8 mm
06:21 AM 67.4°F19.7°C 64.4°F18.0°C 90% 4.0 mph SW6.4 kmh SW 7.0 mph11.3 kmh 29.65 in1004.1 mb 0.00 in0.0 mm 0.00 in0.0 mm 0.23 in5.8 mm
06:20 AM 67.4°F19.7°C 64.4°F18.0°C 90% 2.0 mph SW3.2 kmh SW 7.0 mph11.3 kmh 29.65 in1004.1 mb 0.00 in0.0 mm 0.00 in0.0 mm 0.23 in5.8 mm
06:19 AM 67.4°F19.7°C 64.4°F18.0°C 90% 2.0 mph SW3.2 kmh SW 7.0 mph11.3 kmh 29.65 in1004.1 mb 0.00 in0.0 mm 0.00 in0.0 mm 0.23 in5.8 mm
06:18 AM 67.5°F19.7°C 64.5°F18.1°C 90% 4.0 mph SW6.4 kmh SW 7.0 mph11.3 kmh 29.65 in1004.1 mb 0.00 in0.0 mm 0.00 in0.0 mm 0.23 in5.8 mm
06:17 AM 67.5°F19.7°C 64.5°F18.1°C 90% Calm Calm 7.0 mph11.3 kmh 29.65 in1004.1 mb 0.00 in0.0 mm 0.00 in0.0 mm 0.23 in5.8 mm
06:16 AM 67.4°F19.7°C 64.4°F18.0°C 90% 1.0 mph SW1.6 kmh SW 7.0 mph11.3 kmh 29.65 in1004.1 mb 0.00 in0.0 mm 0.00 in0.0 mm 0.23 in5.8 mm
06:15 AM 67.5°F19.7°C 64.5°F18.1°C 90% 2.0 mph SW3.2 kmh SW 7.0 mph11.3 kmh 29.65 in1004.1 mb 0.00 in0.0 mm 0.00 in0.0 mm 0.23 in5.8 mm
06:14 AM 67.5°F19.7°C 64.5°F18.1°C 90% 1.0 mph SW1.6 kmh SW 6.0 mph9.7 kmh 29.65 in1004.1 mb 0.00 in0.0 mm 0.00 in0.0 mm 0.23 in5.8 mm
06:13 AM 67.5°F19.7°C 64.5°F18.1°C 90% 1.0 mph SW1.6 kmh SW 6.0 mph9.7 kmh 29.65 in1004.1 mb 0.00 in0.0 mm 0.00 in0.0 mm 0.23 in5.8 mm
06:12 AM 67.5°F19.7°C 64.5°F18.1°C 90% 4.0 mph SW6.4 kmh SW 6.0 mph9.7 kmh 29.65 in1004.1 mb 0.00 in0.0 mm 0.00 in0.0 mm 0.23 in5.8 mm
06:11 AM 67.5°F19.7°C 64.5°F18.1°C 90% 2.0 mph SW3.2 kmh SW 6.0 mph9.7 kmh 29.65 in1004.1 mb 0.00 in0.0 mm 0.00 in0.0 mm 0.23 in5.8 mm
06:10 AM 67.5°F19.7°C 64.5°F18.1°C 90% 2.0 mph SW3.2 kmh SW 6.0 mph9.7 kmh 29.65 in1004.1 mb 0.00 in0.0 mm 0.00 in0.0 mm 0.23 in5.8 mm
06:09 AM 67.5°F19.7°C 64.5°F18.1°C 90% 3.0 mph SW4.8 kmh SW 6.0 mph9.7 kmh 29.65 in1004.1 mb 0.00 in0.0 mm 0.00 in0.0 mm 0.23 in5.8 mm
06:08 AM 67.6°F19.8°C 64.6°F18.1°C 90% 4.0 mph SW6.4 kmh SW 6.0 mph9.7 kmh 29.65 in1004.1 mb 0.00 in0.0 mm 0.00 in0.0 mm 0.23 in5.8 mm
06:07 AM 67.5°F19.7°C 64.5°F18.1°C 90% 3.0 mph SW4.8 kmh SW 6.0 mph9.7 kmh 29.65 in1004.1 mb 0.00 in0.0 mm 0.00 in0.0 mm 0.23 in5.8 mm
06:06 AM 67.5°F19.7°C 64.5°F18.1°C 90% 4.0 mph SW6.4 kmh SW 6.0 mph9.7 kmh 29.65 in1004.1 mb 0.00 in0.0 mm 0.00 in0.0 mm 0.23 in5.8 mm
06:05 AM 67.5°F19.7°C 64.5°F18.1°C 90% 3.0 mph SW4.8 kmh SW 6.0 mph9.7 kmh 29.65 in1004.1 mb 0.00 in0.0 mm 0.00 in0.0 mm 0.23 in5.8 mm
06:04 AM 67.5°F19.7°C 64.5°F18.1°C 90% 1.0 mph SW1.6 kmh SW 6.0 mph9.7 kmh 29.65 in1004.1 mb 0.00 in0.0 mm 0.00 in0.0 mm 0.23 in5.8 mm
06:03 AM 67.5°F19.7°C 64.5°F18.1°C 90% 6.0 mph SW9.7 kmh SW 6.0 mph9.7 kmh 29.65 in1004.1 mb 0.00 in0.0 mm 0.00 in0.0 mm 0.23 in5.8 mm
06:02 AM 67.5°F19.7°C 64.5°F18.1°C 90% 2.0 mph SW3.2 kmh SW 7.0 mph11.3 kmh 29.65 in1004.1 mb 0.00 in0.0 mm 0.00 in0.0 mm 0.23 in5.8 mm
06:01 AM 67.5°F19.7°C 64.5°F18.1°C 90% 1.0 mph SW1.6 kmh SW 7.0 mph11.3 kmh 29.65 in1004.1 mb 0.00 in0.0 mm 0.00 in0.0 mm 0.23 in5.8 mm
06:00 AM 67.5°F19.7°C 64.5°F18.1°C 90% 3.0 mph SW4.8 kmh SW 7.0 mph11.3 kmh 29.65 in1004.1 mb 0.00 in0.0 mm 0.00 in0.0 mm 0.23 in5.8 mm
05:59 AM 67.5°F19.7°C 64.5°F18.1°C 90% 1.0 mph SW1.6 kmh SW 7.0 mph11.3 kmh 29.65 in1004.1 mb 0.00 in0.0 mm 0.00 in0.0 mm 0.23 in5.8 mm
05:58 AM 67.5°F19.7°C 64.5°F18.1°C 90% 2.0 mph SW3.2 kmh SW 7.0 mph11.3 kmh 29.65 in1004.1 mb 0.00 in0.0 mm 0.00 in0.0 mm 0.23 in5.8 mm
05:57 AM 67.5°F19.7°C 64.5°F18.1°C 90% 1.0 mph WSW1.6 kmh WSW 7.0 mph11.3 kmh 29.65 in1004.1 mb 0.00 in0.0 mm 0.00 in0.0 mm 0.23 in5.8 mm
05:56 AM 67.4°F19.7°C 64.4°F18.0°C 90% 4.0 mph WSW6.4 kmh WSW 7.0 mph11.3 kmh 29.65 in1004.1 mb 0.00 in0.0 mm 0.00 in0.0 mm 0.23 in5.8 mm
05:55 AM 67.4°F19.7°C 64.4°F18.0°C 90% 4.0 mph SW6.4 kmh SW 7.0 mph11.3 kmh 29.65 in1004.1 mb 0.00 in0.0 mm 0.00 in0.0 mm 0.23 in5.8 mm
05:54 AM 67.4°F19.7°C 64.4°F18.0°C 90% 2.0 mph SW3.2 kmh SW 7.0 mph11.3 kmh 29.65 in1004.1 mb 0.00 in0.0 mm 0.00 in0.0 mm 0.23 in5.8 mm
05:53 AM 67.4°F19.7°C 64.4°F18.0°C 90% 2.0 mph SW3.2 kmh SW 7.0 mph11.3 kmh 29.65 in1004.1 mb 0.00 in0.0 mm 0.00 in0.0 mm 0.23 in5.8 mm
05:52 AM 67.4°F19.7°C 64.4°F18.0°C 90% 2.0 mph WSW3.2 kmh WSW 7.0 mph11.3 kmh 29.65 in1004.1 mb 0.00 in0.0 mm 0.00 in0.0 mm 0.23 in5.8 mm
05:51 AM 67.4°F19.7°C 64.4°F18.0°C 90% 2.0 mph SW3.2 kmh SW 7.0 mph11.3 kmh 29.64 in1003.7 mb 0.00 in0.0 mm 0.00 in0.0 mm 0.23 in5.8 mm
05:50 AM 67.4°F19.7°C 64.4°F18.0°C 90% 3.0 mph SW4.8 kmh SW 7.0 mph11.3 kmh 29.64 in1003.7 mb 0.00 in0.0 mm 0.00 in0.0 mm 0.23 in5.8 mm
05:49 AM 67.4°F19.7°C 64.4°F18.0°C 90% 5.0 mph SW8.0 kmh SW 5.0 mph8.0 kmh 29.64 in1003.7 mb 0.00 in0.0 mm 0.00 in0.0 mm 0.23 in5.8 mm
05:48 AM 67.4°F19.7°C 64.4°F18.0°C 90% 3.0 mph SW4.8 kmh SW 5.0 mph8.0 kmh 29.64 in1003.7 mb 0.00 in0.0 mm 0.00 in0.0 mm 0.23 in5.8 mm
05:47 AM 67.4°F19.7°C 64.4°F18.0°C 90% 4.0 mph SW6.4 kmh SW 5.0 mph8.0 kmh 29.65 in1004.1 mb 0.00 in0.0 mm 0.00 in0.0 mm 0.23 in5.8 mm
05:46 AM 67.3°F19.6°C 64.3°F17.9°C 90% 2.0 mph SSE3.2 kmh SSE 5.0 mph8.0 kmh 29.65 in1004.1 mb 0.00 in0.0 mm 0.00 in0.0 mm 0.23 in5.8 mm
05:45 AM 67.4°F19.7°C 64.4°F18.0°C 90% 2.0 mph SW3.2 kmh SW 5.0 mph8.0 kmh 29.65 in1004.1 mb 0.00 in0.0 mm 0.00 in0.0 mm 0.23 in5.8 mm
05:44 AM 67.3°F19.6°C 64.0°F17.8°C 89% 1.0 mph SW1.6 kmh SW 5.0 mph8.0 kmh 29.64 in1003.7 mb 0.00 in0.0 mm 0.00 in0.0 mm 0.23 in5.8 mm
05:43 AM 67.4°F19.7°C 64.1°F17.8°C 89% 3.0 mph SW4.8 kmh SW 5.0 mph8.0 kmh 29.65 in1004.1 mb 0.00 in0.0 mm 0.00 in0.0 mm 0.23 in5.8 mm
05:42 AM 67.4°F19.7°C 64.1°F17.8°C 89% 2.0 mph SW3.2 kmh SW 5.0 mph8.0 kmh 29.64 in1003.7 mb 0.00 in0.0 mm 0.00 in0.0 mm 0.23 in5.8 mm
05:41 AM 67.4°F19.7°C 64.1°F17.8°C 89% 2.0 mph SW3.2 kmh SW 5.0 mph8.0 kmh 29.65 in1004.1 mb 0.00 in0.0 mm 0.00 in0.0 mm 0.23 in5.8 mm
05:40 AM 67.4°F19.7°C 64.1°F17.8°C 89% 1.0 mph WNW1.6 kmh WNW 5.0 mph8.0 kmh 29.64 in1003.7 mb 0.00 in0.0 mm 0.00 in0.0 mm 0.23 in5.8 mm
05:39 AM 67.4°F19.7°C 64.1°F17.8°C 89% 2.0 mph SW3.2 kmh SW 5.0 mph8.0 kmh 29.64 in1003.7 mb 0.00 in0.0 mm 0.00 in0.0 mm 0.23 in5.8 mm
05:38 AM 67.4°F19.7°C 64.1°F17.8°C 89% 1.0 mph SW1.6 kmh SW 5.0 mph8.0 kmh 29.64 in1003.7 mb 0.00 in0.0 mm 0.00 in0.0 mm 0.23 in5.8 mm
05:37 AM 67.5°F19.7°C 64.2°F17.9°C 89% Calm Calm 5.0 mph8.0 kmh 29.64 in1003.7 mb 0.00 in0.0 mm 0.00 in0.0 mm 0.23 in5.8 mm
05:36 AM 67.5°F19.7°C 64.2°F17.9°C 89% 1.0 mph SW1.6 kmh SW 5.0 mph8.0 kmh 29.64 in1003.7 mb 0.00 in0.0 mm 0.00 in0.0 mm 0.23 in5.8 mm
05:35 AM 67.5°F19.7°C 64.2°F17.9°C 89% 5.0 mph WSW8.0 kmh WSW 5.0 mph8.0 kmh 29.64 in1003.7 mb 0.00 in0.0 mm 0.00 in0.0 mm 0.23 in5.8 mm
05:34 AM 67.6°F19.8°C 64.3°F17.9°C 89% 3.0 mph WSW4.8 kmh WSW 5.0 mph8.0 kmh 29.65 in1004.1 mb 0.00 in0.0 mm 0.00 in0.0 mm 0.23 in5.8 mm
05:33 AM 67.6°F19.8°C 64.3°F17.9°C 89% 1.0 mph SSW1.6 kmh SSW 5.0 mph8.0 kmh 29.65 in1004.1 mb 0.00 in0.0 mm 0.00 in0.0 mm 0.23 in5.8 mm
05:32 AM 67.7°F19.8°C 64.0°F17.8°C 88% Calm Calm 8.0 mph12.9 kmh 29.65 in1004.1 mb 0.00 in0.0 mm 0.00 in0.0 mm 0.23 in5.8 mm
05:31 AM 67.7°F19.8°C 64.0°F17.8°C 88% 1.0 mph SSW1.6 kmh SSW 8.0 mph12.9 kmh 29.64 in1003.7 mb 0.00 in0.0 mm 0.00 in0.0 mm 0.23 in5.8 mm
05:30 AM 67.7°F19.8°C 64.0°F17.8°C 88% Calm Calm 8.0 mph12.9 kmh 29.64 in1003.7 mb 0.00 in0.0 mm 0.00 in0.0 mm 0.23 in5.8 mm
05:29 AM 67.7°F19.8°C 64.0°F17.8°C 88% 2.0 mph SW3.2 kmh SW 8.0 mph12.9 kmh 29.64 in1003.7 mb 0.00 in0.0 mm 0.00 in0.0 mm 0.23 in5.8 mm
05:28 AM 67.8°F19.9°C 64.1°F17.8°C 88% Calm Calm 8.0 mph12.9 kmh 29.64 in1003.7 mb 0.00 in0.0 mm 0.00 in0.0 mm 0.23 in5.8 mm
05:27 AM 67.9°F19.9°C 64.2°F17.9°C 88% 1.0 mph SW1.6 kmh SW 8.0 mph12.9 kmh 29.64 in1003.7 mb 0.00 in0.0 mm 0.00 in0.0 mm 0.23 in5.8 mm
05:26 AM 67.9°F19.9°C 64.2°F17.9°C 88% Calm Calm 8.0 mph12.9 kmh 29.63 in1003.4 mb 0.00 in0.0 mm 0.00 in0.0 mm 0.23 in5.8 mm
05:25 AM 67.9°F19.9°C 64.2°F17.9°C 88% 1.0 mph SW1.6 kmh SW 8.0 mph12.9 kmh 29.63 in1003.4 mb 0.00 in0.0 mm 0.00 in0.0 mm 0.23 in5.8 mm
05:24 AM 67.9°F19.9°C 64.2°F17.9°C 88% 1.0 mph SW1.6 kmh SW 8.0 mph12.9 kmh 29.63 in1003.4 mb 0.00 in0.0 mm 0.00 in0.0 mm 0.23 in5.8 mm
05:23 AM 68.0°F20.0°C 64.3°F17.9°C 88% 1.0 mph SW1.6 kmh SW 8.0 mph12.9 kmh 29.63 in1003.4 mb 0.00 in0.0 mm 0.00 in0.0 mm 0.23 in5.8 mm
05:22 AM 68.0°F20.0°C 64.3°F17.9°C 88% 2.0 mph SW3.2 kmh SW 8.0 mph12.9 kmh 29.63 in1003.4 mb 0.00 in0.0 mm 0.00 in0.0 mm 0.23 in5.8 mm
05:21 AM 68.1°F20.1°C 64.4°F18.0°C 88% 3.0 mph SW4.8 kmh SW 8.0 mph12.9 kmh 29.63 in1003.4 mb 0.00 in0.0 mm 0.00 in0.0 mm 0.23 in5.8 mm
05:20 AM 68.1°F20.1°C 64.4°F18.0°C 88% 5.0 mph SW8.0 kmh SW 8.0 mph12.9 kmh 29.62 in1003.0 mb 0.00 in0.0 mm 0.00 in0.0 mm 0.23 in5.8 mm
05:19 AM 68.1°F20.1°C 64.4°F18.0°C 88% 3.0 mph SW4.8 kmh SW 8.0 mph12.9 kmh 29.62 in1003.0 mb 0.00 in0.0 mm 0.00 in0.0 mm 0.23 in5.8 mm
05:18 AM 68.2°F20.1°C 64.5°F18.1°C 88% 6.0 mph SW9.7 kmh SW 8.0 mph12.9 kmh 29.62 in1003.0 mb 0.00 in0.0 mm 0.00 in0.0 mm 0.23 in5.8 mm
05:17 AM 68.2°F20.1°C 64.5°F18.1°C 88% 3.0 mph SSW4.8 kmh SSW 8.0 mph12.9 kmh 29.62 in1003.0 mb 0.00 in0.0 mm 0.00 in0.0 mm 0.23 in5.8 mm
05:16 AM 68.3°F20.2°C 64.6°F18.1°C 88% 5.0 mph SSW8.0 kmh SSW 7.0 mph11.3 kmh 29.62 in1003.0 mb 0.00 in0.0 mm 0.00 in0.0 mm 0.23 in5.8 mm
05:15 AM 68.4°F20.2°C 64.7°F18.2°C 88% 5.0 mph SW8.0 kmh SW 7.0 mph11.3 kmh 29.62 in1003.0 mb 0.00 in0.0 mm 0.00 in0.0 mm 0.23 in5.8 mm
05:14 AM 68.4°F20.2°C 64.4°F18.0°C 87% 4.0 mph SW6.4 kmh SW 7.0 mph11.3 kmh 29.62 in1003.0 mb 0.00 in0.0 mm 0.00 in0.0 mm 0.23 in5.8 mm
05:13 AM 68.4°F20.2°C 64.4°F18.0°C 87% 3.0 mph SW4.8 kmh SW 7.0 mph11.3 kmh 29.62 in1003.0 mb 0.00 in0.0 mm 0.00 in0.0 mm 0.23 in5.8 mm
05:12 AM 68.5°F20.3°C 64.5°F18.1°C 87% 3.0 mph SW4.8 kmh SW 7.0 mph11.3 kmh 29.62 in1003.0 mb 0.00 in0.0 mm 0.00 in0.0 mm 0.23 in5.8 mm
05:11 AM 68.5°F20.3°C 64.5°F18.1°C 87% 4.0 mph SW6.4 kmh SW 7.0 mph11.3 kmh 29.62 in1003.0 mb 0.00 in0.0 mm 0.00 in0.0 mm 0.23 in5.8 mm
05:10 AM 68.5°F20.3°C 64.5°F18.1°C 87% 3.0 mph SSW4.8 kmh SSW 7.0 mph11.3 kmh 29.62 in1003.0 mb 0.00 in0.0 mm 0.00 in0.0 mm 0.23 in5.8 mm
05:09 AM 68.6°F20.3°C 64.6°F18.1°C 87% 3.0 mph SW4.8 kmh SW 7.0 mph11.3 kmh 29.62 in1003.0 mb 0.00 in0.0 mm 0.00 in0.0 mm 0.23 in5.8 mm
05:08 AM 68.6°F20.3°C 64.6°F18.1°C 87% 5.0 mph S8.0 kmh S 7.0 mph11.3 kmh 29.62 in1003.0 mb 0.00 in0.0 mm 0.00 in0.0 mm 0.23 in5.8 mm
05:07 AM 68.6°F20.3°C 64.6°F18.1°C 87% 5.0 mph SW8.0 kmh SW 7.0 mph11.3 kmh 29.62 in1003.0 mb 0.00 in0.0 mm 0.00 in0.0 mm 0.23 in5.8 mm
05:06 AM 68.7°F20.4°C 64.7°F18.2°C 87% 4.0 mph SSW6.4 kmh SSW 7.0 mph11.3 kmh 29.62 in1003.0 mb 0.00 in0.0 mm 0.00 in0.0 mm 0.23 in5.8 mm
05:05 AM 68.7°F20.4°C 64.7°F18.2°C 87% 6.0 mph SW9.7 kmh SW 7.0 mph11.3 kmh 29.62 in1003.0 mb 0.00 in0.0 mm 0.00 in0.0 mm 0.23 in5.8 mm
05:04 AM 68.8°F20.4°C 64.8°F18.2°C 87% 4.0 mph SW6.4 kmh SW 7.0 mph11.3 kmh 29.62 in1003.0 mb 0.00 in0.0 mm 0.00 in0.0 mm 0.23 in5.8 mm
05:03 AM 68.8°F20.4°C 64.8°F18.2°C 87% 3.0 mph SW4.8 kmh SW 5.0 mph8.0 kmh 29.62 in1003.0 mb 0.00 in0.0 mm 0.00 in0.0 mm 0.23 in5.8 mm
05:02 AM 68.8°F20.4°C 64.8°F18.2°C 87% 3.0 mph SW4.8 kmh SW 13.0 mph20.9 kmh 29.62 in1003.0 mb 0.00 in0.0 mm 0.00 in0.0 mm 0.23 in5.8 mm
05:01 AM 68.9°F20.5°C 64.9°F18.3°C 87% 4.0 mph SSW6.4 kmh SSW 13.0 mph20.9 kmh 29.62 in1003.0 mb 0.00 in0.0 mm 0.00 in0.0 mm 0.23 in5.8 mm
05:00 AM 68.9°F20.5°C 64.9°F18.3°C 87% 3.0 mph SW4.8 kmh SW 13.0 mph20.9 kmh 29.62 in1003.0 mb 0.00 in0.0 mm 0.00 in0.0 mm 0.23 in5.8 mm
04:59 AM 68.9°F20.5°C 64.9°F18.3°C 87% 4.0 mph SW6.4 kmh SW 13.0 mph20.9 kmh 29.62 in1003.0 mb 0.00 in0.0 mm 0.00 in0.0 mm 0.23 in5.8 mm
04:58 AM 68.9°F20.5°C 64.9°F18.3°C 87% 4.0 mph SW6.4 kmh SW 13.0 mph20.9 kmh 29.62 in1003.0 mb 0.00 in0.0 mm 0.00 in0.0 mm 0.23 in5.8 mm
04:57 AM 69.0°F20.6°C 64.6°F18.1°C 86% 2.0 mph SW3.2 kmh SW 13.0 mph20.9 kmh 29.62 in1003.0 mb 0.00 in0.0 mm 0.00 in0.0 mm 0.23 in5.8 mm
04:56 AM 69.0°F20.6°C 64.6°F18.1°C 86% 4.0 mph S6.4 kmh S 13.0 mph20.9 kmh 29.62 in1003.0 mb 0.00 in0.0 mm 0.00 in0.0 mm 0.23 in5.8 mm
04:55 AM 69.0°F20.6°C 64.6°F18.1°C 86% 5.0 mph SW8.0 kmh SW 13.0 mph20.9 kmh 29.62 in1003.0 mb 0.00 in0.0 mm 0.00 in0.0 mm 0.23 in5.8 mm
04:54 AM 69.0°F20.6°C 64.6°F18.1°C 86% 7.0 mph SSW11.3 kmh SSW 13.0 mph20.9 kmh 29.62 in1003.0 mb 0.00 in0.0 mm 0.00 in0.0 mm 0.23 in5.8 mm
04:53 AM 69.1°F20.6°C 64.7°F18.2°C 86% 5.0 mph SW8.0 kmh SW 13.0 mph20.9 kmh 29.62 in1003.0 mb 0.00 in0.0 mm 0.00 in0.0 mm 0.23 in5.8 mm
04:52 AM 69.1°F20.6°C 64.7°F18.2°C 86% 7.0 mph SW11.3 kmh SW 13.0 mph20.9 kmh 29.62 in1003.0 mb 0.00 in0.0 mm 0.00 in0.0 mm 0.23 in5.8 mm
04:51 AM 69.1°F20.6°C 64.7°F18.2°C 86% 6.0 mph SW9.7 kmh SW 13.0 mph20.9 kmh 29.63 in1003.4 mb 0.00 in0.0 mm 0.00 in0.0 mm 0.23 in5.8 mm
04:50 AM 69.1°F20.6°C 64.7°F18.2°C 86% 5.0 mph SSW8.0 kmh SSW 13.0 mph20.9 kmh 29.63 in1003.4 mb 0.00 in0.0 mm 0.00 in0.0 mm 0.23 in5.8 mm
04:49 AM 69.1°F20.6°C 64.7°F18.2°C 86% 8.0 mph S12.9 kmh S 13.0 mph20.9 kmh 29.63 in1003.4 mb 0.00 in0.0 mm 0.00 in0.0 mm 0.23 in5.8 mm
04:48 AM 69.2°F20.7°C 64.8°F18.2°C 86% 8.0 mph SSW12.9 kmh SSW 13.0 mph20.9 kmh 29.63 in1003.4 mb 0.00 in0.0 mm 0.00 in0.0 mm 0.23 in5.8 mm
04:47 AM 69.2°F20.7°C 64.8°F18.2°C 86% 7.0 mph SSW11.3 kmh SSW 13.0 mph20.9 kmh 29.62 in1003.0 mb 0.00 in0.0 mm 0.00 in0.0 mm 0.23 in5.8 mm
04:46 AM 69.2°F20.7°C 64.8°F18.2°C 86% 8.0 mph SW12.9 kmh SW 13.0 mph20.9 kmh 29.63 in1003.4 mb 0.00 in0.0 mm 0.00 in0.0 mm 0.23 in5.8 mm
04:45 AM 69.2°F20.7°C 64.8°F18.2°C 86% 7.0 mph SSW11.3 kmh SSW 13.0 mph20.9 kmh 29.63 in1003.4 mb 0.00 in0.0 mm 0.00 in0.0 mm 0.23 in5.8 mm
04:44 AM 69.2°F20.7°C 64.8°F18.2°C 86% 7.0 mph SW11.3 kmh SW 13.0 mph20.9 kmh 29.63 in1003.4 mb 0.00 in0.0 mm 0.00 in0.0 mm 0.23 in5.8 mm
04:43 AM 69.2°F20.7°C 64.8°F18.2°C 86% 7.0 mph SW11.3 kmh SW 13.0 mph20.9 kmh 29.63 in1003.4 mb 0.00 in0.0 mm 0.00 in0.0 mm 0.23 in5.8 mm
04:42 AM 69.2°F20.7°C 64.8°F18.2°C 86% 8.0 mph SSW12.9 kmh SSW 13.0 mph20.9 kmh 29.63 in1003.4 mb 0.00 in0.0 mm 0.00 in0.0 mm 0.23 in5.8 mm
04:41 AM 69.2°F20.7°C 64.8°F18.2°C 86% 9.0 mph SW14.5 kmh SW 13.0 mph20.9 kmh 29.63 in1003.4 mb 0.00 in0.0 mm 0.00 in0.0 mm 0.23 in5.8 mm
04:40 AM 69.2°F20.7°C 64.8°F18.2°C 86% 7.0 mph SSW11.3 kmh SSW 13.0 mph20.9 kmh 29.63 in1003.4 mb 0.00 in0.0 mm 0.00 in0.0 mm 0.23 in5.8 mm
04:39 AM 69.2°F20.7°C 64.8°F18.2°C 86% 9.0 mph S14.5 kmh S 13.0 mph20.9 kmh 29.63 in1003.4 mb 0.00 in0.0 mm 0.00 in0.0 mm 0.23 in5.8 mm
04:38 AM 69.2°F20.7°C 64.8°F18.2°C 86% 9.0 mph SW14.5 kmh SW 13.0 mph20.9 kmh 29.63 in1003.4 mb 0.00 in0.0 mm 0.00 in0.0 mm 0.23 in5.8 mm
04:37 AM 69.2°F20.7°C 64.8°F18.2°C 86% 8.0 mph S12.9 kmh S 11.0 mph17.7 kmh 29.63 in1003.4 mb 0.00 in0.0 mm 0.00 in0.0 mm 0.23 in5.8 mm
04:36 AM 69.2°F20.7°C 64.8°F18.2°C 86% 9.0 mph SW14.5 kmh SW 11.0 mph17.7 kmh 29.63 in1003.4 mb 0.00 in0.0 mm 0.00 in0.0 mm 0.23 in5.8 mm
04:35 AM 69.2°F20.7°C 65.2°F18.4°C 87% 8.0 mph SSW12.9 kmh SSW 11.0 mph17.7 kmh 29.64 in1003.7 mb 0.00 in0.0 mm 0.00 in0.0 mm 0.23 in5.8 mm
04:34 AM 69.2°F20.7°C 65.2°F18.4°C 87% 8.0 mph SSW12.9 kmh SSW 10.0 mph16.1 kmh 29.64 in1003.7 mb 0.00 in0.0 mm 0.00 in0.0 mm 0.23 in5.8 mm
04:33 AM 69.2°F20.7°C 65.2°F18.4°C 87% 7.0 mph S11.3 kmh S 10.0 mph16.1 kmh 29.64 in1003.7 mb 0.00 in0.0 mm 0.00 in0.0 mm 0.23 in5.8 mm
04:32 AM 69.2°F20.7°C 65.2°F18.4°C 87% 7.0 mph SW11.3 kmh SW 11.0 mph17.7 kmh 29.64 in1003.7 mb 0.00 in0.0 mm 0.00 in0.0 mm 0.23 in5.8 mm
04:31 AM 69.2°F20.7°C 65.2°F18.4°C 87% 5.0 mph SW8.0 kmh SW 11.0 mph17.7 kmh 29.65 in1004.1 mb 0.00 in0.0 mm 0.00 in0.0 mm 0.23 in5.8 mm
04:30 AM 69.2°F20.7°C 65.2°F18.4°C 87% 6.0 mph S9.7 kmh S 11.0 mph17.7 kmh 29.65 in1004.1 mb 0.00 in0.0 mm 0.00 in0.0 mm 0.23 in5.8 mm
04:29 AM 69.2°F20.7°C 65.2°F18.4°C 87% 7.0 mph SW11.3 kmh SW 11.0 mph17.7 kmh 29.65 in1004.1 mb 0.00 in0.0 mm 0.00 in0.0 mm 0.23 in5.8 mm
04:28 AM 69.2°F20.7°C 65.2°F18.4°C 87% 4.0 mph SW6.4 kmh SW 9.0 mph14.5 kmh 29.65 in1004.1 mb 0.00 in0.0 mm 0.00 in0.0 mm 0.23 in5.8 mm
04:27 AM 69.2°F20.7°C 65.2°F18.4°C 87% 3.0 mph SW4.8 kmh SW 9.0 mph14.5 kmh 29.65 in1004.1 mb 0.00 in0.0 mm 0.00 in0.0 mm 0.23 in5.8 mm
04:26 AM 69.2°F20.7°C 65.2°F18.4°C 87% 4.0 mph SW6.4 kmh SW 9.0 mph14.5 kmh 29.65 in1004.1 mb 0.00 in0.0 mm 0.00 in0.0 mm 0.23 in5.8 mm
04:25 AM 69.2°F20.7°C 65.2°F18.4°C 87% 6.0 mph SW9.7 kmh SW 9.0 mph14.5 kmh 29.65 in1004.1 mb 0.00 in0.0 mm 0.00 in0.0 mm 0.23 in5.8 mm
04:24 AM 69.2°F20.7°C 65.2°F18.4°C 87% 4.0 mph SW6.4 kmh SW 9.0 mph14.5 kmh 29.65 in1004.1 mb 0.00 in0.0 mm 0.00 in0.0 mm 0.23 in5.8 mm
04:23 AM 69.2°F20.7°C 65.2°F18.4°C 87% 7.0 mph SW11.3 kmh SW 9.0 mph14.5 kmh 29.65 in1004.1 mb 0.00 in0.0 mm 0.00 in0.0 mm 0.23 in5.8 mm
04:22 AM 69.2°F20.7°C 65.2°F18.4°C 87% 4.0 mph SW6.4 kmh SW 9.0 mph14.5 kmh 29.65 in1004.1 mb 0.00 in0.0 mm 0.00 in0.0 mm 0.23 in5.8 mm
04:21 AM 69.2°F20.7°C 65.2°F18.4°C 87% 5.0 mph SW8.0 kmh SW 9.0 mph14.5 kmh 29.65 in1004.1 mb 0.00 in0.0 mm 0.00 in0.0 mm 0.23 in5.8 mm
04:20 AM 69.2°F20.7°C 65.2°F18.4°C 87% 6.0 mph SW9.7 kmh SW 9.0 mph14.5 kmh 29.65 in1004.1 mb 0.00 in0.0 mm 0.00 in0.0 mm 0.23 in5.8 mm
04:19 AM 69.2°F20.7°C 65.2°F18.4°C 87% 7.0 mph SW11.3 kmh SW 9.0 mph14.5 kmh 29.65 in1004.1 mb 0.00 in0.0 mm 0.00 in0.0 mm 0.23 in5.8 mm
04:18 AM 69.2°F20.7°C 65.2°F18.4°C 87% 5.0 mph SW8.0 kmh SW 9.0 mph14.5 kmh 29.66 in1004.4 mb 0.00 in0.0 mm 0.00 in0.0 mm 0.23 in5.8 mm
04:17 AM 69.2°F20.7°C 65.2°F18.4°C 87% 7.0 mph SW11.3 kmh SW 9.0 mph14.5 kmh 29.66 in1004.4 mb 0.00 in0.0 mm 0.00 in0.0 mm 0.23 in5.8 mm
04:16 AM 69.2°F20.7°C 65.5°F18.6°C 88% 9.0 mph SW14.5 kmh SW 9.0 mph14.5 kmh 29.66 in1004.4 mb 0.00 in0.0 mm 0.00 in0.0 mm 0.23 in5.8 mm
04:15 AM 69.1°F20.6°C 65.4°F18.6°C 88% 5.0 mph SW8.0 kmh SW 8.0 mph12.9 kmh 29.66 in1004.4 mb 0.00 in0.0 mm 0.00 in0.0 mm 0.23 in5.8 mm
04:14 AM 69.1°F20.6°C 65.4°F18.6°C 88% 5.0 mph SSW8.0 kmh SSW 8.0 mph12.9 kmh 29.66 in1004.4 mb 0.00 in0.0 mm 0.00 in0.0 mm 0.23 in5.8 mm
04:13 AM 69.1°F20.6°C 65.4°F18.6°C 88% 6.0 mph SW9.7 kmh SW 8.0 mph12.9 kmh 29.66 in1004.4 mb 0.00 in0.0 mm 0.00 in0.0 mm 0.23 in5.8 mm
04:12 AM 69.1°F20.6°C 65.4°F18.6°C 88% 3.0 mph SW4.8 kmh SW 8.0 mph12.9 kmh 29.66 in1004.4 mb 0.00 in0.0 mm 0.00 in0.0 mm 0.23 in5.8 mm
04:11 AM 69.1°F20.6°C 65.4°F18.6°C 88% 4.0 mph SW6.4 kmh SW 8.0 mph12.9 kmh 29.66 in1004.4 mb 0.00 in0.0 mm 0.00 in0.0 mm 0.23 in5.8 mm
04:10 AM 69.1°F20.6°C 65.4°F18.6°C 88% 4.0 mph SW6.4 kmh SW 8.0 mph12.9 kmh 29.66 in1004.4 mb 0.00 in0.0 mm 0.00 in0.0 mm 0.23 in5.8 mm
04:09 AM 69.1°F20.6°C 65.4°F18.6°C 88% 5.0 mph SW8.0 kmh SW 8.0 mph12.9 kmh 29.66 in1004.4 mb 0.00 in0.0 mm 0.00 in0.0 mm 0.23 in5.8 mm
04:08 AM 69.1°F20.6°C 65.4°F18.6°C 88% 3.0 mph SW4.8 kmh SW 8.0 mph12.9 kmh 29.66 in1004.4 mb 0.00 in0.0 mm 0.00 in0.0 mm 0.23 in5.8 mm
04:07 AM 69.1°F20.6°C 65.4°F18.6°C 88% 3.0 mph SW4.8 kmh SW 8.0 mph12.9 kmh 29.66 in1004.4 mb 0.00 in0.0 mm 0.00 in0.0 mm 0.23 in5.8 mm
04:06 AM 69.1°F20.6°C 65.4°F18.6°C 88% 5.0 mph SW8.0 kmh SW 8.0 mph12.9 kmh 29.66 in1004.4 mb 0.00 in0.0 mm 0.00 in0.0 mm 0.23 in5.8 mm
04:05 AM 69.1°F20.6°C 65.4°F18.6°C 88% 6.0 mph SSW9.7 kmh SSW 8.0 mph12.9 kmh 29.67 in1004.7 mb 0.00 in0.0 mm 0.00 in0.0 mm 0.23 in5.8 mm
04:04 AM 69.1°F20.6°C 65.4°F18.6°C 88% 6.0 mph SW9.7 kmh SW 8.0 mph12.9 kmh 29.67 in1004.7 mb 0.00 in0.0 mm 0.00 in0.0 mm 0.23 in5.8 mm
04:03 AM 69.1°F20.6°C 65.4°F18.6°C 88% 4.0 mph SW6.4 kmh SW 6.0 mph9.7 kmh 29.66 in1004.4 mb 0.00 in0.0 mm 0.00 in0.0 mm 0.23 in5.8 mm
04:02 AM 69.1°F20.6°C 65.4°F18.6°C 88% 5.0 mph SW8.0 kmh SW 8.0 mph12.9 kmh 29.67 in1004.7 mb 0.00 in0.0 mm 0.00 in0.0 mm 0.23 in5.8 mm
04:01 AM 69.1°F20.6°C 65.4°F18.6°C 88% 3.0 mph SSW4.8 kmh SSW 8.0 mph12.9 kmh 29.66 in1004.4 mb 0.00 in0.0 mm 0.00 in0.0 mm 0.23 in5.8 mm
04:00 AM 69.1°F20.6°C 65.4°F18.6°C 88% 5.0 mph WSW8.0 kmh WSW 8.0 mph12.9 kmh 29.67 in1004.7 mb 0.00 in0.0 mm 0.00 in0.0 mm 0.23 in5.8 mm
03:59 AM 69.1°F20.6°C 65.4°F18.6°C 88% 2.0 mph SW3.2 kmh SW 8.0 mph12.9 kmh 29.67 in1004.7 mb 0.00 in0.0 mm 0.00 in0.0 mm 0.23 in5.8 mm
03:58 AM 69.1°F20.6°C 65.4°F18.6°C 88% 4.0 mph SW6.4 kmh SW 8.0 mph12.9 kmh 29.67 in1004.7 mb 0.00 in0.0 mm 0.00 in0.0 mm 0.23 in5.8 mm
03:57 AM 69.1°F20.6°C 65.4°F18.6°C 88% 4.0 mph SW6.4 kmh SW 8.0 mph12.9 kmh 29.67 in1004.7 mb 0.00 in0.0 mm 0.00 in0.0 mm 0.23 in5.8 mm
03:56 AM 69.1°F20.6°C 65.4°F18.6°C 88% 5.0 mph SW8.0 kmh SW 8.0 mph12.9 kmh 29.67 in1004.7 mb 0.00 in0.0 mm 0.00 in0.0 mm 0.23 in5.8 mm
03:55 AM 69.1°F20.6°C 65.4°F18.6°C 88% 6.0 mph SW9.7 kmh SW 8.0 mph12.9 kmh 29.67 in1004.7 mb 0.00 in0.0 mm 0.00 in0.0 mm 0.23 in5.8 mm
03:54 AM 69.1°F20.6°C 65.4°F18.6°C 88% 5.0 mph SW8.0 kmh SW 8.0 mph12.9 kmh 29.67 in1004.7 mb 0.00 in0.0 mm 0.00 in0.0 mm 0.23 in5.8 mm
03:53 AM 69.1°F20.6°C 65.4°F18.6°C 88% 4.0 mph SW6.4 kmh SW 8.0 mph12.9 kmh 29.67 in1004.7 mb 0.00 in0.0 mm 0.00 in0.0 mm 0.23 in5.8 mm
03:52 AM 69.1°F20.6°C 65.4°F18.6°C 88% 3.0 mph WSW4.8 kmh WSW 8.0 mph12.9 kmh 29.67 in1004.7 mb 0.00 in0.0 mm 0.00 in0.0 mm 0.23 in5.8 mm
03:51 AM 69.2°F20.7°C 65.5°F18.6°C 88% 4.0 mph SW6.4 kmh SW 8.0 mph12.9 kmh 29.67 in1004.7 mb 0.00 in0.0 mm 0.00 in0.0 mm 0.23 in5.8 mm
03:50 AM 69.2°F20.7°C 65.5°F18.6°C 88% 6.0 mph SW9.7 kmh SW 8.0 mph12.9 kmh 29.67 in1004.7 mb 0.00 in0.0 mm 0.00 in0.0 mm 0.23 in5.8 mm
03:49 AM 69.2°F20.7°C 65.5°F18.6°C 88% 4.0 mph SW6.4 kmh SW 8.0 mph12.9 kmh 29.67 in1004.7 mb 0.00 in0.0 mm 0.00 in0.0 mm 0.23 in5.8 mm
03:48 AM 69.2°F20.7°C 65.5°F18.6°C 88% 4.0 mph SW6.4 kmh SW 8.0 mph12.9 kmh 29.67 in1004.7 mb 0.00 in0.0 mm 0.00 in0.0 mm 0.23 in5.8 mm
03:47 AM 69.2°F20.7°C 65.5°F18.6°C 88% 3.0 mph SW4.8 kmh SW 8.0 mph12.9 kmh 29.67 in1004.7 mb 0.00 in0.0 mm 0.00 in0.0 mm 0.23 in5.8 mm
03:46 AM 69.2°F20.7°C 65.5°F18.6°C 88% 3.0 mph SW4.8 kmh SW 8.0 mph12.9 kmh 29.67 in1004.7 mb 0.00 in0.0 mm 0.00 in0.0 mm 0.23 in5.8 mm
03:45 AM 69.2°F20.7°C 65.5°F18.6°C 88% 3.0 mph SW4.8 kmh SW 8.0 mph12.9 kmh 29.67 in1004.7 mb 0.00 in0.0 mm 0.00 in0.0 mm 0.23 in5.8 mm
03:44 AM 69.2°F20.7°C 65.5°F18.6°C 88% 4.0 mph SSW6.4 kmh SSW 8.0 mph12.9 kmh 29.67 in1004.7 mb 0.00 in0.0 mm 0.00 in0.0 mm 0.23 in5.8 mm
03:43 AM 69.3°F20.7°C 65.6°F18.7°C 88% 4.0 mph SW6.4 kmh SW 8.0 mph12.9 kmh 29.67 in1004.7 mb 0.00 in0.0 mm 0.00 in0.0 mm 0.23 in5.8 mm
03:42 AM 69.3°F20.7°C 65.9°F18.8°C 89% 4.0 mph SW6.4 kmh SW 8.0 mph12.9 kmh 29.67 in1004.7 mb 0.00 in0.0 mm 0.00 in0.0 mm 0.23 in5.8 mm
03:41 AM 69.3°F20.7°C 65.9°F18.8°C 89% 1.0 mph WSW1.6 kmh WSW 8.0 mph12.9 kmh 29.67 in1004.7 mb 0.00 in0.0 mm 0.00 in0.0 mm 0.23 in5.8 mm
03:40 AM 69.3°F20.7°C 65.9°F18.8°C 89% 2.0 mph SW3.2 kmh SW 8.0 mph12.9 kmh 29.67 in1004.7 mb 0.00 in0.0 mm 0.00 in0.0 mm 0.23 in5.8 mm
03:39 AM 69.3°F20.7°C 65.9°F18.8°C 89% 3.0 mph WSW4.8 kmh WSW 8.0 mph12.9 kmh 29.67 in1004.7 mb 0.00 in0.0 mm 0.00 in0.0 mm 0.23 in5.8 mm
03:38 AM 69.3°F20.7°C 65.9°F18.8°C 89% 5.0 mph SW8.0 kmh SW 8.0 mph12.9 kmh 29.67 in1004.7 mb 0.00 in0.0 mm 0.00 in0.0 mm 0.23 in5.8 mm
03:37 AM 69.3°F20.7°C 65.9°F18.8°C 89% 4.0 mph SW6.4 kmh SW 8.0 mph12.9 kmh 29.67 in1004.7 mb 0.00 in0.0 mm 0.00 in0.0 mm 0.23 in5.8 mm
03:36 AM 69.3°F20.7°C 65.9°F18.8°C 89% 2.0 mph SW3.2 kmh SW 8.0 mph12.9 kmh 29.67 in1004.7 mb 0.00 in0.0 mm 0.00 in0.0 mm 0.23 in5.8 mm
03:35 AM 69.3°F20.7°C 65.9°F18.8°C 89% 6.0 mph SW9.7 kmh SW 8.0 mph12.9 kmh 29.67 in1004.7 mb 0.00 in0.0 mm 0.00 in0.0 mm 0.23 in5.8 mm
03:34 AM 69.3°F20.7°C 65.9°F18.8°C 89% 2.0 mph SW3.2 kmh SW 8.0 mph12.9 kmh 29.67 in1004.7 mb 0.00 in0.0 mm 0.00 in0.0 mm 0.23 in5.8 mm
03:33 AM 69.3°F20.7°C 65.9°F18.8°C 89% 7.0 mph S11.3 kmh S 7.0 mph11.3 kmh 29.67 in1004.7 mb 0.00 in0.0 mm 0.00 in0.0 mm 0.23 in5.8 mm
03:32 AM 69.3°F20.7°C 65.9°F18.8°C 89% 4.0 mph SW6.4 kmh SW 11.0 mph17.7 kmh 29.67 in1004.7 mb 0.00 in0.0 mm 0.00 in0.0 mm 0.23 in5.8 mm
03:31 AM 69.3°F20.7°C 65.9°F18.8°C 89% 6.0 mph SW9.7 kmh SW 11.0 mph17.7 kmh 29.67 in1004.7 mb 0.00 in0.0 mm 0.00 in0.0 mm 0.23 in5.8 mm
03:30 AM 69.3°F20.7°C 65.9°F18.8°C 89% 7.0 mph SSW11.3 kmh SSW 11.0 mph17.7 kmh 29.67 in1004.7 mb 0.00 in0.0 mm 0.00 in0.0 mm 0.23 in5.8 mm
03:29 AM 69.2°F20.7°C 65.8°F18.8°C 89% 7.0 mph SSW11.3 kmh SSW 11.0 mph17.7 kmh 29.67 in1004.7 mb 0.00 in0.0 mm 0.00 in0.0 mm 0.23 in5.8 mm
03:28 AM 69.2°F20.7°C 65.8°F18.8°C 89% 5.0 mph SSW8.0 kmh SSW 11.0 mph17.7 kmh 29.67 in1004.7 mb 0.00 in0.0 mm 0.00 in0.0 mm 0.23 in5.8 mm
03:27 AM 69.2°F20.7°C 65.8°F18.8°C 89% 5.0 mph SSW8.0 kmh SSW 11.0 mph17.7 kmh 29.67 in1004.7 mb 0.00 in0.0 mm 0.00 in0.0 mm 0.23 in5.8 mm
03:26 AM 69.2°F20.7°C 66.2°F19.0°C 90% 4.0 mph SW6.4 kmh SW 11.0 mph17.7 kmh 29.67 in1004.7 mb 0.00 in0.0 mm 0.00 in0.0 mm 0.23 in5.8 mm
03:25 AM 69.2°F20.7°C 66.2°F19.0°C 90% 4.0 mph SW6.4 kmh SW 11.0 mph17.7 kmh 29.67 in1004.7 mb 0.00 in0.0 mm 0.00 in0.0 mm 0.23 in5.8 mm
03:24 AM 69.2°F20.7°C 66.2°F19.0°C 90% 4.0 mph SW6.4 kmh SW 11.0 mph17.7 kmh 29.67 in1004.7 mb 0.00 in0.0 mm 0.00 in0.0 mm 0.23 in5.8 mm
03:23 AM 69.2°F20.7°C 66.2°F19.0°C 90% 3.0 mph SW4.8 kmh SW 11.0 mph17.7 kmh 29.68 in1005.1 mb 0.00 in0.0 mm 0.00 in0.0 mm 0.23 in5.8 mm
03:22 AM 69.2°F20.7°C 66.2°F19.0°C 90% 6.0 mph SSW9.7 kmh SSW 11.0 mph17.7 kmh 29.68 in1005.1 mb 0.00 in0.0 mm 0.00 in0.0 mm 0.23 in5.8 mm
03:21 AM 69.2°F20.7°C 66.2°F19.0°C 90% 5.0 mph SW8.0 kmh SW 11.0 mph17.7 kmh 29.68 in1005.1 mb 0.00 in0.0 mm 0.00 in0.0 mm 0.23 in5.8 mm
03:20 AM 69.2°F20.7°C 66.2°F19.0°C 90% 5.0 mph SW8.0 kmh SW 11.0 mph17.7 kmh 29.68 in1005.1 mb 0.00 in0.0 mm 0.00 in0.0 mm 0.23 in5.8 mm
03:19 AM 69.2°F20.7°C 66.2°F19.0°C 90% 7.0 mph SSW11.3 kmh SSW 11.0 mph17.7 kmh 29.68 in1005.1 mb 0.00 in0.0 mm 0.00 in0.0 mm 0.23 in5.8 mm
03:18 AM 69.1°F20.6°C 66.1°F18.9°C 90% 5.0 mph SW8.0 kmh SW 11.0 mph17.7 kmh 29.68 in1005.1 mb 0.00 in0.0 mm 0.00 in0.0 mm 0.23 in5.8 mm
03:17 AM 69.2°F20.7°C 66.2°F19.0°C 90% 7.0 mph SW11.3 kmh SW 11.0 mph17.7 kmh 29.68 in1005.1 mb 0.00 in0.0 mm 0.00 in0.0 mm 0.23 in5.8 mm
03:16 AM 69.1°F20.6°C 66.1°F18.9°C 90% 4.0 mph SW6.4 kmh SW 11.0 mph17.7 kmh 29.68 in1005.1 mb 0.00 in0.0 mm 0.00 in0.0 mm 0.23 in5.8 mm
03:15 AM 69.1°F20.6°C 66.1°F18.9°C 90% 5.0 mph SW8.0 kmh SW 11.0 mph17.7 kmh 29.68 in1005.1 mb 0.00 in0.0 mm 0.00 in0.0 mm 0.23 in5.8 mm
03:14 AM 69.1°F20.6°C 66.4°F19.1°C 91% 4.0 mph SW6.4 kmh SW 11.0 mph17.7 kmh 29.68 in1005.1 mb 0.00 in0.0 mm 0.00 in0.0 mm 0.23 in5.8 mm
03:13 AM 69.1°F20.6°C 66.4°F19.1°C 91% 6.0 mph SW9.7 kmh SW 10.0 mph16.1 kmh 29.68 in1005.1 mb 0.00 in0.0 mm 0.00 in0.0 mm 0.23 in5.8 mm
03:12 AM 69.1°F20.6°C 66.4°F19.1°C 91% 5.0 mph S8.0 kmh S 10.0 mph16.1 kmh 29.68 in1005.1 mb 0.00 in0.0 mm 0.00 in0.0 mm 0.23 in5.8 mm
03:11 AM 69.1°F20.6°C 66.4°F19.1°C 91% 2.0 mph SW3.2 kmh SW 10.0 mph16.1 kmh 29.69 in1005.4 mb 0.00 in0.0 mm 0.00 in0.0 mm 0.23 in5.8 mm
03:10 AM 69.0°F20.6°C 66.3°F19.1°C 91% 5.0 mph SW8.0 kmh SW 10.0 mph16.1 kmh 29.68 in1005.1 mb 0.00 in0.0 mm 0.00 in0.0 mm 0.23 in5.8 mm
03:09 AM 69.0°F20.6°C 66.3°F19.1°C 91% 9.0 mph SW14.5 kmh SW 9.0 mph14.5 kmh 29.68 in1005.1 mb 0.00 in0.0 mm 0.00 in0.0 mm 0.23 in5.8 mm
03:08 AM 69.0°F20.6°C 66.3°F19.1°C 91% 5.0 mph SW8.0 kmh SW 9.0 mph14.5 kmh 29.69 in1005.4 mb 0.00 in0.0 mm 0.00 in0.0 mm 0.23 in5.8 mm
03:07 AM 69.0°F20.6°C 66.3°F19.1°C 91% 4.0 mph SW6.4 kmh SW 9.0 mph14.5 kmh 29.69 in1005.4 mb 0.00 in0.0 mm 0.00 in0.0 mm 0.23 in5.8 mm
03:06 AM 69.0°F20.6°C 66.3°F19.1°C 91% 3.0 mph SW4.8 kmh SW 9.0 mph14.5 kmh 29.69 in1005.4 mb 0.00 in0.0 mm 0.00 in0.0 mm 0.23 in5.8 mm
03:05 AM 69.0°F20.6°C 66.3°F19.1°C 91% 5.0 mph SSW8.0 kmh SSW 9.0 mph14.5 kmh 29.69 in1005.4 mb 0.00 in0.0 mm 0.00 in0.0 mm 0.23 in5.8 mm
03:04 AM 69.0°F20.6°C 66.3°F19.1°C 91% 5.0 mph SW8.0 kmh SW 7.0 mph11.3 kmh 29.69 in1005.4 mb 0.00 in0.0 mm 0.00 in0.0 mm 0.23 in5.8 mm
03:03 AM 69.0°F20.6°C 66.3°F19.1°C 91% 7.0 mph SSW11.3 kmh SSW 7.0 mph11.3 kmh 29.69 in1005.4 mb 0.00 in0.0 mm 0.00 in0.0 mm 0.23 in5.8 mm
03:02 AM 68.9°F20.5°C 66.2°F19.0°C 91% 8.0 mph SW12.9 kmh SW 10.0 mph16.1 kmh 29.69 in1005.4 mb 0.00 in0.0 mm 0.00 in0.0 mm 0.23 in5.8 mm
03:01 AM 68.9°F20.5°C 66.2°F19.0°C 91% 6.0 mph SW9.7 kmh SW 10.0 mph16.1 kmh 29.69 in1005.4 mb 0.00 in0.0 mm 0.00 in0.0 mm 0.23 in5.8 mm
03:00 AM 68.9°F20.5°C 66.2°F19.0°C 91% 3.0 mph SW4.8 kmh SW 10.0 mph16.1 kmh 29.69 in1005.4 mb 0.00 in0.0 mm 0.00 in0.0 mm 0.23 in5.8 mm
02:59 AM 68.9°F20.5°C 66.2°F19.0°C 91% 5.0 mph SW8.0 kmh SW 10.0 mph16.1 kmh 29.69 in1005.4 mb 0.00 in0.0 mm 0.00 in0.0 mm 0.23 in5.8 mm
02:58 AM 68.8°F20.4°C 66.1°F18.9°C 91% 7.0 mph SW11.3 kmh SW 10.0 mph16.1 kmh 29.69 in1005.4 mb 0.00 in0.0 mm 0.00 in0.0 mm 0.23 in5.8 mm
02:57 AM 68.8°F20.4°C 66.1°F18.9°C 91% 7.0 mph SW11.3 kmh SW 10.0 mph16.1 kmh 29.69 in1005.4 mb 0.00 in0.0 mm 0.00 in0.0 mm 0.23 in5.8 mm
02:56 AM 68.8°F20.4°C 66.1°F18.9°C 91% 7.0 mph SW11.3 kmh SW 10.0 mph16.1 kmh 29.69 in1005.4 mb 0.00 in0.0 mm 0.00 in0.0 mm 0.23 in5.8 mm
02:55 AM 68.8°F20.4°C 66.1°F18.9°C 91% 8.0 mph SW12.9 kmh SW 10.0 mph16.1 kmh 29.69 in1005.4 mb 0.00 in0.0 mm 0.00 in0.0 mm 0.23 in5.8 mm
02:54 AM 68.8°F20.4°C 66.1°F18.9°C 91% 6.0 mph SSW9.7 kmh SSW 10.0 mph16.1 kmh 29.69 in1005.4 mb 0.00 in0.0 mm 0.00 in0.0 mm 0.23 in5.8 mm
02:53 AM 68.8°F20.4°C 66.4°F19.1°C 92% 6.0 mph SW9.7 kmh SW 10.0 mph16.1 kmh 29.69 in1005.4 mb 0.00 in0.0 mm 0.00 in0.0 mm 0.23 in5.8 mm
02:52 AM 68.8°F20.4°C 66.4°F19.1°C 92% 6.0 mph S9.7 kmh S 10.0 mph16.1 kmh 29.69 in1005.4 mb 0.00 in0.0 mm 0.00 in0.0 mm 0.23 in5.8 mm
02:51 AM 68.8°F20.4°C 66.4°F19.1°C 92% 5.0 mph SW8.0 kmh SW 10.0 mph16.1 kmh 29.69 in1005.4 mb 0.00 in0.0 mm 0.00 in0.0 mm 0.23 in5.8 mm
02:50 AM 68.8°F20.4°C 66.4°F19.1°C 92% 6.0 mph SSW9.7 kmh SSW 8.0 mph12.9 kmh 29.69 in1005.4 mb 0.00 in0.0 mm 0.00 in0.0 mm 0.23 in5.8 mm
02:49 AM 68.8°F20.4°C 66.4°F19.1°C 92% 7.0 mph SSW11.3 kmh SSW 8.0 mph12.9 kmh 29.69 in1005.4 mb 0.00 in0.0 mm 0.00 in0.0 mm 0.23 in5.8 mm
02:48 AM 68.8°F20.4°C 66.4°F19.1°C 92% 5.0 mph SSW8.0 kmh SSW 8.0 mph12.9 kmh 29.69 in1005.4 mb 0.00 in0.0 mm 0.00 in0.0 mm 0.23 in5.8 mm
02:47 AM 68.8°F20.4°C 66.4°F19.1°C 92% 5.0 mph S8.0 kmh S 8.0 mph12.9 kmh 29.69 in1005.4 mb 0.00 in0.0 mm 0.00 in0.0 mm 0.23 in5.8 mm
02:46 AM 68.8°F20.4°C 66.4°F19.1°C 92% 5.0 mph SSW8.0 kmh SSW 8.0 mph12.9 kmh 29.69 in1005.4 mb 0.00 in0.0 mm 0.00 in0.0 mm 0.23 in5.8 mm
02:45 AM 68.8°F20.4°C 66.4°F19.1°C 92% 5.0 mph SSW8.0 kmh SSW 8.0 mph12.9 kmh 29.69 in1005.4 mb 0.00 in0.0 mm 0.00 in0.0 mm 0.23 in5.8 mm
02:44 AM 68.8°F20.4°C 66.4°F19.1°C 92% 6.0 mph SSW9.7 kmh SSW 8.0 mph12.9 kmh 29.69 in1005.4 mb 0.00 in0.0 mm 0.00 in0.0 mm 0.23 in5.8 mm
02:43 AM 68.8°F20.4°C 66.4°F19.1°C 92% 5.0 mph SW8.0 kmh SW 7.0 mph11.3 kmh 29.69 in1005.4 mb 0.00 in0.0 mm 0.00 in0.0 mm 0.23 in5.8 mm
02:42 AM 68.9°F20.5°C 66.5°F19.2°C 92% 5.0 mph SSW8.0 kmh SSW 7.0 mph11.3 kmh 29.69 in1005.4 mb 0.00 in0.0 mm 0.00 in0.0 mm 0.23 in5.8 mm
02:41 AM 68.9°F20.5°C 66.5°F19.2°C 92% 5.0 mph SW8.0 kmh SW 7.0 mph11.3 kmh 29.69 in1005.4 mb 0.00 in0.0 mm 0.00 in0.0 mm 0.23 in5.8 mm
02:40 AM 68.9°F20.5°C 66.5°F19.2°C 92% 5.0 mph SW8.0 kmh SW 7.0 mph11.3 kmh 29.69 in1005.4 mb 0.00 in0.0 mm 0.00 in0.0 mm 0.23 in5.8 mm
02:39 AM 68.9°F20.5°C 66.5°F19.2°C 92% 4.0 mph SSW6.4 kmh SSW 6.0 mph9.7 kmh 29.69 in1005.4 mb 0.00 in0.0 mm 0.00 in0.0 mm 0.23 in5.8 mm
02:38 AM 69.0°F20.6°C 66.6°F19.2°C 92% 5.0 mph SSW8.0 kmh SSW 6.0 mph9.7 kmh 29.69 in1005.4 mb 0.00 in0.0 mm 0.00 in0.0 mm 0.23 in5.8 mm
02:37 AM 69.0°F20.6°C 66.6°F19.2°C 92% 4.0 mph SSW6.4 kmh SSW 6.0 mph9.7 kmh 29.69 in1005.4 mb 0.00 in0.0 mm 0.00 in0.0 mm 0.23 in5.8 mm
02:36 AM 69.0°F20.6°C 66.3°F19.1°C 91% 5.0 mph SSW8.0 kmh SSW 6.0 mph9.7 kmh 29.69 in1005.4 mb 0.00 in0.0 mm 0.00 in0.0 mm 0.23 in5.8 mm
02:35 AM 69.1°F20.6°C 66.4°F19.1°C 91% 6.0 mph S9.7 kmh S 6.0 mph9.7 kmh 29.69 in1005.4 mb 0.00 in0.0 mm 0.00 in0.0 mm 0.23 in5.8 mm
02:34 AM 69.1°F20.6°C 66.4°F19.1°C 91% 5.0 mph S8.0 kmh S 6.0 mph9.7 kmh 29.70 in1005.8 mb 0.00 in0.0 mm 0.00 in0.0 mm 0.23 in5.8 mm
02:33 AM 69.1°F20.6°C 66.7°F19.3°C 92% 5.0 mph SW8.0 kmh SW 6.0 mph9.7 kmh 29.69 in1005.4 mb 0.00 in0.0 mm 0.00 in0.0 mm 0.23 in5.8 mm
02:32 AM 69.1°F20.6°C 66.4°F19.1°C 91% 4.0 mph SSW6.4 kmh SSW 7.0 mph11.3 kmh 29.70 in1005.8 mb 0.00 in0.0 mm 0.00 in0.0 mm 0.23 in5.8 mm
02:31 AM 69.2°F20.7°C 66.8°F19.3°C 92% 5.0 mph SSW8.0 kmh SSW 7.0 mph11.3 kmh 29.70 in1005.8 mb 0.00 in0.0 mm 0.00 in0.0 mm 0.23 in5.8 mm
02:30 AM 69.2°F20.7°C 66.8°F19.3°C 92% 4.0 mph SSW6.4 kmh SSW 7.0 mph11.3 kmh 29.70 in1005.8 mb 0.00 in0.0 mm 0.00 in0.0 mm 0.23 in5.8 mm
02:29 AM 69.2°F20.7°C 66.8°F19.3°C 92% 5.0 mph SSW8.0 kmh SSW 7.0 mph11.3 kmh 29.70 in1005.8 mb 0.00 in0.0 mm 0.00 in0.0 mm 0.23 in5.8 mm
02:28 AM 69.2°F20.7°C 66.8°F19.3°C 92% 5.0 mph SSW8.0 kmh SSW 7.0 mph11.3 kmh 29.70 in1005.8 mb 0.00 in0.0 mm 0.00 in0.0 mm 0.23 in5.8 mm
02:27 AM 69.3°F20.7°C 66.9°F19.4°C 92% 5.0 mph SSW8.0 kmh SSW 7.0 mph11.3 kmh 29.70 in1005.8 mb 0.00 in0.0 mm 0.00 in0.0 mm 0.23 in5.8 mm
02:26 AM 69.3°F20.7°C 66.9°F19.4°C 92% 5.0 mph SSW8.0 kmh SSW 7.0 mph11.3 kmh 29.70 in1005.8 mb 0.00 in0.0 mm 0.00 in0.0 mm 0.23 in5.8 mm
02:25 AM 69.3°F20.7°C 66.9°F19.4°C 92% 5.0 mph SSW8.0 kmh SSW 7.0 mph11.3 kmh 29.70 in1005.8 mb 0.00 in0.0 mm 0.00 in0.0 mm 0.23 in5.8 mm
02:24 AM 69.3°F20.7°C 66.9°F19.4°C 92% 6.0 mph SSW9.7 kmh SSW 7.0 mph11.3 kmh 29.70 in1005.8 mb 0.00 in0.0 mm 0.00 in0.0 mm 0.23 in5.8 mm
02:23 AM 69.3°F20.7°C 66.9°F19.4°C 92% 6.0 mph SSW9.7 kmh SSW 7.0 mph11.3 kmh 29.70 in1005.8 mb 0.00 in0.0 mm 0.00 in0.0 mm 0.23 in5.8 mm
02:22 AM 69.4°F20.8°C 67.0°F19.4°C 92% 5.0 mph SSW8.0 kmh SSW 7.0 mph11.3 kmh 29.70 in1005.8 mb 0.00 in0.0 mm 0.00 in0.0 mm 0.23 in5.8 mm
02:21 AM 69.4°F20.8°C 67.0°F19.4°C 92% 5.0 mph SSW8.0 kmh SSW 7.0 mph11.3 kmh 29.70 in1005.8 mb 0.00 in0.0 mm 0.00 in0.0 mm 0.23 in5.8 mm
02:20 AM 69.4°F20.8°C 67.0°F19.4°C 92% 4.0 mph SSW6.4 kmh SSW 7.0 mph11.3 kmh 29.70 in1005.8 mb 0.00 in0.0 mm 0.00 in0.0 mm 0.23 in5.8 mm
02:19 AM 69.4°F20.8°C 66.7°F19.3°C 91% 5.0 mph SSW8.0 kmh SSW 7.0 mph11.3 kmh 29.70 in1005.8 mb 0.00 in0.0 mm 0.00 in0.0 mm 0.23 in5.8 mm
02:18 AM 69.5°F20.8°C 66.8°F19.3°C 91% 5.0 mph SSW8.0 kmh SSW 7.0 mph11.3 kmh 29.70 in1005.8 mb 0.00 in0.0 mm 0.00 in0.0 mm 0.23 in5.8 mm
02:17 AM 69.5°F20.8°C 66.8°F19.3°C 91% 5.0 mph SW8.0 kmh SW 7.0 mph11.3 kmh 29.70 in1005.8 mb 0.00 in0.0 mm 0.00 in0.0 mm 0.23 in5.8 mm
02:16 AM 69.5°F20.8°C 66.8°F19.3°C 91% 5.0 mph SW8.0 kmh SW 7.0 mph11.3 kmh 29.70 in1005.8 mb 0.00 in0.0 mm 0.00 in0.0 mm 0.23 in5.8 mm
02:15 AM 69.5°F20.8°C 66.8°F19.3°C 91% 4.0 mph SW6.4 kmh SW 7.0 mph11.3 kmh 29.70 in1005.8 mb 0.00 in0.0 mm 0.00 in0.0 mm 0.23 in5.8 mm
02:14 AM 69.6°F20.9°C 66.9°F19.4°C 91% 4.0 mph SSW6.4 kmh SSW 7.0 mph11.3 kmh 29.70 in1005.8 mb 0.00 in0.0 mm 0.00 in0.0 mm 0.23 in5.8 mm
02:13 AM 69.6°F20.9°C 66.9°F19.4°C 91% 4.0 mph SSW6.4 kmh SSW 7.0 mph11.3 kmh 29.70 in1005.8 mb 0.00 in0.0 mm 0.00 in0.0 mm 0.23 in5.8 mm
02:12 AM 69.7°F20.9°C 67.0°F19.4°C 91% 5.0 mph S8.0 kmh S 7.0 mph11.3 kmh 29.70 in1005.8 mb 0.00 in0.0 mm 0.00 in0.0 mm 0.23 in5.8 mm
02:11 AM 69.7°F20.9°C 67.0°F19.4°C 91% 5.0 mph SSW8.0 kmh SSW 7.0 mph11.3 kmh 29.70 in1005.8 mb 0.00 in0.0 mm 0.00 in0.0 mm 0.23 in5.8 mm
02:10 AM 69.7°F20.9°C 67.0°F19.4°C 91% 5.0 mph S8.0 kmh S 7.0 mph11.3 kmh 29.70 in1005.8 mb 0.00 in0.0 mm 0.00 in0.0 mm 0.23 in5.8 mm
02:09 AM 69.7°F20.9°C 67.0°F19.4°C 91% 4.0 mph SSW6.4 kmh SSW 7.0 mph11.3 kmh 29.70 in1005.8 mb 0.00 in0.0 mm 0.00 in0.0 mm 0.23 in5.8 mm
02:08 AM 69.8°F21.0°C 67.1°F19.5°C 91% 5.0 mph S8.0 kmh S 7.0 mph11.3 kmh 29.70 in1005.8 mb 0.00 in0.0 mm 0.00 in0.0 mm 0.23 in5.8 mm
02:07 AM 69.8°F21.0°C 67.1°F19.5°C 91% 5.0 mph SSW8.0 kmh SSW 7.0 mph11.3 kmh 29.70 in1005.8 mb 0.00 in0.0 mm 0.00 in0.0 mm 0.23 in5.8 mm
02:06 AM 69.8°F21.0°C 67.1°F19.5°C 91% 4.0 mph S6.4 kmh S 7.0 mph11.3 kmh 29.70 in1005.8 mb 0.00 in0.0 mm 0.00 in0.0 mm 0.23 in5.8 mm
02:05 AM 69.8°F21.0°C 67.1°F19.5°C 91% 5.0 mph S8.0 kmh S 7.0 mph11.3 kmh 29.70 in1005.8 mb 0.00 in0.0 mm 0.00 in0.0 mm 0.23 in5.8 mm
02:04 AM 69.9°F21.1°C 67.2°F19.6°C 91% 7.0 mph S11.3 kmh S 7.0 mph11.3 kmh 29.70 in1005.8 mb 0.00 in0.0 mm 0.00 in0.0 mm 0.23 in5.8 mm
02:03 AM 69.9°F21.1°C 67.2°F19.6°C 91% 6.0 mph S9.7 kmh S 6.0 mph9.7 kmh 29.70 in1005.8 mb 0.00 in0.0 mm 0.00 in0.0 mm 0.23 in5.8 mm
02:02 AM 69.9°F21.1°C 67.2°F19.6°C 91% 5.0 mph S8.0 kmh S 9.0 mph14.5 kmh 29.70 in1005.8 mb 0.23 in5.8 mm 0.00 in0.0 mm 0.23 in5.8 mm
02:01 AM 70.0°F21.1°C 67.3°F19.6°C 91% 5.0 mph S8.0 kmh S 9.0 mph14.5 kmh 29.70 in1005.8 mb 0.23 in5.8 mm 0.00 in0.0 mm 0.23 in5.8 mm
02:00 AM 70.0°F21.1°C 67.3°F19.6°C 91% 6.0 mph S9.7 kmh S 9.0 mph14.5 kmh 29.70 in1005.8 mb 0.23 in5.8 mm 0.00 in0.0 mm 0.23 in5.8 mm
01:59 AM 70.1°F21.2°C 67.4°F19.7°C 91% 6.0 mph S9.7 kmh S 9.0 mph14.5 kmh 29.70 in1005.8 mb 0.23 in5.8 mm 0.00 in0.0 mm 0.23 in5.8 mm
01:58 AM 70.1°F21.2°C 67.4°F19.7°C 91% 6.0 mph SSW9.7 kmh SSW 9.0 mph14.5 kmh 29.70 in1005.8 mb 0.23 in5.8 mm 0.00 in0.0 mm 0.23 in5.8 mm
01:57 AM 70.2°F21.2°C 67.5°F19.7°C 91% 7.0 mph S11.3 kmh S 9.0 mph14.5 kmh 29.70 in1005.8 mb 0.23 in5.8 mm 0.00 in0.0 mm 0.23 in5.8 mm
01:56 AM 70.2°F21.2°C 67.5°F19.7°C 91% 6.0 mph S9.7 kmh S 9.0 mph14.5 kmh 29.70 in1005.8 mb 0.23 in5.8 mm 0.00 in0.0 mm 0.23 in5.8 mm
01:55 AM 70.2°F21.2°C 67.1°F19.5°C 90% 6.0 mph S9.7 kmh S 9.0 mph14.5 kmh 29.70 in1005.8 mb 0.23 in5.8 mm 0.00 in0.0 mm 0.23 in5.8 mm
01:54 AM 70.3°F21.3°C 67.2°F19.6°C 90% 4.0 mph S6.4 kmh S 9.0 mph14.5 kmh 29.70 in1005.8 mb 0.23 in5.8 mm 0.00 in0.0 mm 0.23 in5.8 mm
01:53 AM 70.3°F21.3°C 67.2°F19.6°C 90% 5.0 mph S8.0 kmh S 9.0 mph14.5 kmh 29.70 in1005.8 mb 0.23 in5.8 mm 0.00 in0.0 mm 0.23 in5.8 mm
01:52 AM 70.4°F21.3°C 67.3°F19.6°C 90% 7.0 mph S11.3 kmh S 9.0 mph14.5 kmh 29.70 in1005.8 mb 0.23 in5.8 mm 0.00 in0.0 mm 0.23 in5.8 mm
01:51 AM 70.4°F21.3°C 67.3°F19.6°C 90% 7.0 mph S11.3 kmh S 9.0 mph14.5 kmh 29.70 in1005.8 mb 0.23 in5.8 mm 0.00 in0.0 mm 0.23 in5.8 mm
01:50 AM 70.5°F21.4°C 67.4°F19.7°C 90% 6.0 mph S9.7 kmh S 9.0 mph14.5 kmh 29.70 in1005.8 mb 0.23 in5.8 mm 0.00 in0.0 mm 0.23 in5.8 mm
01:49 AM 70.5°F21.4°C 67.4°F19.7°C 90% 6.0 mph SSW9.7 kmh SSW 9.0 mph14.5 kmh 29.70 in1005.8 mb 0.23 in5.8 mm 0.00 in0.0 mm 0.23 in5.8 mm
01:48 AM 70.6°F21.4°C 67.5°F19.7°C 90% 6.0 mph SSW9.7 kmh SSW 9.0 mph14.5 kmh 29.70 in1005.8 mb 0.23 in5.8 mm 0.00 in0.0 mm 0.23 in5.8 mm
01:47 AM 70.6°F21.4°C 67.5°F19.7°C 90% 7.0 mph S11.3 kmh S 9.0 mph14.5 kmh 29.70 in1005.8 mb 0.23 in5.8 mm 0.00 in0.0 mm 0.23 in5.8 mm
01:46 AM 70.7°F21.5°C 67.6°F19.8°C 90% 6.0 mph S9.7 kmh S 9.0 mph14.5 kmh 29.70 in1005.8 mb 0.23 in5.8 mm 0.00 in0.0 mm 0.23 in5.8 mm
01:45 AM 70.8°F21.6°C 67.7°F19.8°C 90% 6.0 mph SSW9.7 kmh SSW 9.0 mph14.5 kmh 29.70 in1005.8 mb 0.23 in5.8 mm 0.00 in0.0 mm 0.23 in5.8 mm
01:44 AM 70.8°F21.6°C 67.4°F19.7°C 89% 7.0 mph S11.3 kmh S 9.0 mph14.5 kmh 29.70 in1005.8 mb 0.23 in5.8 mm 0.00 in0.0 mm 0.23 in5.8 mm
01:43 AM 70.8°F21.6°C 67.4°F19.7°C 89% 6.0 mph S9.7 kmh S 9.0 mph14.5 kmh 29.71 in1006.1 mb 0.23 in5.8 mm 0.00 in0.0 mm 0.23 in5.8 mm
01:42 AM 70.9°F21.6°C 67.5°F19.7°C 89% 6.0 mph S9.7 kmh S 9.0 mph14.5 kmh 29.71 in1006.1 mb 0.23 in5.8 mm 0.00 in0.0 mm 0.23 in5.8 mm
01:41 AM 71.0°F21.7°C 67.6°F19.8°C 89% 6.0 mph SSW9.7 kmh SSW 9.0 mph14.5 kmh 29.71 in1006.1 mb 0.23 in5.8 mm 0.00 in0.0 mm 0.23 in5.8 mm
01:40 AM 71.0°F21.7°C 67.6°F19.8°C 89% 7.0 mph S11.3 kmh S 9.0 mph14.5 kmh 29.71 in1006.1 mb 0.23 in5.8 mm 0.00 in0.0 mm 0.23 in5.8 mm
01:39 AM 71.1°F21.7°C 67.7°F19.8°C 89% 9.0 mph SSW14.5 kmh SSW 9.0 mph14.5 kmh 29.71 in1006.1 mb 0.23 in5.8 mm 0.00 in0.0 mm 0.23 in5.8 mm
01:38 AM 71.1°F21.7°C 67.7°F19.8°C 89% 5.0 mph S8.0 kmh S 9.0 mph14.5 kmh 29.71 in1006.1 mb 0.23 in5.8 mm 0.00 in0.0 mm 0.23 in5.8 mm
01:37 AM 71.2°F21.8°C 67.8°F19.9°C 89% 7.0 mph SSW11.3 kmh SSW 9.0 mph14.5 kmh 29.71 in1006.1 mb 0.23 in5.8 mm 0.00 in0.0 mm 0.23 in5.8 mm
01:36 AM 71.2°F21.8°C 67.8°F19.9°C 89% 6.0 mph SSW9.7 kmh SSW 9.0 mph14.5 kmh 29.71 in1006.1 mb 0.23 in5.8 mm 0.00 in0.0 mm 0.23 in5.8 mm
01:35 AM 71.3°F21.8°C 67.9°F19.9°C 89% 6.0 mph SSW9.7 kmh SSW 9.0 mph14.5 kmh 29.71 in1006.1 mb 0.23 in5.8 mm 0.00 in0.0 mm 0.23 in5.8 mm
01:34 AM 71.3°F21.8°C 67.6°F19.8°C 88% 5.0 mph SSW8.0 kmh SSW 9.0 mph14.5 kmh 29.71 in1006.1 mb 0.23 in5.8 mm 0.00 in0.0 mm 0.23 in5.8 mm
01:33 AM 71.3°F21.8°C 67.6°F19.8°C 88% 6.0 mph S9.7 kmh S 9.0 mph14.5 kmh 29.71 in1006.1 mb 0.23 in5.8 mm 0.00 in0.0 mm 0.23 in5.8 mm
01:32 AM 71.3°F21.8°C 67.6°F19.8°C 88% 9.0 mph SSW14.5 kmh SSW 16.0 mph25.7 kmh 29.71 in1006.1 mb 0.23 in5.8 mm 0.00 in0.0 mm 0.23 in5.8 mm
01:31 AM 71.4°F21.9°C 67.7°F19.8°C 88% 7.0 mph S11.3 kmh S 16.0 mph25.7 kmh 29.71 in1006.1 mb 0.23 in5.8 mm 0.00 in0.0 mm 0.23 in5.8 mm
01:30 AM 71.4°F21.9°C 67.7°F19.8°C 88% 9.0 mph SW14.5 kmh SW 16.0 mph25.7 kmh 29.71 in1006.1 mb 0.23 in5.8 mm 0.00 in0.0 mm 0.23 in5.8 mm
01:29 AM 71.5°F21.9°C 67.8°F19.9°C 88% 6.0 mph S9.7 kmh S 16.0 mph25.7 kmh 29.71 in1006.1 mb 0.23 in5.8 mm 0.00 in0.0 mm 0.23 in5.8 mm
01:28 AM 71.5°F21.9°C 67.8°F19.9°C 88% 8.0 mph SW12.9 kmh SW 16.0 mph25.7 kmh 29.71 in1006.1 mb 0.23 in5.8 mm 0.00 in0.0 mm 0.23 in5.8 mm
01:27 AM 71.5°F21.9°C 67.8°F19.9°C 88% 7.0 mph SSW11.3 kmh SSW 16.0 mph25.7 kmh 29.71 in1006.1 mb 0.23 in5.8 mm 0.00 in0.0 mm 0.23 in5.8 mm
01:26 AM 71.6°F22.0°C 67.9°F19.9°C 88% 8.0 mph SW12.9 kmh SW 16.0 mph25.7 kmh 29.71 in1006.1 mb 0.23 in5.8 mm 0.00 in0.0 mm 0.23 in5.8 mm
01:25 AM 71.6°F22.0°C 67.9°F19.9°C 88% 8.0 mph SW12.9 kmh SW 16.0 mph25.7 kmh 29.71 in1006.1 mb 0.23 in5.8 mm 0.00 in0.0 mm 0.23 in5.8 mm
01:24 AM 71.6°F22.0°C 67.9°F19.9°C 88% 7.0 mph SSW11.3 kmh SSW 16.0 mph25.7 kmh 29.71 in1006.1 mb 0.23 in5.8 mm 0.00 in0.0 mm 0.23 in5.8 mm
01:23 AM 71.6°F22.0°C 67.9°F19.9°C 88% 8.0 mph SW12.9 kmh SW 16.0 mph25.7 kmh 29.71 in1006.1 mb 0.23 in5.8 mm 0.00 in0.0 mm 0.23 in5.8 mm
01:22 AM 71.5°F21.9°C 67.8°F19.9°C 88% 7.0 mph S11.3 kmh S 16.0 mph25.7 kmh 29.72 in1006.4 mb 0.23 in5.8 mm 0.00 in0.0 mm 0.23 in5.8 mm
01:21 AM 71.5°F21.9°C 67.8°F19.9°C 88% 9.0 mph SW14.5 kmh SW 16.0 mph25.7 kmh 29.72 in1006.4 mb 0.23 in5.8 mm 0.00 in0.0 mm 0.23 in5.8 mm
01:20 AM 71.4°F21.9°C 67.7°F19.8°C 88% 7.0 mph SSW11.3 kmh SSW 16.0 mph25.7 kmh 29.71 in1006.1 mb 0.23 in5.8 mm 0.00 in0.0 mm 0.23 in5.8 mm
01:19 AM 71.3°F21.8°C 67.6°F19.8°C 88% 9.0 mph SW14.5 kmh SW 16.0 mph25.7 kmh 29.72 in1006.4 mb 0.23 in5.8 mm 0.00 in0.0 mm 0.23 in5.8 mm
01:18 AM 71.2°F21.8°C 67.5°F19.7°C 88% 12.0 mph SSW19.3 kmh SSW 16.0 mph25.7 kmh 29.72 in1006.4 mb 0.23 in5.8 mm 0.00 in0.0 mm 0.23 in5.8 mm
01:17 AM 71.0°F21.7°C 67.3°F19.6°C 88% 7.0 mph SSW11.3 kmh SSW 16.0 mph25.7 kmh 29.72 in1006.4 mb 0.23 in5.8 mm 0.00 in0.0 mm 0.23 in5.8 mm
01:16 AM 70.8°F21.6°C 67.1°F19.5°C 88% 9.0 mph SSW14.5 kmh SSW 15.0 mph24.1 kmh 29.72 in1006.4 mb 0.23 in5.8 mm 0.00 in0.0 mm 0.23 in5.8 mm
01:15 AM 70.7°F21.5°C 67.0°F19.4°C 88% 14.0 mph SSW22.5 kmh SSW 15.0 mph24.1 kmh 29.72 in1006.4 mb 0.23 in5.8 mm 0.00 in0.0 mm 0.23 in5.8 mm
01:14 AM 70.6°F21.4°C 66.9°F19.4°C 88% 11.0 mph SSW17.7 kmh SSW 14.0 mph22.5 kmh 29.72 in1006.4 mb 0.23 in5.8 mm 0.00 in0.0 mm 0.23 in5.8 mm
01:13 AM 70.4°F21.3°C 66.7°F19.3°C 88% 8.0 mph SSW12.9 kmh SSW 14.0 mph22.5 kmh 29.72 in1006.4 mb 0.23 in5.8 mm 0.00 in0.0 mm 0.23 in5.8 mm
01:12 AM 70.3°F21.3°C 66.6°F19.2°C 88% 10.0 mph SSW16.1 kmh SSW 14.0 mph22.5 kmh 29.72 in1006.4 mb 0.23 in5.8 mm 0.00 in0.0 mm 0.23 in5.8 mm
01:11 AM 70.1°F21.2°C 66.4°F19.1°C 88% 8.0 mph S12.9 kmh S 14.0 mph22.5 kmh 29.72 in1006.4 mb 0.23 in5.8 mm 0.00 in0.0 mm 0.23 in5.8 mm
01:10 AM 70.0°F21.1°C 66.3°F19.1°C 88% 11.0 mph S17.7 kmh S 14.0 mph22.5 kmh 29.72 in1006.4 mb 0.23 in5.8 mm 0.00 in0.0 mm 0.23 in5.8 mm
01:09 AM 69.9°F21.1°C 66.5°F19.2°C 89% 11.0 mph S17.7 kmh S 14.0 mph22.5 kmh 29.72 in1006.4 mb 0.23 in5.8 mm 0.00 in0.0 mm 0.23 in5.8 mm
01:08 AM 69.9°F21.1°C 66.2°F19.0°C 88% 7.0 mph SSW11.3 kmh SSW 14.0 mph22.5 kmh 29.73 in1006.8 mb 0.23 in5.8 mm 0.00 in0.0 mm 0.23 in5.8 mm
01:07 AM 69.8°F21.0°C 66.1°F18.9°C 88% 7.0 mph SW11.3 kmh SW 14.0 mph22.5 kmh 29.73 in1006.8 mb 0.23 in5.8 mm 0.00 in0.0 mm 0.23 in5.8 mm
01:06 AM 69.8°F21.0°C 66.1°F18.9°C 88% 8.0 mph S12.9 kmh S 14.0 mph22.5 kmh 29.73 in1006.8 mb 0.23 in5.8 mm 0.00 in0.0 mm 0.23 in5.8 mm
01:05 AM 69.8°F21.0°C 66.4°F19.1°C 89% 7.0 mph S11.3 kmh S 14.0 mph22.5 kmh 29.73 in1006.8 mb 0.23 in5.8 mm 0.00 in0.0 mm 0.23 in5.8 mm
01:04 AM 69.8°F21.0°C 66.4°F19.1°C 89% 7.0 mph S11.3 kmh S 7.0 mph11.3 kmh 29.73 in1006.8 mb 0.23 in5.8 mm 0.00 in0.0 mm 0.23 in5.8 mm
01:03 AM 69.9°F21.1°C 66.5°F19.2°C 89% 5.0 mph SW8.0 kmh SW 7.0 mph11.3 kmh 29.73 in1006.8 mb 0.23 in5.8 mm 0.00 in0.0 mm 0.23 in5.8 mm
01:02 AM 70.0°F21.1°C 66.3°F19.1°C 88% 4.0 mph SW6.4 kmh SW 17.0 mph27.4 kmh 29.73 in1006.8 mb 0.23 in5.8 mm 0.00 in0.0 mm 0.23 in5.8 mm
01:01 AM 70.1°F21.2°C 66.4°F19.1°C 88% 8.0 mph SW12.9 kmh SW 17.0 mph27.4 kmh 29.73 in1006.8 mb 0.23 in5.8 mm 0.00 in0.0 mm 0.23 in5.8 mm
01:00 AM 70.1°F21.2°C 66.4°F19.1°C 88% 7.0 mph SW11.3 kmh SW 17.0 mph27.4 kmh 29.73 in1006.8 mb 0.23 in5.8 mm 0.00 in0.0 mm 0.23 in5.8 mm
12:59 AM 70.3°F21.3°C 66.6°F19.2°C 88% 6.0 mph SW9.7 kmh SW 17.0 mph27.4 kmh 29.73 in1006.8 mb 0.23 in5.8 mm 0.60 in15.2 mm 0.23 in5.8 mm
12:58 AM 70.4°F21.3°C 66.7°F19.3°C 88% 5.0 mph SW8.0 kmh SW 17.0 mph27.4 kmh 29.74 in1007.1 mb 0.22 in5.6 mm 0.60 in15.2 mm 0.22 in5.6 mm
12:57 AM 70.5°F21.4°C 66.5°F19.2°C 87% 4.0 mph WSW6.4 kmh WSW 17.0 mph27.4 kmh 29.74 in1007.1 mb 0.21 in5.3 mm 0.60 in15.2 mm 0.21 in5.3 mm
12:56 AM 70.7°F21.5°C 66.7°F19.3°C 87% 4.0 mph WSW6.4 kmh WSW 17.0 mph27.4 kmh 29.74 in1007.1 mb 0.20 in5.1 mm 0.60 in15.2 mm 0.20 in5.1 mm
12:55 AM 70.9°F21.6°C 67.2°F19.6°C 88% 6.0 mph SSW9.7 kmh SSW 17.0 mph27.4 kmh 29.74 in1007.1 mb 0.19 in4.8 mm 1.80 in45.7 mm 0.19 in4.8 mm
12:54 AM 71.0°F21.7°C 67.3°F19.6°C 88% 4.0 mph SW6.4 kmh SW 17.0 mph27.4 kmh 29.74 in1007.1 mb 0.16 in4.1 mm 1.20 in30.5 mm 0.16 in4.1 mm
12:53 AM 71.3°F21.8°C 67.6°F19.8°C 88% 8.0 mph W12.9 kmh W 17.0 mph27.4 kmh 29.74 in1007.1 mb 0.14 in3.6 mm 3.00 in76.2 mm 0.14 in3.6 mm
12:52 AM 71.5°F21.9°C 68.1°F20.1°C 89% 10.0 mph SW16.1 kmh SW 17.0 mph27.4 kmh 29.74 in1007.1 mb 0.09 in2.3 mm 2.40 in61.0 mm 0.09 in2.3 mm
12:51 AM 71.5°F21.9°C 68.4°F20.2°C 90% 4.0 mph SW6.4 kmh SW 17.0 mph27.4 kmh 29.73 in1006.8 mb 0.05 in1.3 mm 1.20 in30.5 mm 0.05 in1.3 mm
12:50 AM 71.6°F22.0°C 68.2°F20.1°C 89% 10.0 mph SW16.1 kmh SW 17.0 mph27.4 kmh 29.73 in1006.8 mb 0.03 in0.8 mm 1.20 in30.5 mm 0.03 in0.8 mm
12:49 AM 71.6°F22.0°C 68.2°F20.1°C 89% 11.0 mph WSW17.7 kmh WSW 17.0 mph27.4 kmh 29.73 in1006.8 mb 0.01 in0.3 mm 0.60 in15.2 mm 0.01 in0.3 mm
12:48 AM 71.5°F21.9°C 68.1°F20.1°C 89% 11.0 mph SW17.7 kmh SW 17.0 mph27.4 kmh 29.73 in1006.8 mb 0.00 in0.0 mm 0.00 in0.0 mm 0.00 in0.0 mm
12:47 AM 71.5°F21.9°C 68.1°F20.1°C 89% 12.0 mph SW19.3 kmh SW 14.0 mph22.5 kmh 29.74 in1007.1 mb 0.00 in0.0 mm 0.00 in0.0 mm 0.00 in0.0 mm
12:46 AM 71.5°F21.9°C 68.1°F20.1°C 89% 5.0 mph SW8.0 kmh SW 10.0 mph16.1 kmh 29.74 in1007.1 mb 0.00 in0.0 mm 0.00 in0.0 mm 0.00 in0.0 mm
12:45 AM 71.4°F21.9°C 67.7°F19.8°C 88% 8.0 mph SW12.9 kmh SW 10.0 mph16.1 kmh 29.73 in1006.8 mb 0.00 in0.0 mm 0.00 in0.0 mm 0.00 in0.0 mm
12:44 AM 71.4°F21.9°C 67.7°F19.8°C 88% 7.0 mph SSW11.3 kmh SSW 9.0 mph14.5 kmh 29.74 in1007.1 mb 0.00 in0.0 mm 0.00 in0.0 mm 0.00 in0.0 mm
12:43 AM 71.4°F21.9°C 67.7°F19.8°C 88% 6.0 mph S9.7 kmh S 9.0 mph14.5 kmh 29.74 in1007.1 mb 0.00 in0.0 mm 0.00 in0.0 mm 0.00 in0.0 mm
12:42 AM 71.4°F21.9°C 67.7°F19.8°C 88% 6.0 mph SW9.7 kmh SW 8.0 mph12.9 kmh 29.74 in1007.1 mb 0.00 in0.0 mm 0.00 in0.0 mm 0.00 in0.0 mm
12:41 AM 71.4°F21.9°C 67.7°F19.8°C 88% 7.0 mph SSW11.3 kmh SSW 8.0 mph12.9 kmh 29.73 in1006.8 mb 0.00 in0.0 mm 0.00 in0.0 mm 0.00 in0.0 mm
12:40 AM 71.4°F21.9°C 67.7°F19.8°C 88% 7.0 mph SSW11.3 kmh SSW 8.0 mph12.9 kmh 29.73 in1006.8 mb 0.00 in0.0 mm 0.00 in0.0 mm 0.00 in0.0 mm
12:39 AM 71.4°F21.9°C 67.7°F19.8°C 88% 6.0 mph S9.7 kmh S 8.0 mph12.9 kmh 29.74 in1007.1 mb 0.00 in0.0 mm 0.00 in0.0 mm 0.00 in0.0 mm
12:38 AM 71.4°F21.9°C 67.7°F19.8°C 88% 5.0 mph SSW8.0 kmh SSW 8.0 mph12.9 kmh 29.73 in1006.8 mb 0.00 in0.0 mm 0.00 in0.0 mm 0.00 in0.0 mm
12:37 AM 71.4°F21.9°C 67.7°F19.8°C 88% 5.0 mph SSW8.0 kmh SSW 8.0 mph12.9 kmh 29.73 in1006.8 mb 0.00 in0.0 mm 0.00 in0.0 mm 0.00 in0.0 mm
12:36 AM 71.4°F21.9°C 67.7°F19.8°C 88% 7.0 mph SW11.3 kmh SW 8.0 mph12.9 kmh 29.73 in1006.8 mb 0.00 in0.0 mm 0.00 in0.0 mm 0.00 in0.0 mm
12:35 AM 71.4°F21.9°C 67.7°F19.8°C 88% 7.0 mph S11.3 kmh S 8.0 mph12.9 kmh 29.73 in1006.8 mb 0.00 in0.0 mm 0.00 in0.0 mm 0.00 in0.0 mm
12:34 AM 71.4°F21.9°C 67.7°F19.8°C 88% 7.0 mph S11.3 kmh S 8.0 mph12.9 kmh 29.73 in1006.8 mb 0.00 in0.0 mm 0.00 in0.0 mm 0.00 in0.0 mm
12:33 AM 71.4°F21.9°C 67.7°F19.8°C 88% 6.0 mph SW9.7 kmh SW 8.0 mph12.9 kmh 29.73 in1006.8 mb 0.00 in0.0 mm 0.00 in0.0 mm 0.00 in0.0 mm
12:32 AM 71.4°F21.9°C 67.7°F19.8°C 88% 6.0 mph S9.7 kmh S 7.0 mph11.3 kmh 29.73 in1006.8 mb 0.00 in0.0 mm 0.00 in0.0 mm 0.00 in0.0 mm
12:31 AM 71.4°F21.9°C 67.7°F19.8°C 88% 6.0 mph S9.7 kmh S 11.0 mph17.7 kmh 29.73 in1006.8 mb 0.00 in0.0 mm 0.00 in0.0 mm 0.00 in0.0 mm
12:30 AM 71.4°F21.9°C 67.7°F19.8°C 88% 5.0 mph S8.0 kmh S 11.0 mph17.7 kmh 29.73 in1006.8 mb 0.00 in0.0 mm 0.00 in0.0 mm 0.00 in0.0 mm
12:29 AM 71.4°F21.9°C 67.7°F19.8°C 88% 7.0 mph S11.3 kmh S 11.0 mph17.7 kmh 29.73 in1006.8 mb 0.00 in0.0 mm 0.00 in0.0 mm 0.00 in0.0 mm
12:28 AM 71.4°F21.9°C 67.7°F19.8°C 88% 5.0 mph S8.0 kmh S 11.0 mph17.7 kmh 29.73 in1006.8 mb 0.00 in0.0 mm 0.00 in0.0 mm 0.00 in0.0 mm
12:27 AM 71.4°F21.9°C 67.7°F19.8°C 88% 7.0 mph S11.3 kmh S 11.0 mph17.7 kmh 29.73 in1006.8 mb 0.00 in0.0 mm 0.00 in0.0 mm 0.00 in0.0 mm
12:26 AM 71.3°F21.8°C 67.6°F19.8°C 88% 8.0 mph S12.9 kmh S 11.0 mph17.7 kmh 29.73 in1006.8 mb 0.00 in0.0 mm 0.00 in0.0 mm 0.00 in0.0 mm
12:25 AM 71.3°F21.8°C 67.6°F19.8°C 88% 7.0 mph SW11.3 kmh SW 11.0 mph17.7 kmh 29.73 in1006.8 mb 0.00 in0.0 mm 0.00 in0.0 mm 0.00 in0.0 mm
12:24 AM 71.3°F21.8°C 67.6°F19.8°C 88% 6.0 mph S9.7 kmh S 11.0 mph17.7 kmh 29.73 in1006.8 mb 0.00 in0.0 mm 0.00 in0.0 mm 0.00 in0.0 mm
12:23 AM 71.3°F21.8°C 67.2°F19.6°C 87% 7.0 mph SW11.3 kmh SW 11.0 mph17.7 kmh 29.73 in1006.8 mb 0.00 in0.0 mm 0.00 in0.0 mm 0.00 in0.0 mm
12:22 AM 71.3°F21.8°C 67.2°F19.6°C 87% 8.0 mph S12.9 kmh S 11.0 mph17.7 kmh 29.73 in1006.8 mb 0.00 in0.0 mm 0.00 in0.0 mm 0.00 in0.0 mm
12:21 AM 71.3°F21.8°C 67.2°F19.6°C 87% 9.0 mph SW14.5 kmh SW 11.0 mph17.7 kmh 29.73 in1006.8 mb 0.00 in0.0 mm 0.00 in0.0 mm 0.00 in0.0 mm
12:20 AM 71.3°F21.8°C 67.2°F19.6°C 87% 7.0 mph SSW11.3 kmh SSW 11.0 mph17.7 kmh 29.73 in1006.8 mb 0.00 in0.0 mm 0.00 in0.0 mm 0.00 in0.0 mm
12:19 AM 71.3°F21.8°C 67.2°F19.6°C 87% 7.0 mph SSW11.3 kmh SSW 11.0 mph17.7 kmh 29.74 in1007.1 mb 0.00 in0.0 mm 0.00 in0.0 mm 0.00 in0.0 mm
12:18 AM 71.3°F21.8°C 67.2°F19.6°C 87% 7.0 mph SSW11.3 kmh SSW 11.0 mph17.7 kmh 29.74 in1007.1 mb 0.00 in0.0 mm 0.00 in0.0 mm 0.00 in0.0 mm
12:17 AM 71.3°F21.8°C 67.2°F19.6°C 87% 7.0 mph SSW11.3 kmh SSW 11.0 mph17.7 kmh 29.74 in1007.1 mb 0.00 in0.0 mm 0.00 in0.0 mm 0.00 in0.0 mm
12:16 AM 71.3°F21.8°C 67.2°F19.6°C 87% 6.0 mph SSW9.7 kmh SSW 11.0 mph17.7 kmh 29.74 in1007.1 mb 0.00 in0.0 mm 0.00 in0.0 mm 0.00 in0.0 mm
12:15 AM 71.4°F21.9°C 67.3°F19.6°C 87% 8.0 mph SSW12.9 kmh SSW 11.0 mph17.7 kmh 29.74 in1007.1 mb 0.00 in0.0 mm 0.00 in0.0 mm 0.00 in0.0 mm
12:14 AM 71.4°F21.9°C 67.3°F19.6°C 87% 7.0 mph SSW11.3 kmh SSW 11.0 mph17.7 kmh 29.74 in1007.1 mb 0.00 in0.0 mm 0.00 in0.0 mm 0.00 in0.0 mm
12:13 AM 71.4°F21.9°C 67.3°F19.6°C 87% 8.0 mph SW12.9 kmh SW 11.0 mph17.7 kmh 29.74 in1007.1 mb 0.00 in0.0 mm 0.00 in0.0 mm 0.00 in0.0 mm
12:12 AM 71.4°F21.9°C 67.3°F19.6°C 87% 7.0 mph SSW11.3 kmh SSW 11.0 mph17.7 kmh 29.74 in1007.1 mb 0.00 in0.0 mm 0.00 in0.0 mm 0.00 in0.0 mm
12:11 AM 71.4°F21.9°C 67.3°F19.6°C 87% 7.0 mph S11.3 kmh S 11.0 mph17.7 kmh 29.74 in1007.1 mb 0.00 in0.0 mm 0.00 in0.0 mm 0.00 in0.0 mm
12:10 AM 71.4°F21.9°C 67.3°F19.6°C 87% 7.0 mph SSW11.3 kmh SSW 11.0 mph17.7 kmh 29.74 in1007.1 mb 0.00 in0.0 mm 0.00 in0.0 mm 0.00 in0.0 mm
12:09 AM 71.4°F21.9°C 67.3°F19.6°C 87% 7.0 mph SSW11.3 kmh SSW 11.0 mph17.7 kmh 29.74 in1007.1 mb 0.00 in0.0 mm 0.00 in0.0 mm 0.00 in0.0 mm
12:08 AM 71.4°F21.9°C 67.3°F19.6°C 87% 8.0 mph SW12.9 kmh SW 11.0 mph17.7 kmh 29.74 in1007.1 mb 0.00 in0.0 mm 0.00 in0.0 mm 0.00 in0.0 mm
12:07 AM 71.4°F21.9°C 67.0°F19.4°C 86% 8.0 mph SSW12.9 kmh SSW 11.0 mph17.7 kmh 29.74 in1007.1 mb 0.00 in0.0 mm 0.00 in0.0 mm 0.00 in0.0 mm
12:06 AM 71.4°F21.9°C 67.0°F19.4°C 86% 7.0 mph SSW11.3 kmh SSW 11.0 mph17.7 kmh 29.74 in1007.1 mb 0.00 in0.0 mm 0.00 in0.0 mm 0.00 in0.0 mm
12:05 AM 71.4°F21.9°C 67.0°F19.4°C 86% 8.0 mph SW12.9 kmh SW 11.0 mph17.7 kmh 29.74 in1007.1 mb 0.00 in0.0 mm 0.00 in0.0 mm 0.00 in0.0 mm
12:04 AM 71.4°F21.9°C 67.0°F19.4°C 86% 8.0 mph SSW12.9 kmh SSW 11.0 mph17.7 kmh 29.74 in1007.1 mb 0.00 in0.0 mm 0.00 in0.0 mm 0.00 in0.0 mm
12:03 AM 71.4°F21.9°C 67.0°F19.4°C 86% 7.0 mph SW11.3 kmh SW 11.0 mph17.7 kmh 29.74 in1007.1 mb 0.00 in0.0 mm 0.00 in0.0 mm 0.00 in0.0 mm
12:02 AM 71.5°F21.9°C 67.1°F19.5°C 86% 7.0 mph SSW11.3 kmh SSW 7.0 mph11.3 kmh 29.74 in1007.1 mb 0.00 in0.0 mm 0.00 in0.0 mm 0.00 in0.0 mm
12:01 AM 71.5°F21.9°C 67.1°F19.5°C 86% 7.0 mph SSW11.3 kmh SSW 11.0 mph17.7 kmh 29.74 in1007.1 mb 0.00 in0.0 mm 0.00 in0.0 mm 0.00 in0.0 mm
12:00 AM 71.5°F21.9°C 67.1°F19.5°C 86% 6.0 mph SSW9.7 kmh SSW 11.0 mph17.7 kmh 29.74 in1007.1 mb 0.00 in0.0 mm 0.00 in0.0 mm 0.00 in0.0 mm